<?xml version="1.0" encoding="UTF-8" standalone="no" ?>
<gpx xmlns="http://www.topografix.com/GPX/1/1" xmlns:xsi="http://www.w3.org/2001/XMLSchema-instance" xsi:schemaLocation="http://www.topografix.com/GPX/1/1 http://www.topografix.com/GPX/1/1/gpx.xsd" version="1.1" creator="VisuGPX - https://www.visugpx.com">
  <metadata>
    <name>sortie route dombes</name>
    <desc><![CDATA[sortie vélo de route ]]></desc>
  </metadata>
  <trk>
    <name><![CDATA[ovs route]]></name>
    <trkseg>
      <trkpt lat="45.82546" lon="5.06779">
        <ele>191.4395752</ele>
        <time>2013-05-18T07:03:53Z</time>
      </trkpt>
      <trkpt lat="45.82523" lon="5.0681">
        <ele>191.4395752</ele>
        <time>2013-05-18T07:03:57Z</time>
      </trkpt>
      <trkpt lat="45.82513" lon="5.06829">
        <ele>190.9589844</ele>
        <time>2013-05-18T07:03:59Z</time>
      </trkpt>
      <trkpt lat="45.82459" lon="5.06887">
        <ele>189.036377</ele>
        <time>2013-05-18T07:04:07Z</time>
      </trkpt>
      <trkpt lat="45.82438" lon="5.0691">
        <ele>189.5169678</ele>
        <time>2013-05-18T07:04:10Z</time>
      </trkpt>
      <trkpt lat="45.82389" lon="5.06937">
        <ele>189.036377</ele>
        <time>2013-05-18T07:04:16Z</time>
      </trkpt>
      <trkpt lat="45.82311" lon="5.06993">
        <ele>189.5169678</ele>
        <time>2013-05-18T07:04:26Z</time>
      </trkpt>
      <trkpt lat="45.82276" lon="5.07044">
        <ele>189.9976807</ele>
        <time>2013-05-18T07:04:32Z</time>
      </trkpt>
      <trkpt lat="45.82235" lon="5.07133">
        <ele>189.9976807</ele>
        <time>2013-05-18T07:04:41Z</time>
      </trkpt>
      <trkpt lat="45.82203" lon="5.07208">
        <ele>190.4783936</ele>
        <time>2013-05-18T07:04:49Z</time>
      </trkpt>
      <trkpt lat="45.8218" lon="5.07232">
        <ele>190.9589844</ele>
        <time>2013-05-18T07:04:53Z</time>
      </trkpt>
      <trkpt lat="45.82173" lon="5.07234">
        <ele>191.4395752</ele>
        <time>2013-05-18T07:04:54Z</time>
      </trkpt>
      <trkpt lat="45.82081" lon="5.07263">
        <ele>190.9589844</ele>
        <time>2013-05-18T07:05:06Z</time>
      </trkpt>
      <trkpt lat="45.81964" lon="5.07289">
        <ele>189.5169678</ele>
        <time>2013-05-18T07:05:20Z</time>
      </trkpt>
      <trkpt lat="45.81874" lon="5.0732">
        <ele>189.9976807</ele>
        <time>2013-05-18T07:05:31Z</time>
      </trkpt>
      <trkpt lat="45.81814" lon="5.07364">
        <ele>189.5169678</ele>
        <time>2013-05-18T07:05:39Z</time>
      </trkpt>
      <trkpt lat="45.81768" lon="5.07421">
        <ele>189.036377</ele>
        <time>2013-05-18T07:05:46Z</time>
      </trkpt>
      <trkpt lat="45.81729" lon="5.07499">
        <ele>189.036377</ele>
        <time>2013-05-18T07:05:54Z</time>
      </trkpt>
      <trkpt lat="45.81694" lon="5.07605">
        <ele>188.0750732</ele>
        <time>2013-05-18T07:06:04Z</time>
      </trkpt>
      <trkpt lat="45.81658" lon="5.0772">
        <ele>188.5557861</ele>
        <time>2013-05-18T07:06:15Z</time>
      </trkpt>
      <trkpt lat="45.81615" lon="5.07856">
        <ele>189.036377</ele>
        <time>2013-05-18T07:06:28Z</time>
      </trkpt>
      <trkpt lat="45.81562" lon="5.08026">
        <ele>188.5557861</ele>
        <time>2013-05-18T07:06:44Z</time>
      </trkpt>
      <trkpt lat="45.81506" lon="5.08205">
        <ele>191.4395752</ele>
        <time>2013-05-18T07:07:01Z</time>
      </trkpt>
      <trkpt lat="45.81476" lon="5.08297">
        <ele>189.5169678</ele>
        <time>2013-05-18T07:07:09Z</time>
      </trkpt>
      <trkpt lat="45.81435" lon="5.08424">
        <ele>188.0750732</ele>
        <time>2013-05-18T07:07:20Z</time>
      </trkpt>
      <trkpt lat="45.81424" lon="5.08494">
        <ele>189.036377</ele>
        <time>2013-05-18T07:07:26Z</time>
      </trkpt>
      <trkpt lat="45.81426" lon="5.08575">
        <ele>190.4783936</ele>
        <time>2013-05-18T07:07:33Z</time>
      </trkpt>
      <trkpt lat="45.81436" lon="5.08715">
        <ele>191.4395752</ele>
        <time>2013-05-18T07:07:45Z</time>
      </trkpt>
      <trkpt lat="45.81428" lon="5.08782">
        <ele>192.401123</ele>
        <time>2013-05-18T07:07:51Z</time>
      </trkpt>
      <trkpt lat="45.81422" lon="5.08803">
        <ele>192.401123</ele>
        <time>2013-05-18T07:07:53Z</time>
      </trkpt>
      <trkpt lat="45.81332" lon="5.0894">
        <ele>196.7269287</ele>
        <time>2013-05-18T07:08:18Z</time>
      </trkpt>
      <trkpt lat="45.81359" lon="5.0902">
        <ele>195.2849121</ele>
        <time>2013-05-18T07:08:24Z</time>
      </trkpt>
      <trkpt lat="45.81372" lon="5.0904">
        <ele>193.8430176</ele>
        <time>2013-05-18T07:08:26Z</time>
      </trkpt>
      <trkpt lat="45.81553" lon="5.09275">
        <ele>190.4783936</ele>
        <time>2013-05-18T07:08:52Z</time>
      </trkpt>
      <trkpt lat="45.81714" lon="5.09036">
        <ele>186.6331787</ele>
        <time>2013-05-18T07:09:08Z</time>
      </trkpt>
      <trkpt lat="45.81732" lon="5.09034">
        <ele>187.1137695</ele>
        <time>2013-05-18T07:09:10Z</time>
      </trkpt>
      <trkpt lat="45.81747" lon="5.09056">
        <ele>186.1524658</ele>
        <time>2013-05-18T07:09:13Z</time>
      </trkpt>
      <trkpt lat="45.81735" lon="5.09152">
        <ele>185.1911621</ele>
        <time>2013-05-18T07:09:21Z</time>
      </trkpt>
      <trkpt lat="45.81756" lon="5.09187">
        <ele>185.6717529</ele>
        <time>2013-05-18T07:09:25Z</time>
      </trkpt>
      <trkpt lat="45.81884" lon="5.09292">
        <ele>184.7105713</ele>
        <time>2013-05-18T07:09:44Z</time>
      </trkpt>
      <trkpt lat="45.81894" lon="5.09307">
        <ele>184.7105713</ele>
        <time>2013-05-18T07:09:46Z</time>
      </trkpt>
      <trkpt lat="45.81896" lon="5.09342">
        <ele>185.1911621</ele>
        <time>2013-05-18T07:09:49Z</time>
      </trkpt>
      <trkpt lat="45.81909" lon="5.09393">
        <ele>184.7105713</ele>
        <time>2013-05-18T07:09:54Z</time>
      </trkpt>
      <trkpt lat="45.81989" lon="5.09486">
        <ele>185.6717529</ele>
        <time>2013-05-18T07:10:07Z</time>
      </trkpt>
      <trkpt lat="45.82066" lon="5.0957">
        <ele>184.2298584</ele>
        <time>2013-05-18T07:10:19Z</time>
      </trkpt>
      <trkpt lat="45.82106" lon="5.09629">
        <ele>185.1911621</ele>
        <time>2013-05-18T07:10:26Z</time>
      </trkpt>
      <trkpt lat="45.82129" lon="5.09703">
        <ele>184.7105713</ele>
        <time>2013-05-18T07:10:33Z</time>
      </trkpt>
      <trkpt lat="45.82171" lon="5.09835">
        <ele>185.6717529</ele>
        <time>2013-05-18T07:10:46Z</time>
      </trkpt>
      <trkpt lat="45.82212" lon="5.09955">
        <ele>186.1524658</ele>
        <time>2013-05-18T07:10:58Z</time>
      </trkpt>
      <trkpt lat="45.82231" lon="5.09988">
        <ele>186.1524658</ele>
        <time>2013-05-18T07:11:02Z</time>
      </trkpt>
      <trkpt lat="45.8225" lon="5.10008">
        <ele>185.6717529</ele>
        <time>2013-05-18T07:11:05Z</time>
      </trkpt>
      <trkpt lat="45.82316" lon="5.10048">
        <ele>185.1911621</ele>
        <time>2013-05-18T07:11:14Z</time>
      </trkpt>
      <trkpt lat="45.82536" lon="5.10188">
        <ele>186.1524658</ele>
        <time>2013-05-18T07:11:43Z</time>
      </trkpt>
      <trkpt lat="45.82625" lon="5.10264">
        <ele>185.6717529</ele>
        <time>2013-05-18T07:11:56Z</time>
      </trkpt>
      <trkpt lat="45.8267" lon="5.10255">
        <ele>185.6717529</ele>
        <time>2013-05-18T07:12:02Z</time>
      </trkpt>
      <trkpt lat="45.82677" lon="5.1025">
        <ele>184.7105713</ele>
        <time>2013-05-18T07:12:03Z</time>
      </trkpt>
      <trkpt lat="45.82757" lon="5.10164">
        <ele>184.7105713</ele>
        <time>2013-05-18T07:12:15Z</time>
      </trkpt>
      <trkpt lat="45.8282" lon="5.10095">
        <ele>185.6717529</ele>
        <time>2013-05-18T07:12:25Z</time>
      </trkpt>
      <trkpt lat="45.82847" lon="5.10039">
        <ele>185.6717529</ele>
        <time>2013-05-18T07:12:31Z</time>
      </trkpt>
      <trkpt lat="45.82895" lon="5.09902">
        <ele>184.2298584</ele>
        <time>2013-05-18T07:12:44Z</time>
      </trkpt>
      <trkpt lat="45.82914" lon="5.09848">
        <ele>184.7105713</ele>
        <time>2013-05-18T07:12:49Z</time>
      </trkpt>
      <trkpt lat="45.82967" lon="5.09776">
        <ele>185.1911621</ele>
        <time>2013-05-18T07:12:58Z</time>
      </trkpt>
      <trkpt lat="45.83027" lon="5.09706">
        <ele>186.1524658</ele>
        <time>2013-05-18T07:13:08Z</time>
      </trkpt>
      <trkpt lat="45.83088" lon="5.09677">
        <ele>186.1524658</ele>
        <time>2013-05-18T07:13:16Z</time>
      </trkpt>
      <trkpt lat="45.83174" lon="5.09641">
        <ele>186.1524658</ele>
        <time>2013-05-18T07:13:27Z</time>
      </trkpt>
      <trkpt lat="45.8319" lon="5.09633">
        <ele>185.6717529</ele>
        <time>2013-05-18T07:13:29Z</time>
      </trkpt>
      <trkpt lat="45.8324" lon="5.09591">
        <ele>186.1524658</ele>
        <time>2013-05-18T07:13:36Z</time>
      </trkpt>
      <trkpt lat="45.83269" lon="5.09582">
        <ele>187.1137695</ele>
        <time>2013-05-18T07:13:40Z</time>
      </trkpt>
      <trkpt lat="45.83283" lon="5.0958">
        <ele>187.1137695</ele>
        <time>2013-05-18T07:13:42Z</time>
      </trkpt>
      <trkpt lat="45.83306" lon="5.09592">
        <ele>189.5169678</ele>
        <time>2013-05-18T07:13:46Z</time>
      </trkpt>
      <trkpt lat="45.83313" lon="5.09617">
        <ele>190.9589844</ele>
        <time>2013-05-18T07:13:49Z</time>
      </trkpt>
      <trkpt lat="45.83332" lon="5.09666">
        <ele>191.9202881</ele>
        <time>2013-05-18T07:13:55Z</time>
      </trkpt>
      <trkpt lat="45.83352" lon="5.09682">
        <ele>192.8817139</ele>
        <time>2013-05-18T07:13:59Z</time>
      </trkpt>
      <trkpt lat="45.83374" lon="5.097">
        <ele>193.8430176</ele>
        <time>2013-05-18T07:14:03Z</time>
      </trkpt>
      <trkpt lat="45.83391" lon="5.09727">
        <ele>193.8430176</ele>
        <time>2013-05-18T07:14:07Z</time>
      </trkpt>
      <trkpt lat="45.83399" lon="5.09786">
        <ele>193.8430176</ele>
        <time>2013-05-18T07:14:13Z</time>
      </trkpt>
      <trkpt lat="45.83399" lon="5.09827">
        <ele>193.8430176</ele>
        <time>2013-05-18T07:14:17Z</time>
      </trkpt>
      <trkpt lat="45.83409" lon="5.09862">
        <ele>193.8430176</ele>
        <time>2013-05-18T07:14:21Z</time>
      </trkpt>
      <trkpt lat="45.83424" lon="5.09879">
        <ele>194.3237305</ele>
        <time>2013-05-18T07:14:24Z</time>
      </trkpt>
      <trkpt lat="45.83432" lon="5.09878">
        <ele>194.8043213</ele>
        <time>2013-05-18T07:14:25Z</time>
      </trkpt>
      <trkpt lat="45.83494" lon="5.0986">
        <ele>194.8043213</ele>
        <time>2013-05-18T07:14:34Z</time>
      </trkpt>
      <trkpt lat="45.8356" lon="5.09839">
        <ele>193.3623047</ele>
        <time>2013-05-18T07:14:43Z</time>
      </trkpt>
      <trkpt lat="45.83639" lon="5.09799">
        <ele>192.8817139</ele>
        <time>2013-05-18T07:14:54Z</time>
      </trkpt>
      <trkpt lat="45.83713" lon="5.09761">
        <ele>191.9202881</ele>
        <time>2013-05-18T07:15:04Z</time>
      </trkpt>
      <trkpt lat="45.83798" lon="5.09718">
        <ele>194.3237305</ele>
        <time>2013-05-18T07:15:16Z</time>
      </trkpt>
      <trkpt lat="45.83805" lon="5.09716">
        <ele>194.3237305</ele>
        <time>2013-05-18T07:15:17Z</time>
      </trkpt>
      <trkpt lat="45.83839" lon="5.09722">
        <ele>195.2849121</ele>
        <time>2013-05-18T07:15:22Z</time>
      </trkpt>
      <trkpt lat="45.83912" lon="5.09759">
        <ele>197.2075195</ele>
        <time>2013-05-18T07:15:33Z</time>
      </trkpt>
      <trkpt lat="45.83988" lon="5.09801">
        <ele>197.6882324</ele>
        <time>2013-05-18T07:15:44Z</time>
      </trkpt>
      <trkpt lat="45.84032" lon="5.09839">
        <ele>198.1689453</ele>
        <time>2013-05-18T07:15:51Z</time>
      </trkpt>
      <trkpt lat="45.84069" lon="5.09851">
        <ele>198.1689453</ele>
        <time>2013-05-18T07:15:56Z</time>
      </trkpt>
      <trkpt lat="45.84152" lon="5.09862">
        <ele>198.1689453</ele>
        <time>2013-05-18T07:16:07Z</time>
      </trkpt>
      <trkpt lat="45.84216" lon="5.09897">
        <ele>199.6108398</ele>
        <time>2013-05-18T07:16:16Z</time>
      </trkpt>
      <trkpt lat="45.84299" lon="5.09948">
        <ele>199.6108398</ele>
        <time>2013-05-18T07:16:28Z</time>
      </trkpt>
      <trkpt lat="45.84361" lon="5.09988">
        <ele>199.6108398</ele>
        <time>2013-05-18T07:16:37Z</time>
      </trkpt>
      <trkpt lat="45.84449" lon="5.10043">
        <ele>199.130127</ele>
        <time>2013-05-18T07:16:49Z</time>
      </trkpt>
      <trkpt lat="45.84542" lon="5.10102">
        <ele>198.6495361</ele>
        <time>2013-05-18T07:17:02Z</time>
      </trkpt>
      <trkpt lat="45.84614" lon="5.10145">
        <ele>199.130127</ele>
        <time>2013-05-18T07:17:12Z</time>
      </trkpt>
      <trkpt lat="45.84663" lon="5.10176">
        <ele>199.6108398</ele>
        <time>2013-05-18T07:17:20Z</time>
      </trkpt>
      <trkpt lat="45.84702" lon="5.10174">
        <ele>199.130127</ele>
        <time>2013-05-18T07:17:26Z</time>
      </trkpt>
      <trkpt lat="45.84767" lon="5.10174">
        <ele>199.130127</ele>
        <time>2013-05-18T07:17:36Z</time>
      </trkpt>
      <trkpt lat="45.84831" lon="5.10174">
        <ele>199.130127</ele>
        <time>2013-05-18T07:17:47Z</time>
      </trkpt>
      <trkpt lat="45.84976" lon="5.10149">
        <ele>245.2734375</ele>
        <time>2013-05-18T07:18:33Z</time>
      </trkpt>
      <trkpt lat="45.84951" lon="5.10479">
        <ele>202.9754639</ele>
        <time>2013-05-18T07:18:42Z</time>
      </trkpt>
      <trkpt lat="45.84941" lon="5.10598">
        <ele>203.9368896</ele>
        <time>2013-05-18T07:18:54Z</time>
      </trkpt>
      <trkpt lat="45.84933" lon="5.1073">
        <ele>204.4174805</ele>
        <time>2013-05-18T07:19:06Z</time>
      </trkpt>
      <trkpt lat="45.84923" lon="5.10902">
        <ele>204.8980713</ele>
        <time>2013-05-18T07:19:21Z</time>
      </trkpt>
      <trkpt lat="45.8492" lon="5.10981">
        <ele>206.3400879</ele>
        <time>2013-05-18T07:19:28Z</time>
      </trkpt>
      <trkpt lat="45.8493" lon="5.11009">
        <ele>206.3400879</ele>
        <time>2013-05-18T07:19:31Z</time>
      </trkpt>
      <trkpt lat="45.84942" lon="5.11015">
        <ele>206.3400879</ele>
        <time>2013-05-18T07:19:33Z</time>
      </trkpt>
      <trkpt lat="45.84999" lon="5.11031">
        <ele>207.7821045</ele>
        <time>2013-05-18T07:19:41Z</time>
      </trkpt>
      <trkpt lat="45.85005" lon="5.11035">
        <ele>207.7821045</ele>
        <time>2013-05-18T07:19:42Z</time>
      </trkpt>
      <trkpt lat="45.85058" lon="5.1107">
        <ele>208.7434082</ele>
        <time>2013-05-18T07:19:51Z</time>
      </trkpt>
      <trkpt lat="45.85129" lon="5.11094">
        <ele>208.7434082</ele>
        <time>2013-05-18T07:20:02Z</time>
      </trkpt>
      <trkpt lat="45.85179" lon="5.11104">
        <ele>209.704834</ele>
        <time>2013-05-18T07:20:10Z</time>
      </trkpt>
      <trkpt lat="45.85265" lon="5.11122">
        <ele>211.6274414</ele>
        <time>2013-05-18T07:20:24Z</time>
      </trkpt>
      <trkpt lat="45.85332" lon="5.11138">
        <ele>215.4726563</ele>
        <time>2013-05-18T07:20:36Z</time>
      </trkpt>
      <trkpt lat="45.85338" lon="5.11139">
        <ele>214.9919434</ele>
        <time>2013-05-18T07:20:37Z</time>
      </trkpt>
      <trkpt lat="45.85349" lon="5.11117">
        <ele>215.9532471</ele>
        <time>2013-05-18T07:20:41Z</time>
      </trkpt>
      <trkpt lat="45.85349" lon="5.11109">
        <ele>216.43396</ele>
        <time>2013-05-18T07:20:42Z</time>
      </trkpt>
      <trkpt lat="45.85364" lon="5.11024">
        <ele>216.9146729</ele>
        <time>2013-05-18T07:20:52Z</time>
      </trkpt>
      <trkpt lat="45.85379" lon="5.10942">
        <ele>215.9532471</ele>
        <time>2013-05-18T07:21:01Z</time>
      </trkpt>
      <trkpt lat="45.85376" lon="5.10889">
        <ele>214.5112305</ele>
        <time>2013-05-18T07:21:06Z</time>
      </trkpt>
      <trkpt lat="45.85386" lon="5.10853">
        <ele>213.5500488</ele>
        <time>2013-05-18T07:21:10Z</time>
      </trkpt>
      <trkpt lat="45.85392" lon="5.1085">
        <ele>214.0306396</ele>
        <time>2013-05-18T07:21:11Z</time>
      </trkpt>
      <trkpt lat="45.85464" lon="5.10817">
        <ele>215.4726563</ele>
        <time>2013-05-18T07:21:23Z</time>
      </trkpt>
      <trkpt lat="45.8548" lon="5.10805">
        <ele>216.43396</ele>
        <time>2013-05-18T07:21:26Z</time>
      </trkpt>
      <trkpt lat="45.85519" lon="5.10751">
        <ele>217.3953857</ele>
        <time>2013-05-18T07:21:35Z</time>
      </trkpt>
      <trkpt lat="45.85614" lon="5.10679">
        <ele>220.2791748</ele>
        <time>2013-05-18T07:21:53Z</time>
      </trkpt>
      <trkpt lat="45.8565" lon="5.10619">
        <ele>220.2791748</ele>
        <time>2013-05-18T07:22:02Z</time>
      </trkpt>
      <trkpt lat="45.85698" lon="5.10562">
        <ele>221.7211914</ele>
        <time>2013-05-18T07:22:12Z</time>
      </trkpt>
      <trkpt lat="45.85711" lon="5.10543">
        <ele>222.6824951</ele>
        <time>2013-05-18T07:22:15Z</time>
      </trkpt>
      <trkpt lat="45.85735" lon="5.1048">
        <ele>225.0859375</ele>
        <time>2013-05-18T07:22:24Z</time>
      </trkpt>
      <trkpt lat="45.8577" lon="5.10398">
        <ele>228.4504395</ele>
        <time>2013-05-18T07:22:36Z</time>
      </trkpt>
      <trkpt lat="45.85803" lon="5.10355">
        <ele>229.892334</ele>
        <time>2013-05-18T07:22:44Z</time>
      </trkpt>
      <trkpt lat="45.85838" lon="5.10326">
        <ele>227.9697266</ele>
        <time>2013-05-18T07:22:50Z</time>
      </trkpt>
      <trkpt lat="45.85852" lon="5.10298">
        <ele>223.6437988</ele>
        <time>2013-05-18T07:22:53Z</time>
      </trkpt>
      <trkpt lat="45.85855" lon="5.10285">
        <ele>223.163208</ele>
        <time>2013-05-18T07:22:54Z</time>
      </trkpt>
      <trkpt lat="45.85875" lon="5.10249">
        <ele>220.2791748</ele>
        <time>2013-05-18T07:22:57Z</time>
      </trkpt>
      <trkpt lat="45.85883" lon="5.10241">
        <ele>219.798584</ele>
        <time>2013-05-18T07:22:58Z</time>
      </trkpt>
      <trkpt lat="45.85931" lon="5.10198">
        <ele>222.2017822</ele>
        <time>2013-05-18T07:23:05Z</time>
      </trkpt>
      <trkpt lat="45.85976" lon="5.10147">
        <ele>223.6437988</ele>
        <time>2013-05-18T07:23:14Z</time>
      </trkpt>
      <trkpt lat="45.86015" lon="5.10099">
        <ele>225.5665283</ele>
        <time>2013-05-18T07:23:23Z</time>
      </trkpt>
      <trkpt lat="45.86051" lon="5.10044">
        <ele>228.9311523</ele>
        <time>2013-05-18T07:23:33Z</time>
      </trkpt>
      <trkpt lat="45.86058" lon="5.10033">
        <ele>229.4117432</ele>
        <time>2013-05-18T07:23:35Z</time>
      </trkpt>
      <trkpt lat="45.86095" lon="5.09981">
        <ele>231.8149414</ele>
        <time>2013-05-18T07:23:45Z</time>
      </trkpt>
      <trkpt lat="45.86104" lon="5.09972">
        <ele>232.2957764</ele>
        <time>2013-05-18T07:23:47Z</time>
      </trkpt>
      <trkpt lat="45.86239" lon="5.09897">
        <ele>241.9089355</ele>
        <time>2013-05-18T07:24:18Z</time>
      </trkpt>
      <trkpt lat="45.86274" lon="5.09869">
        <ele>244.7928467</ele>
        <time>2013-05-18T07:24:29Z</time>
      </trkpt>
      <trkpt lat="45.86318" lon="5.09856">
        <ele>247.6767578</ele>
        <time>2013-05-18T07:24:41Z</time>
      </trkpt>
      <trkpt lat="45.86327" lon="5.09855">
        <ele>249.1187744</ele>
        <time>2013-05-18T07:24:44Z</time>
      </trkpt>
      <trkpt lat="45.86425" lon="5.0987">
        <ele>257.770752</ele>
        <time>2013-05-18T07:25:14Z</time>
      </trkpt>
      <trkpt lat="45.86452" lon="5.09902">
        <ele>260.654541</ele>
        <time>2013-05-18T07:25:23Z</time>
      </trkpt>
      <trkpt lat="45.86454" lon="5.09907">
        <ele>260.654541</ele>
        <time>2013-05-18T07:25:24Z</time>
      </trkpt>
      <trkpt lat="45.86477" lon="5.09958">
        <ele>263.5385742</ele>
        <time>2013-05-18T07:25:35Z</time>
      </trkpt>
      <trkpt lat="45.86483" lon="5.09994">
        <ele>265.9418945</ele>
        <time>2013-05-18T07:25:41Z</time>
      </trkpt>
      <trkpt lat="45.86489" lon="5.09987">
        <ele>266.9031982</ele>
        <time>2013-05-18T07:25:45Z</time>
      </trkpt>
      <trkpt lat="45.86489" lon="5.09982">
        <ele>267.3839111</ele>
        <time>2013-05-18T07:25:46Z</time>
      </trkpt>
      <trkpt lat="45.86484" lon="5.09945">
        <ele>269.7871094</ele>
        <time>2013-05-18T07:25:55Z</time>
      </trkpt>
      <trkpt lat="45.8647" lon="5.09891">
        <ele>272.1904297</ele>
        <time>2013-05-18T07:26:06Z</time>
      </trkpt>
      <trkpt lat="45.86464" lon="5.09872">
        <ele>274.1130371</ele>
        <time>2013-05-18T07:26:10Z</time>
      </trkpt>
      <trkpt lat="45.86456" lon="5.09825">
        <ele>277.4776611</ele>
        <time>2013-05-18T07:26:20Z</time>
      </trkpt>
      <trkpt lat="45.86455" lon="5.09816">
        <ele>278.4389648</ele>
        <time>2013-05-18T07:26:22Z</time>
      </trkpt>
      <trkpt lat="45.86464" lon="5.09753">
        <ele>280.8424072</ele>
        <time>2013-05-18T07:26:34Z</time>
      </trkpt>
      <trkpt lat="45.86487" lon="5.09681">
        <ele>282.2843018</ele>
        <time>2013-05-18T07:26:45Z</time>
      </trkpt>
      <trkpt lat="45.86497" lon="5.09653">
        <ele>282.2843018</ele>
        <time>2013-05-18T07:26:49Z</time>
      </trkpt>
      <trkpt lat="45.86521" lon="5.09652">
        <ele>281.8035889</ele>
        <time>2013-05-18T07:26:54Z</time>
      </trkpt>
      <trkpt lat="45.86533" lon="5.09634">
        <ele>281.322998</ele>
        <time>2013-05-18T07:26:57Z</time>
      </trkpt>
      <trkpt lat="45.86538" lon="5.09619">
        <ele>282.2843018</ele>
        <time>2013-05-18T07:26:59Z</time>
      </trkpt>
      <trkpt lat="45.86563" lon="5.09528">
        <ele>284.2069092</ele>
        <time>2013-05-18T07:27:11Z</time>
      </trkpt>
      <trkpt lat="45.86576" lon="5.0951">
        <ele>284.6876221</ele>
        <time>2013-05-18T07:27:15Z</time>
      </trkpt>
      <trkpt lat="45.86581" lon="5.09513">
        <ele>284.6876221</ele>
        <time>2013-05-18T07:27:16Z</time>
      </trkpt>
      <trkpt lat="45.86627" lon="5.09537">
        <ele>283.7261963</ele>
        <time>2013-05-18T07:27:24Z</time>
      </trkpt>
      <trkpt lat="45.86695" lon="5.09604">
        <ele>281.8035889</ele>
        <time>2013-05-18T07:27:36Z</time>
      </trkpt>
      <trkpt lat="45.86714" lon="5.09619">
        <ele>282.2843018</ele>
        <time>2013-05-18T07:27:39Z</time>
      </trkpt>
      <trkpt lat="45.86775" lon="5.09691">
        <ele>281.322998</ele>
        <time>2013-05-18T07:27:49Z</time>
      </trkpt>
      <trkpt lat="45.86793" lon="5.09711">
        <ele>280.8424072</ele>
        <time>2013-05-18T07:27:52Z</time>
      </trkpt>
      <trkpt lat="45.86851" lon="5.09739">
        <ele>280.8424072</ele>
        <time>2013-05-18T07:28:00Z</time>
      </trkpt>
      <trkpt lat="45.86887" lon="5.09758">
        <ele>280.8424072</ele>
        <time>2013-05-18T07:28:05Z</time>
      </trkpt>
      <trkpt lat="45.86919" lon="5.09772">
        <ele>281.322998</ele>
        <time>2013-05-18T07:28:09Z</time>
      </trkpt>
      <trkpt lat="45.86994" lon="5.09817">
        <ele>282.2843018</ele>
        <time>2013-05-18T07:28:20Z</time>
      </trkpt>
      <trkpt lat="45.87052" lon="5.09865">
        <ele>283.7261963</ele>
        <time>2013-05-18T07:28:29Z</time>
      </trkpt>
      <trkpt lat="45.87116" lon="5.09895">
        <ele>283.2456055</ele>
        <time>2013-05-18T07:28:38Z</time>
      </trkpt>
      <trkpt lat="45.87178" lon="5.09945">
        <ele>280.8424072</ele>
        <time>2013-05-18T07:28:47Z</time>
      </trkpt>
      <trkpt lat="45.87221" lon="5.09976">
        <ele>280.8424072</ele>
        <time>2013-05-18T07:28:53Z</time>
      </trkpt>
      <trkpt lat="45.87289" lon="5.1">
        <ele>281.322998</ele>
        <time>2013-05-18T07:29:02Z</time>
      </trkpt>
      <trkpt lat="45.8734" lon="5.10031">
        <ele>280.8424072</ele>
        <time>2013-05-18T07:29:09Z</time>
      </trkpt>
      <trkpt lat="45.87398" lon="5.10086">
        <ele>281.8035889</ele>
        <time>2013-05-18T07:29:18Z</time>
      </trkpt>
      <trkpt lat="45.87465" lon="5.10171">
        <ele>283.7261963</ele>
        <time>2013-05-18T07:29:30Z</time>
      </trkpt>
      <trkpt lat="45.87522" lon="5.10252">
        <ele>286.1295166</ele>
        <time>2013-05-18T07:29:41Z</time>
      </trkpt>
      <trkpt lat="45.87563" lon="5.10307">
        <ele>287.0908203</ele>
        <time>2013-05-18T07:29:49Z</time>
      </trkpt>
      <trkpt lat="45.87609" lon="5.10335">
        <ele>288.0522461</ele>
        <time>2013-05-18T07:29:56Z</time>
      </trkpt>
      <trkpt lat="45.87676" lon="5.10358">
        <ele>287.5714111</ele>
        <time>2013-05-18T07:30:05Z</time>
      </trkpt>
      <trkpt lat="45.87749" lon="5.10387">
        <ele>284.2069092</ele>
        <time>2013-05-18T07:30:14Z</time>
      </trkpt>
      <trkpt lat="45.87797" lon="5.1041">
        <ele>283.2456055</ele>
        <time>2013-05-18T07:30:20Z</time>
      </trkpt>
      <trkpt lat="45.87831" lon="5.10408">
        <ele>282.7650146</ele>
        <time>2013-05-18T07:30:24Z</time>
      </trkpt>
      <trkpt lat="45.87879" lon="5.10423">
        <ele>282.2843018</ele>
        <time>2013-05-18T07:30:30Z</time>
      </trkpt>
      <trkpt lat="45.87894" lon="5.10431">
        <ele>282.7650146</ele>
        <time>2013-05-18T07:30:32Z</time>
      </trkpt>
      <trkpt lat="45.87923" lon="5.10467">
        <ele>282.7650146</ele>
        <time>2013-05-18T07:30:37Z</time>
      </trkpt>
      <trkpt lat="45.87969" lon="5.10505">
        <ele>283.7261963</ele>
        <time>2013-05-18T07:30:44Z</time>
      </trkpt>
      <trkpt lat="45.8803" lon="5.10537">
        <ele>286.6102295</ele>
        <time>2013-05-18T07:30:53Z</time>
      </trkpt>
      <trkpt lat="45.88105" lon="5.10562">
        <ele>288.532959</ele>
        <time>2013-05-18T07:31:04Z</time>
      </trkpt>
      <trkpt lat="45.88196" lon="5.10588">
        <ele>289.0135498</ele>
        <time>2013-05-18T07:31:17Z</time>
      </trkpt>
      <trkpt lat="45.88264" lon="5.10605">
        <ele>290.4555664</ele>
        <time>2013-05-18T07:31:27Z</time>
      </trkpt>
      <trkpt lat="45.88329" lon="5.10637">
        <ele>290.9361572</ele>
        <time>2013-05-18T07:31:37Z</time>
      </trkpt>
      <trkpt lat="45.88372" lon="5.10671">
        <ele>291.416748</ele>
        <time>2013-05-18T07:31:44Z</time>
      </trkpt>
      <trkpt lat="45.88428" lon="5.10746">
        <ele>291.416748</ele>
        <time>2013-05-18T07:31:55Z</time>
      </trkpt>
      <trkpt lat="45.88478" lon="5.10829">
        <ele>290.9361572</ele>
        <time>2013-05-18T07:32:05Z</time>
      </trkpt>
      <trkpt lat="45.88548" lon="5.10941">
        <ele>289.0135498</ele>
        <time>2013-05-18T07:32:18Z</time>
      </trkpt>
      <trkpt lat="45.88591" lon="5.10996">
        <ele>288.532959</ele>
        <time>2013-05-18T07:32:25Z</time>
      </trkpt>
      <trkpt lat="45.88627" lon="5.11061">
        <ele>288.0522461</ele>
        <time>2013-05-18T07:32:32Z</time>
      </trkpt>
      <trkpt lat="45.88668" lon="5.11168">
        <ele>287.0908203</ele>
        <time>2013-05-18T07:32:42Z</time>
      </trkpt>
      <trkpt lat="45.88708" lon="5.11267">
        <ele>287.0908203</ele>
        <time>2013-05-18T07:32:52Z</time>
      </trkpt>
      <trkpt lat="45.88764" lon="5.11375">
        <ele>287.5714111</ele>
        <time>2013-05-18T07:33:04Z</time>
      </trkpt>
      <trkpt lat="45.88824" lon="5.11493">
        <ele>289.0135498</ele>
        <time>2013-05-18T07:33:17Z</time>
      </trkpt>
      <trkpt lat="45.88867" lon="5.11559">
        <ele>289.0135498</ele>
        <time>2013-05-18T07:33:25Z</time>
      </trkpt>
      <trkpt lat="45.88934" lon="5.11661">
        <ele>286.1295166</ele>
        <time>2013-05-18T07:33:37Z</time>
      </trkpt>
      <trkpt lat="45.88966" lon="5.11731">
        <ele>285.1682129</ele>
        <time>2013-05-18T07:33:44Z</time>
      </trkpt>
      <trkpt lat="45.89002" lon="5.11825">
        <ele>285.6488037</ele>
        <time>2013-05-18T07:33:54Z</time>
      </trkpt>
      <trkpt lat="45.89053" lon="5.12009">
        <ele>286.1295166</ele>
        <time>2013-05-18T07:34:12Z</time>
      </trkpt>
      <trkpt lat="45.89105" lon="5.12071">
        <ele>288.532959</ele>
        <time>2013-05-18T07:34:21Z</time>
      </trkpt>
      <trkpt lat="45.89175" lon="5.12127">
        <ele>285.1682129</ele>
        <time>2013-05-18T07:34:31Z</time>
      </trkpt>
      <trkpt lat="45.89234" lon="5.12177">
        <ele>285.1682129</ele>
        <time>2013-05-18T07:34:39Z</time>
      </trkpt>
      <trkpt lat="45.89285" lon="5.12253">
        <ele>284.6876221</ele>
        <time>2013-05-18T07:34:48Z</time>
      </trkpt>
      <trkpt lat="45.89334" lon="5.12315">
        <ele>283.7261963</ele>
        <time>2013-05-18T07:34:56Z</time>
      </trkpt>
      <trkpt lat="45.89409" lon="5.12387">
        <ele>283.2456055</ele>
        <time>2013-05-18T07:35:07Z</time>
      </trkpt>
      <trkpt lat="45.8946" lon="5.12425">
        <ele>283.2456055</ele>
        <time>2013-05-18T07:35:14Z</time>
      </trkpt>
      <trkpt lat="45.89539" lon="5.12462">
        <ele>280.3616943</ele>
        <time>2013-05-18T07:35:23Z</time>
      </trkpt>
      <trkpt lat="45.89597" lon="5.12477">
        <ele>277.4776611</ele>
        <time>2013-05-18T07:35:29Z</time>
      </trkpt>
      <trkpt lat="45.89709" lon="5.12489">
        <ele>275.5550537</ele>
        <time>2013-05-18T07:35:41Z</time>
      </trkpt>
      <trkpt lat="45.89811" lon="5.125">
        <ele>276.5163574</ele>
        <time>2013-05-18T07:35:53Z</time>
      </trkpt>
      <trkpt lat="45.89876" lon="5.12508">
        <ele>275.0744629</ele>
        <time>2013-05-18T07:36:01Z</time>
      </trkpt>
      <trkpt lat="45.89938" lon="5.12512">
        <ele>273.1518555</ele>
        <time>2013-05-18T07:36:08Z</time>
      </trkpt>
      <trkpt lat="45.89982" lon="5.1253">
        <ele>273.1518555</ele>
        <time>2013-05-18T07:36:13Z</time>
      </trkpt>
      <trkpt lat="45.90068" lon="5.1255">
        <ele>275.0744629</ele>
        <time>2013-05-18T07:36:24Z</time>
      </trkpt>
      <trkpt lat="45.90108" lon="5.12551">
        <ele>276.0356445</ele>
        <time>2013-05-18T07:36:30Z</time>
      </trkpt>
      <trkpt lat="45.90174" lon="5.12538">
        <ele>276.5163574</ele>
        <time>2013-05-18T07:36:40Z</time>
      </trkpt>
      <trkpt lat="45.90218" lon="5.12525">
        <ele>279.8808594</ele>
        <time>2013-05-18T07:36:47Z</time>
      </trkpt>
      <trkpt lat="45.90224" lon="5.12524">
        <ele>280.3616943</ele>
        <time>2013-05-18T07:36:48Z</time>
      </trkpt>
      <trkpt lat="45.9026" lon="5.12513">
        <ele>282.7650146</ele>
        <time>2013-05-18T07:36:54Z</time>
      </trkpt>
      <trkpt lat="45.9031" lon="5.12515">
        <ele>281.322998</ele>
        <time>2013-05-18T07:37:02Z</time>
      </trkpt>
      <trkpt lat="45.90381" lon="5.12532">
        <ele>279.8808594</ele>
        <time>2013-05-18T07:37:11Z</time>
      </trkpt>
      <trkpt lat="45.90512" lon="5.12562">
        <ele>279.4002686</ele>
        <time>2013-05-18T07:37:28Z</time>
      </trkpt>
      <trkpt lat="45.90572" lon="5.12565">
        <ele>278.4389648</ele>
        <time>2013-05-18T07:37:36Z</time>
      </trkpt>
      <trkpt lat="45.90656" lon="5.12571">
        <ele>278.4389648</ele>
        <time>2013-05-18T07:37:47Z</time>
      </trkpt>
      <trkpt lat="45.90746" lon="5.12575">
        <ele>278.4389648</ele>
        <time>2013-05-18T07:37:59Z</time>
      </trkpt>
      <trkpt lat="45.90847" lon="5.12567">
        <ele>279.4002686</ele>
        <time>2013-05-18T07:38:13Z</time>
      </trkpt>
      <trkpt lat="45.90921" lon="5.12564">
        <ele>280.8424072</ele>
        <time>2013-05-18T07:38:24Z</time>
      </trkpt>
      <trkpt lat="45.90993" lon="5.12573">
        <ele>279.4002686</ele>
        <time>2013-05-18T07:38:34Z</time>
      </trkpt>
      <trkpt lat="45.9109" lon="5.12584">
        <ele>279.8808594</ele>
        <time>2013-05-18T07:38:47Z</time>
      </trkpt>
      <trkpt lat="45.91204" lon="5.12584">
        <ele>278.9196777</ele>
        <time>2013-05-18T07:39:02Z</time>
      </trkpt>
      <trkpt lat="45.91321" lon="5.12582">
        <ele>279.4002686</ele>
        <time>2013-05-18T07:39:17Z</time>
      </trkpt>
      <trkpt lat="45.91396" lon="5.1257">
        <ele>279.8808594</ele>
        <time>2013-05-18T07:39:27Z</time>
      </trkpt>
      <trkpt lat="45.91426" lon="5.12566">
        <ele>279.4002686</ele>
        <time>2013-05-18T07:39:31Z</time>
      </trkpt>
      <trkpt lat="45.91469" lon="5.12583">
        <ele>279.8808594</ele>
        <time>2013-05-18T07:39:37Z</time>
      </trkpt>
      <trkpt lat="45.91477" lon="5.12585">
        <ele>279.8808594</ele>
        <time>2013-05-18T07:39:38Z</time>
      </trkpt>
      <trkpt lat="45.91514" lon="5.12578">
        <ele>279.8808594</ele>
        <time>2013-05-18T07:39:43Z</time>
      </trkpt>
      <trkpt lat="45.9152" lon="5.12573">
        <ele>280.3616943</ele>
        <time>2013-05-18T07:39:44Z</time>
      </trkpt>
      <trkpt lat="45.91589" lon="5.1253">
        <ele>280.3616943</ele>
        <time>2013-05-18T07:39:54Z</time>
      </trkpt>
      <trkpt lat="45.91647" lon="5.12514">
        <ele>281.322998</ele>
        <time>2013-05-18T07:40:02Z</time>
      </trkpt>
      <trkpt lat="45.91706" lon="5.12515">
        <ele>281.322998</ele>
        <time>2013-05-18T07:40:10Z</time>
      </trkpt>
      <trkpt lat="45.91787" lon="5.12544">
        <ele>282.7650146</ele>
        <time>2013-05-18T07:40:22Z</time>
      </trkpt>
      <trkpt lat="45.91888" lon="5.1258">
        <ele>283.2456055</ele>
        <time>2013-05-18T07:40:37Z</time>
      </trkpt>
      <trkpt lat="45.91933" lon="5.12595">
        <ele>283.7261963</ele>
        <time>2013-05-18T07:40:44Z</time>
      </trkpt>
      <trkpt lat="45.91952" lon="5.12596">
        <ele>284.2069092</ele>
        <time>2013-05-18T07:40:47Z</time>
      </trkpt>
      <trkpt lat="45.91973" lon="5.12607">
        <ele>285.1682129</ele>
        <time>2013-05-18T07:40:51Z</time>
      </trkpt>
      <trkpt lat="45.92017" lon="5.12659">
        <ele>288.532959</ele>
        <time>2013-05-18T07:41:01Z</time>
      </trkpt>
      <trkpt lat="45.92052" lon="5.12699">
        <ele>290.9361572</ele>
        <time>2013-05-18T07:41:09Z</time>
      </trkpt>
      <trkpt lat="45.92073" lon="5.12722">
        <ele>291.8974609</ele>
        <time>2013-05-18T07:41:14Z</time>
      </trkpt>
      <trkpt lat="45.921" lon="5.1275">
        <ele>292.8587646</ele>
        <time>2013-05-18T07:41:20Z</time>
      </trkpt>
      <trkpt lat="45.92123" lon="5.1274">
        <ele>293.8200684</ele>
        <time>2013-05-18T07:41:25Z</time>
      </trkpt>
      <trkpt lat="45.92176" lon="5.12722">
        <ele>294.3007813</ele>
        <time>2013-05-18T07:41:35Z</time>
      </trkpt>
      <trkpt lat="45.92212" lon="5.12712">
        <ele>294.3007813</ele>
        <time>2013-05-18T07:41:41Z</time>
      </trkpt>
      <trkpt lat="45.92232" lon="5.12684">
        <ele>294.3007813</ele>
        <time>2013-05-18T07:41:46Z</time>
      </trkpt>
      <trkpt lat="45.92245" lon="5.12666">
        <ele>294.7813721</ele>
        <time>2013-05-18T07:41:49Z</time>
      </trkpt>
      <trkpt lat="45.92323" lon="5.12615">
        <ele>294.7813721</ele>
        <time>2013-05-18T07:42:05Z</time>
      </trkpt>
      <trkpt lat="45.92323" lon="5.12615">
        <ele>294.7813721</ele>
        <time>2013-05-18T07:42:14Z</time>
      </trkpt>
      <trkpt lat="45.92324" lon="5.12615">
        <ele>295.7426758</ele>
        <time>2013-05-18T07:43:00Z</time>
      </trkpt>
      <trkpt lat="45.92356" lon="5.12604">
        <ele>295.2619629</ele>
        <time>2013-05-18T07:43:11Z</time>
      </trkpt>
      <trkpt lat="45.92391" lon="5.12585">
        <ele>295.2619629</ele>
        <time>2013-05-18T07:43:21Z</time>
      </trkpt>
      <trkpt lat="45.9244" lon="5.12544">
        <ele>295.7426758</ele>
        <time>2013-05-18T07:43:34Z</time>
      </trkpt>
      <trkpt lat="45.92493" lon="5.12497">
        <ele>296.2235107</ele>
        <time>2013-05-18T07:43:46Z</time>
      </trkpt>
      <trkpt lat="45.92554" lon="5.1244">
        <ele>297.1846924</ele>
        <time>2013-05-18T07:43:59Z</time>
      </trkpt>
      <trkpt lat="45.92583" lon="5.12411">
        <ele>297.6654053</ele>
        <time>2013-05-18T07:44:05Z</time>
      </trkpt>
      <trkpt lat="45.92632" lon="5.1238">
        <ele>296.2235107</ele>
        <time>2013-05-18T07:44:13Z</time>
      </trkpt>
      <trkpt lat="45.92712" lon="5.12343">
        <ele>294.7813721</ele>
        <time>2013-05-18T07:44:24Z</time>
      </trkpt>
      <trkpt lat="45.92812" lon="5.12305">
        <ele>293.3393555</ele>
        <time>2013-05-18T07:44:37Z</time>
      </trkpt>
      <trkpt lat="45.92883" lon="5.12279">
        <ele>289.9748535</ele>
        <time>2013-05-18T07:44:46Z</time>
      </trkpt>
      <trkpt lat="45.92927" lon="5.12248">
        <ele>289.9748535</ele>
        <time>2013-05-18T07:44:52Z</time>
      </trkpt>
      <trkpt lat="45.93" lon="5.12164">
        <ele>289.4941406</ele>
        <time>2013-05-18T07:45:04Z</time>
      </trkpt>
      <trkpt lat="45.93078" lon="5.12065">
        <ele>288.0522461</ele>
        <time>2013-05-18T07:45:18Z</time>
      </trkpt>
      <trkpt lat="45.93083" lon="5.12032">
        <ele>287.5714111</ele>
        <time>2013-05-18T07:45:21Z</time>
      </trkpt>
      <trkpt lat="45.93092" lon="5.11977">
        <ele>287.0908203</ele>
        <time>2013-05-18T07:45:26Z</time>
      </trkpt>
      <trkpt lat="45.93104" lon="5.11966">
        <ele>287.5714111</ele>
        <time>2013-05-18T07:45:28Z</time>
      </trkpt>
      <trkpt lat="45.93129" lon="5.11944">
        <ele>287.5714111</ele>
        <time>2013-05-18T07:45:32Z</time>
      </trkpt>
      <trkpt lat="45.9316" lon="5.11891">
        <ele>288.0522461</ele>
        <time>2013-05-18T07:45:39Z</time>
      </trkpt>
      <trkpt lat="45.93173" lon="5.1186">
        <ele>288.532959</ele>
        <time>2013-05-18T07:45:43Z</time>
      </trkpt>
      <trkpt lat="45.93192" lon="5.11765">
        <ele>289.9748535</ele>
        <time>2013-05-18T07:45:54Z</time>
      </trkpt>
      <trkpt lat="45.93222" lon="5.11666">
        <ele>291.8974609</ele>
        <time>2013-05-18T07:46:06Z</time>
      </trkpt>
      <trkpt lat="45.93251" lon="5.11585">
        <ele>293.3393555</ele>
        <time>2013-05-18T07:46:17Z</time>
      </trkpt>
      <trkpt lat="45.93284" lon="5.11497">
        <ele>295.2619629</ele>
        <time>2013-05-18T07:46:29Z</time>
      </trkpt>
      <trkpt lat="45.93321" lon="5.11407">
        <ele>294.3007813</ele>
        <time>2013-05-18T07:46:40Z</time>
      </trkpt>
      <trkpt lat="45.93362" lon="5.11322">
        <ele>292.8587646</ele>
        <time>2013-05-18T07:46:50Z</time>
      </trkpt>
      <trkpt lat="45.93421" lon="5.11193">
        <ele>292.3781738</ele>
        <time>2013-05-18T07:47:04Z</time>
      </trkpt>
      <trkpt lat="45.93457" lon="5.11083">
        <ele>292.3781738</ele>
        <time>2013-05-18T07:47:15Z</time>
      </trkpt>
      <trkpt lat="45.93487" lon="5.10938">
        <ele>292.8587646</ele>
        <time>2013-05-18T07:47:29Z</time>
      </trkpt>
      <trkpt lat="45.93512" lon="5.1082">
        <ele>296.2235107</ele>
        <time>2013-05-18T07:47:41Z</time>
      </trkpt>
      <trkpt lat="45.93514" lon="5.1081">
        <ele>296.2235107</ele>
        <time>2013-05-18T07:47:42Z</time>
      </trkpt>
      <trkpt lat="45.93541" lon="5.10694">
        <ele>297.6654053</ele>
        <time>2013-05-18T07:47:54Z</time>
      </trkpt>
      <trkpt lat="45.93579" lon="5.1061">
        <ele>298.626709</ele>
        <time>2013-05-18T07:48:04Z</time>
      </trkpt>
      <trkpt lat="45.93617" lon="5.10569">
        <ele>297.6654053</ele>
        <time>2013-05-18T07:48:10Z</time>
      </trkpt>
      <trkpt lat="45.93697" lon="5.10479">
        <ele>293.3393555</ele>
        <time>2013-05-18T07:48:22Z</time>
      </trkpt>
      <trkpt lat="45.93778" lon="5.10391">
        <ele>290.4555664</ele>
        <time>2013-05-18T07:48:33Z</time>
      </trkpt>
      <trkpt lat="45.9386" lon="5.10302">
        <ele>289.9748535</ele>
        <time>2013-05-18T07:48:44Z</time>
      </trkpt>
      <trkpt lat="45.93974" lon="5.10177">
        <ele>289.0135498</ele>
        <time>2013-05-18T07:49:00Z</time>
      </trkpt>
      <trkpt lat="45.93988" lon="5.10163">
        <ele>289.0135498</ele>
        <time>2013-05-18T07:49:02Z</time>
      </trkpt>
      <trkpt lat="45.94052" lon="5.10139">
        <ele>289.4941406</ele>
        <time>2013-05-18T07:49:10Z</time>
      </trkpt>
      <trkpt lat="45.94143" lon="5.101">
        <ele>290.9361572</ele>
        <time>2013-05-18T07:49:22Z</time>
      </trkpt>
      <trkpt lat="45.94157" lon="5.10094">
        <ele>291.8974609</ele>
        <time>2013-05-18T07:49:24Z</time>
      </trkpt>
      <trkpt lat="45.94316" lon="5.10057">
        <ele>291.416748</ele>
        <time>2013-05-18T07:49:46Z</time>
      </trkpt>
      <trkpt lat="45.94348" lon="5.10051">
        <ele>290.9361572</ele>
        <time>2013-05-18T07:49:50Z</time>
      </trkpt>
      <trkpt lat="45.94441" lon="5.09987">
        <ele>290.4555664</ele>
        <time>2013-05-18T07:50:03Z</time>
      </trkpt>
      <trkpt lat="45.94599" lon="5.09908">
        <ele>289.9748535</ele>
        <time>2013-05-18T07:50:24Z</time>
      </trkpt>
      <trkpt lat="45.94694" lon="5.09856">
        <ele>291.8974609</ele>
        <time>2013-05-18T07:50:37Z</time>
      </trkpt>
      <trkpt lat="45.94788" lon="5.0975">
        <ele>292.3781738</ele>
        <time>2013-05-18T07:50:53Z</time>
      </trkpt>
      <trkpt lat="45.94869" lon="5.09653">
        <ele>293.3393555</ele>
        <time>2013-05-18T07:51:07Z</time>
      </trkpt>
      <trkpt lat="45.94962" lon="5.09542">
        <ele>293.3393555</ele>
        <time>2013-05-18T07:51:23Z</time>
      </trkpt>
      <trkpt lat="45.95028" lon="5.09465">
        <ele>296.2235107</ele>
        <time>2013-05-18T07:51:35Z</time>
      </trkpt>
      <trkpt lat="45.95082" lon="5.09402">
        <ele>294.3007813</ele>
        <time>2013-05-18T07:51:44Z</time>
      </trkpt>
      <trkpt lat="45.95155" lon="5.09345">
        <ele>293.8200684</ele>
        <time>2013-05-18T07:51:54Z</time>
      </trkpt>
      <trkpt lat="45.95227" lon="5.09288">
        <ele>294.7813721</ele>
        <time>2013-05-18T07:52:04Z</time>
      </trkpt>
      <trkpt lat="45.9527" lon="5.0929">
        <ele>294.7813721</ele>
        <time>2013-05-18T07:52:10Z</time>
      </trkpt>
      <trkpt lat="45.9535" lon="5.09321">
        <ele>295.2619629</ele>
        <time>2013-05-18T07:52:20Z</time>
      </trkpt>
      <trkpt lat="45.95425" lon="5.09337">
        <ele>296.2235107</ele>
        <time>2013-05-18T07:52:30Z</time>
      </trkpt>
      <trkpt lat="45.95507" lon="5.09338">
        <ele>296.2235107</ele>
        <time>2013-05-18T07:52:41Z</time>
      </trkpt>
      <trkpt lat="45.95604" lon="5.09335">
        <ele>295.7426758</ele>
        <time>2013-05-18T07:52:54Z</time>
      </trkpt>
      <trkpt lat="45.95683" lon="5.09348">
        <ele>292.8587646</ele>
        <time>2013-05-18T07:53:04Z</time>
      </trkpt>
      <trkpt lat="45.9576" lon="5.09388">
        <ele>291.416748</ele>
        <time>2013-05-18T07:53:12Z</time>
      </trkpt>
      <trkpt lat="45.95777" lon="5.09399">
        <ele>292.3781738</ele>
        <time>2013-05-18T07:53:14Z</time>
      </trkpt>
      <trkpt lat="45.95802" lon="5.0942">
        <ele>291.8974609</ele>
        <time>2013-05-18T07:53:17Z</time>
      </trkpt>
      <trkpt lat="45.95875" lon="5.09488">
        <ele>289.4941406</ele>
        <time>2013-05-18T07:53:26Z</time>
      </trkpt>
      <trkpt lat="45.95956" lon="5.09549">
        <ele>288.532959</ele>
        <time>2013-05-18T07:53:36Z</time>
      </trkpt>
      <trkpt lat="45.96044" lon="5.09591">
        <ele>286.6102295</ele>
        <time>2013-05-18T07:53:46Z</time>
      </trkpt>
      <trkpt lat="45.96105" lon="5.09617">
        <ele>286.1295166</ele>
        <time>2013-05-18T07:53:53Z</time>
      </trkpt>
      <trkpt lat="45.96117" lon="5.09657">
        <ele>285.6488037</ele>
        <time>2013-05-18T07:53:57Z</time>
      </trkpt>
      <trkpt lat="45.96125" lon="5.09689">
        <ele>285.6488037</ele>
        <time>2013-05-18T07:54:00Z</time>
      </trkpt>
      <trkpt lat="45.96155" lon="5.09772">
        <ele>288.0522461</ele>
        <time>2013-05-18T07:54:09Z</time>
      </trkpt>
      <trkpt lat="45.96173" lon="5.09825">
        <ele>291.416748</ele>
        <time>2013-05-18T07:54:15Z</time>
      </trkpt>
      <trkpt lat="45.96179" lon="5.09842">
        <ele>292.3781738</ele>
        <time>2013-05-18T07:54:17Z</time>
      </trkpt>
      <trkpt lat="45.96191" lon="5.09886">
        <ele>292.3781738</ele>
        <time>2013-05-18T07:54:22Z</time>
      </trkpt>
      <trkpt lat="45.9622" lon="5.10029">
        <ele>291.416748</ele>
        <time>2013-05-18T07:54:38Z</time>
      </trkpt>
      <trkpt lat="45.96222" lon="5.1004">
        <ele>291.416748</ele>
        <time>2013-05-18T07:54:39Z</time>
      </trkpt>
      <trkpt lat="45.96226" lon="5.10095">
        <ele>289.4941406</ele>
        <time>2013-05-18T07:54:43Z</time>
      </trkpt>
      <trkpt lat="45.96234" lon="5.10355">
        <ele>287.0908203</ele>
        <time>2013-05-18T07:55:02Z</time>
      </trkpt>
      <trkpt lat="45.96259" lon="5.10495">
        <ele>288.0522461</ele>
        <time>2013-05-18T07:55:14Z</time>
      </trkpt>
      <trkpt lat="45.96249" lon="5.10529">
        <ele>288.532959</ele>
        <time>2013-05-18T07:55:16Z</time>
      </trkpt>
      <trkpt lat="45.96253" lon="5.10534">
        <ele>288.532959</ele>
        <time>2013-05-18T07:55:17Z</time>
      </trkpt>
      <trkpt lat="45.96278" lon="5.10623">
        <ele>291.8974609</ele>
        <time>2013-05-18T07:55:26Z</time>
      </trkpt>
      <trkpt lat="45.96312" lon="5.10749">
        <ele>291.8974609</ele>
        <time>2013-05-18T07:55:38Z</time>
      </trkpt>
      <trkpt lat="45.96345" lon="5.10879">
        <ele>289.4941406</ele>
        <time>2013-05-18T07:55:50Z</time>
      </trkpt>
      <trkpt lat="45.96378" lon="5.11008">
        <ele>289.0135498</ele>
        <time>2013-05-18T07:56:02Z</time>
      </trkpt>
      <trkpt lat="45.96396" lon="5.11058">
        <ele>288.532959</ele>
        <time>2013-05-18T07:56:07Z</time>
      </trkpt>
      <trkpt lat="45.96421" lon="5.11146">
        <ele>288.0522461</ele>
        <time>2013-05-18T07:56:15Z</time>
      </trkpt>
      <trkpt lat="45.96456" lon="5.11265">
        <ele>287.5714111</ele>
        <time>2013-05-18T07:56:26Z</time>
      </trkpt>
      <trkpt lat="45.96497" lon="5.11363">
        <ele>287.5714111</ele>
        <time>2013-05-18T07:56:36Z</time>
      </trkpt>
      <trkpt lat="45.9655" lon="5.11469">
        <ele>289.0135498</ele>
        <time>2013-05-18T07:56:48Z</time>
      </trkpt>
      <trkpt lat="45.96588" lon="5.11545">
        <ele>287.0908203</ele>
        <time>2013-05-18T07:56:56Z</time>
      </trkpt>
      <trkpt lat="45.96687" lon="5.11745">
        <ele>286.1295166</ele>
        <time>2013-05-18T07:57:16Z</time>
      </trkpt>
      <trkpt lat="45.9673" lon="5.11869">
        <ele>289.0135498</ele>
        <time>2013-05-18T07:57:28Z</time>
      </trkpt>
      <trkpt lat="45.96754" lon="5.11947">
        <ele>291.8974609</ele>
        <time>2013-05-18T07:57:36Z</time>
      </trkpt>
      <trkpt lat="45.96788" lon="5.12048">
        <ele>292.8587646</ele>
        <time>2013-05-18T07:57:47Z</time>
      </trkpt>
      <trkpt lat="45.96831" lon="5.12146">
        <ele>290.9361572</ele>
        <time>2013-05-18T07:57:57Z</time>
      </trkpt>
      <trkpt lat="45.9684" lon="5.12167">
        <ele>289.9748535</ele>
        <time>2013-05-18T07:57:59Z</time>
      </trkpt>
      <trkpt lat="45.96864" lon="5.12218">
        <ele>286.6102295</ele>
        <time>2013-05-18T07:58:04Z</time>
      </trkpt>
      <trkpt lat="45.96869" lon="5.12229">
        <ele>286.1295166</ele>
        <time>2013-05-18T07:58:05Z</time>
      </trkpt>
      <trkpt lat="45.96939" lon="5.12358">
        <ele>286.6102295</ele>
        <time>2013-05-18T07:58:18Z</time>
      </trkpt>
      <trkpt lat="45.96999" lon="5.12468">
        <ele>286.1295166</ele>
        <time>2013-05-18T07:58:29Z</time>
      </trkpt>
      <trkpt lat="45.97061" lon="5.12586">
        <ele>285.1682129</ele>
        <time>2013-05-18T07:58:40Z</time>
      </trkpt>
      <trkpt lat="45.97125" lon="5.12708">
        <ele>285.6488037</ele>
        <time>2013-05-18T07:58:52Z</time>
      </trkpt>
      <trkpt lat="45.97208" lon="5.12866">
        <ele>285.6488037</ele>
        <time>2013-05-18T07:59:08Z</time>
      </trkpt>
      <trkpt lat="45.97253" lon="5.12954">
        <ele>287.5714111</ele>
        <time>2013-05-18T07:59:18Z</time>
      </trkpt>
      <trkpt lat="45.97291" lon="5.13026">
        <ele>290.9361572</ele>
        <time>2013-05-18T07:59:27Z</time>
      </trkpt>
      <trkpt lat="45.97334" lon="5.13108">
        <ele>293.8200684</ele>
        <time>2013-05-18T07:59:38Z</time>
      </trkpt>
      <trkpt lat="45.97362" lon="5.13167">
        <ele>294.7813721</ele>
        <time>2013-05-18T07:59:47Z</time>
      </trkpt>
      <trkpt lat="45.97375" lon="5.13201">
        <ele>295.2619629</ele>
        <time>2013-05-18T07:59:53Z</time>
      </trkpt>
      <trkpt lat="45.97402" lon="5.13278">
        <ele>295.2619629</ele>
        <time>2013-05-18T08:00:03Z</time>
      </trkpt>
      <trkpt lat="45.97427" lon="5.13343">
        <ele>294.7813721</ele>
        <time>2013-05-18T08:00:10Z</time>
      </trkpt>
      <trkpt lat="45.97477" lon="5.13448">
        <ele>294.7813721</ele>
        <time>2013-05-18T08:00:21Z</time>
      </trkpt>
      <trkpt lat="45.97527" lon="5.13556">
        <ele>292.3781738</ele>
        <time>2013-05-18T08:00:32Z</time>
      </trkpt>
      <trkpt lat="45.97561" lon="5.13655">
        <ele>291.8974609</ele>
        <time>2013-05-18T08:00:41Z</time>
      </trkpt>
      <trkpt lat="45.97607" lon="5.1379">
        <ele>290.9361572</ele>
        <time>2013-05-18T08:00:53Z</time>
      </trkpt>
      <trkpt lat="45.97654" lon="5.13937">
        <ele>289.9748535</ele>
        <time>2013-05-18T08:01:06Z</time>
      </trkpt>
      <trkpt lat="45.97899" lon="5.14618">
        <ele>292.3781738</ele>
        <time>2013-05-18T08:02:13Z</time>
      </trkpt>
      <trkpt lat="45.97965" lon="5.14787">
        <ele>293.8200684</ele>
        <time>2013-05-18T08:02:30Z</time>
      </trkpt>
      <trkpt lat="45.9801" lon="5.14906">
        <ele>294.3007813</ele>
        <time>2013-05-18T08:02:42Z</time>
      </trkpt>
      <trkpt lat="45.98047" lon="5.15007">
        <ele>295.7426758</ele>
        <time>2013-05-18T08:02:53Z</time>
      </trkpt>
      <trkpt lat="45.98078" lon="5.15091">
        <ele>294.3007813</ele>
        <time>2013-05-18T08:03:01Z</time>
      </trkpt>
      <trkpt lat="45.98127" lon="5.15218">
        <ele>293.8200684</ele>
        <time>2013-05-18T08:03:13Z</time>
      </trkpt>
      <trkpt lat="45.98173" lon="5.15342">
        <ele>295.2619629</ele>
        <time>2013-05-18T08:03:26Z</time>
      </trkpt>
      <trkpt lat="45.9821" lon="5.15443">
        <ele>294.3007813</ele>
        <time>2013-05-18T08:03:36Z</time>
      </trkpt>
      <trkpt lat="45.98245" lon="5.15536">
        <ele>293.8200684</ele>
        <time>2013-05-18T08:03:44Z</time>
      </trkpt>
      <trkpt lat="45.98298" lon="5.15673">
        <ele>292.8587646</ele>
        <time>2013-05-18T08:03:56Z</time>
      </trkpt>
      <trkpt lat="45.98337" lon="5.15751">
        <ele>293.3393555</ele>
        <time>2013-05-18T08:04:04Z</time>
      </trkpt>
      <trkpt lat="45.9839" lon="5.15809">
        <ele>293.3393555</ele>
        <time>2013-05-18T08:04:12Z</time>
      </trkpt>
      <trkpt lat="45.98459" lon="5.15875">
        <ele>294.3007813</ele>
        <time>2013-05-18T08:04:22Z</time>
      </trkpt>
      <trkpt lat="45.9855" lon="5.15957">
        <ele>295.2619629</ele>
        <time>2013-05-18T08:04:35Z</time>
      </trkpt>
      <trkpt lat="45.98648" lon="5.16051">
        <ele>296.2235107</ele>
        <time>2013-05-18T08:04:49Z</time>
      </trkpt>
      <trkpt lat="45.98711" lon="5.161">
        <ele>297.1846924</ele>
        <time>2013-05-18T08:04:58Z</time>
      </trkpt>
      <trkpt lat="45.98777" lon="5.16163">
        <ele>298.626709</ele>
        <time>2013-05-18T08:05:08Z</time>
      </trkpt>
      <trkpt lat="45.98858" lon="5.16268">
        <ele>300.0687256</ele>
        <time>2013-05-18T08:05:22Z</time>
      </trkpt>
      <trkpt lat="45.98919" lon="5.1635">
        <ele>302.9525146</ele>
        <time>2013-05-18T08:05:33Z</time>
      </trkpt>
      <trkpt lat="45.98985" lon="5.16438">
        <ele>302.4719238</ele>
        <time>2013-05-18T08:05:46Z</time>
      </trkpt>
      <trkpt lat="45.99031" lon="5.16497">
        <ele>301.5106201</ele>
        <time>2013-05-18T08:05:56Z</time>
      </trkpt>
      <trkpt lat="45.99066" lon="5.16543">
        <ele>301.5106201</ele>
        <time>2013-05-18T08:06:04Z</time>
      </trkpt>
      <trkpt lat="45.99086" lon="5.16593">
        <ele>299.1072998</ele>
        <time>2013-05-18T08:06:10Z</time>
      </trkpt>
      <trkpt lat="45.9909" lon="5.16603">
        <ele>298.626709</ele>
        <time>2013-05-18T08:06:11Z</time>
      </trkpt>
      <trkpt lat="45.99118" lon="5.16685">
        <ele>297.1846924</ele>
        <time>2013-05-18T08:06:19Z</time>
      </trkpt>
      <trkpt lat="45.99159" lon="5.16815">
        <ele>295.2619629</ele>
        <time>2013-05-18T08:06:31Z</time>
      </trkpt>
      <trkpt lat="45.99167" lon="5.16836">
        <ele>295.2619629</ele>
        <time>2013-05-18T08:06:33Z</time>
      </trkpt>
      <trkpt lat="45.99177" lon="5.16855">
        <ele>294.7813721</ele>
        <time>2013-05-18T08:06:35Z</time>
      </trkpt>
      <trkpt lat="45.9918" lon="5.16899">
        <ele>293.8200684</ele>
        <time>2013-05-18T08:06:39Z</time>
      </trkpt>
      <trkpt lat="45.99178" lon="5.16918">
        <ele>293.3393555</ele>
        <time>2013-05-18T08:06:42Z</time>
      </trkpt>
      <trkpt lat="45.99192" lon="5.16924">
        <ele>292.3781738</ele>
        <time>2013-05-18T08:06:45Z</time>
      </trkpt>
      <trkpt lat="45.99199" lon="5.16926">
        <ele>292.3781738</ele>
        <time>2013-05-18T08:06:46Z</time>
      </trkpt>
      <trkpt lat="45.99271" lon="5.16948">
        <ele>290.4555664</ele>
        <time>2013-05-18T08:06:55Z</time>
      </trkpt>
      <trkpt lat="45.99345" lon="5.16975">
        <ele>287.5714111</ele>
        <time>2013-05-18T08:07:03Z</time>
      </trkpt>
      <trkpt lat="45.99473" lon="5.17015">
        <ele>288.0522461</ele>
        <time>2013-05-18T08:07:17Z</time>
      </trkpt>
      <trkpt lat="45.99549" lon="5.17042">
        <ele>291.8974609</ele>
        <time>2013-05-18T08:07:26Z</time>
      </trkpt>
      <trkpt lat="45.99726" lon="5.17104">
        <ele>294.3007813</ele>
        <time>2013-05-18T08:07:49Z</time>
      </trkpt>
      <trkpt lat="45.99726" lon="5.17125">
        <ele>294.3007813</ele>
        <time>2013-05-18T08:07:54Z</time>
      </trkpt>
      <trkpt lat="45.99708" lon="5.1716">
        <ele>293.3393555</ele>
        <time>2013-05-18T08:08:01Z</time>
      </trkpt>
      <trkpt lat="45.99705" lon="5.17165">
        <ele>293.3393555</ele>
        <time>2013-05-18T08:08:02Z</time>
      </trkpt>
      <trkpt lat="45.9971" lon="5.17188">
        <ele>293.8200684</ele>
        <time>2013-05-18T08:08:06Z</time>
      </trkpt>
      <trkpt lat="45.99733" lon="5.17244">
        <ele>293.8200684</ele>
        <time>2013-05-18T08:08:14Z</time>
      </trkpt>
      <trkpt lat="45.99758" lon="5.17296">
        <ele>294.3007813</ele>
        <time>2013-05-18T08:08:21Z</time>
      </trkpt>
      <trkpt lat="45.99822" lon="5.17356">
        <ele>296.2235107</ele>
        <time>2013-05-18T08:08:33Z</time>
      </trkpt>
      <trkpt lat="45.99853" lon="5.17388">
        <ele>294.7813721</ele>
        <time>2013-05-18T08:08:38Z</time>
      </trkpt>
      <trkpt lat="45.99868" lon="5.17416">
        <ele>293.3393555</ele>
        <time>2013-05-18T08:08:41Z</time>
      </trkpt>
      <trkpt lat="45.99885" lon="5.17456">
        <ele>292.8587646</ele>
        <time>2013-05-18T08:08:45Z</time>
      </trkpt>
      <trkpt lat="45.99891" lon="5.17487">
        <ele>291.416748</ele>
        <time>2013-05-18T08:08:48Z</time>
      </trkpt>
      <trkpt lat="45.99907" lon="5.17507">
        <ele>290.9361572</ele>
        <time>2013-05-18T08:08:51Z</time>
      </trkpt>
      <trkpt lat="45.99914" lon="5.17527">
        <ele>290.4555664</ele>
        <time>2013-05-18T08:08:53Z</time>
      </trkpt>
      <trkpt lat="45.99963" lon="5.17664">
        <ele>290.4555664</ele>
        <time>2013-05-18T08:09:06Z</time>
      </trkpt>
      <trkpt lat="46.00009" lon="5.17796">
        <ele>290.9361572</ele>
        <time>2013-05-18T08:09:19Z</time>
      </trkpt>
      <trkpt lat="46.00058" lon="5.17933">
        <ele>290.9361572</ele>
        <time>2013-05-18T08:09:32Z</time>
      </trkpt>
      <trkpt lat="46.00117" lon="5.18101">
        <ele>291.8974609</ele>
        <time>2013-05-18T08:09:49Z</time>
      </trkpt>
      <trkpt lat="46.00171" lon="5.18247">
        <ele>291.8974609</ele>
        <time>2013-05-18T08:10:04Z</time>
      </trkpt>
      <trkpt lat="46.00236" lon="5.18408">
        <ele>292.3781738</ele>
        <time>2013-05-18T08:10:21Z</time>
      </trkpt>
      <trkpt lat="46.00281" lon="5.18519">
        <ele>292.8587646</ele>
        <time>2013-05-18T08:10:32Z</time>
      </trkpt>
      <trkpt lat="46.00277" lon="5.18562">
        <ele>293.3393555</ele>
        <time>2013-05-18T08:10:36Z</time>
      </trkpt>
      <trkpt lat="46.00273" lon="5.18571">
        <ele>293.3393555</ele>
        <time>2013-05-18T08:10:37Z</time>
      </trkpt>
      <trkpt lat="46.0024" lon="5.18643">
        <ele>296.2235107</ele>
        <time>2013-05-18T08:10:45Z</time>
      </trkpt>
      <trkpt lat="46.00208" lon="5.18716">
        <ele>299.5880127</ele>
        <time>2013-05-18T08:10:54Z</time>
      </trkpt>
      <trkpt lat="46.00204" lon="5.18733">
        <ele>300.0687256</ele>
        <time>2013-05-18T08:10:56Z</time>
      </trkpt>
      <trkpt lat="46.00196" lon="5.18772">
        <ele>302.4719238</ele>
        <time>2013-05-18T08:11:01Z</time>
      </trkpt>
      <trkpt lat="46.00184" lon="5.18841">
        <ele>304.3946533</ele>
        <time>2013-05-18T08:11:10Z</time>
      </trkpt>
      <trkpt lat="46.00174" lon="5.18933">
        <ele>305.355957</ele>
        <time>2013-05-18T08:11:20Z</time>
      </trkpt>
      <trkpt lat="46.00167" lon="5.19035">
        <ele>303.4332275</ele>
        <time>2013-05-18T08:11:30Z</time>
      </trkpt>
      <trkpt lat="46.00159" lon="5.19149">
        <ele>304.8752441</ele>
        <time>2013-05-18T08:11:41Z</time>
      </trkpt>
      <trkpt lat="46.0015" lon="5.19275">
        <ele>305.8366699</ele>
        <time>2013-05-18T08:11:54Z</time>
      </trkpt>
      <trkpt lat="46.0014" lon="5.19386">
        <ele>308.720459</ele>
        <time>2013-05-18T08:12:06Z</time>
      </trkpt>
      <trkpt lat="46.00131" lon="5.19484">
        <ele>311.1237793</ele>
        <time>2013-05-18T08:12:17Z</time>
      </trkpt>
      <trkpt lat="46.00129" lon="5.19571">
        <ele>311.1237793</ele>
        <time>2013-05-18T08:12:26Z</time>
      </trkpt>
      <trkpt lat="46.00129" lon="5.19687">
        <ele>311.1237793</ele>
        <time>2013-05-18T08:12:37Z</time>
      </trkpt>
      <trkpt lat="46.0012" lon="5.1981">
        <ele>311.1237793</ele>
        <time>2013-05-18T08:12:48Z</time>
      </trkpt>
      <trkpt lat="46.00121" lon="5.19916">
        <ele>309.6818848</ele>
        <time>2013-05-18T08:12:57Z</time>
      </trkpt>
      <trkpt lat="46.00127" lon="5.20011">
        <ele>310.6430664</ele>
        <time>2013-05-18T08:13:06Z</time>
      </trkpt>
      <trkpt lat="46.00129" lon="5.20066">
        <ele>313.5272217</ele>
        <time>2013-05-18T08:13:12Z</time>
      </trkpt>
      <trkpt lat="46.00127" lon="5.20161">
        <ele>314.9691162</ele>
        <time>2013-05-18T08:13:22Z</time>
      </trkpt>
      <trkpt lat="46.00085" lon="5.20369">
        <ele>309.2011719</ele>
        <time>2013-05-18T08:13:42Z</time>
      </trkpt>
      <trkpt lat="46.00021" lon="5.2056">
        <ele>311.6044922</ele>
        <time>2013-05-18T08:14:00Z</time>
      </trkpt>
      <trkpt lat="46.00005" lon="5.20624">
        <ele>314.9691162</ele>
        <time>2013-05-18T08:14:07Z</time>
      </trkpt>
      <trkpt lat="45.9999" lon="5.20801">
        <ele>320.2563477</ele>
        <time>2013-05-18T08:14:27Z</time>
      </trkpt>
      <trkpt lat="45.99954" lon="5.2112">
        <ele>318.8143311</ele>
        <time>2013-05-18T08:14:57Z</time>
      </trkpt>
      <trkpt lat="45.99947" lon="5.2116">
        <ele>316.8917236</ele>
        <time>2013-05-18T08:15:00Z</time>
      </trkpt>
      <trkpt lat="45.99926" lon="5.21299">
        <ele>314.0078125</ele>
        <time>2013-05-18T08:15:10Z</time>
      </trkpt>
      <trkpt lat="45.99923" lon="5.21454">
        <ele>314.0078125</ele>
        <time>2013-05-18T08:15:22Z</time>
      </trkpt>
      <trkpt lat="45.99923" lon="5.21626">
        <ele>314.4884033</ele>
        <time>2013-05-18T08:15:37Z</time>
      </trkpt>
      <trkpt lat="45.99924" lon="5.21797">
        <ele>316.8917236</ele>
        <time>2013-05-18T08:15:53Z</time>
      </trkpt>
      <trkpt lat="45.99913" lon="5.21862">
        <ele>318.8143311</ele>
        <time>2013-05-18T08:16:00Z</time>
      </trkpt>
      <trkpt lat="45.99882" lon="5.21952">
        <ele>318.8143311</ele>
        <time>2013-05-18T08:16:10Z</time>
      </trkpt>
      <trkpt lat="45.99854" lon="5.22032">
        <ele>316.8917236</ele>
        <time>2013-05-18T08:16:18Z</time>
      </trkpt>
      <trkpt lat="45.9981" lon="5.22139">
        <ele>315.4498291</ele>
        <time>2013-05-18T08:16:29Z</time>
      </trkpt>
      <trkpt lat="45.99712" lon="5.22338">
        <ele>318.8143311</ele>
        <time>2013-05-18T08:16:51Z</time>
      </trkpt>
      <trkpt lat="45.99674" lon="5.2243">
        <ele>321.2177734</ele>
        <time>2013-05-18T08:17:02Z</time>
      </trkpt>
      <trkpt lat="45.996" lon="5.22665">
        <ele>321.6983643</ele>
        <time>2013-05-18T08:17:31Z</time>
      </trkpt>
      <trkpt lat="45.99532" lon="5.2323">
        <ele>320.2563477</ele>
        <time>2013-05-18T08:18:31Z</time>
      </trkpt>
      <trkpt lat="45.99541" lon="5.2335">
        <ele>319.7756348</ele>
        <time>2013-05-18T08:18:42Z</time>
      </trkpt>
      <trkpt lat="45.99545" lon="5.2344">
        <ele>319.2950439</ele>
        <time>2013-05-18T08:18:49Z</time>
      </trkpt>
      <trkpt lat="45.99554" lon="5.23533">
        <ele>314.9691162</ele>
        <time>2013-05-18T08:18:56Z</time>
      </trkpt>
      <trkpt lat="45.99554" lon="5.23616">
        <ele>314.9691162</ele>
        <time>2013-05-18T08:19:02Z</time>
      </trkpt>
      <trkpt lat="45.9955" lon="5.2368">
        <ele>313.0465088</ele>
        <time>2013-05-18T08:19:07Z</time>
      </trkpt>
      <trkpt lat="45.9955" lon="5.23716">
        <ele>313.5272217</ele>
        <time>2013-05-18T08:19:10Z</time>
      </trkpt>
      <trkpt lat="45.99564" lon="5.2376">
        <ele>314.4884033</ele>
        <time>2013-05-18T08:19:14Z</time>
      </trkpt>
      <trkpt lat="45.99584" lon="5.23811">
        <ele>313.5272217</ele>
        <time>2013-05-18T08:19:19Z</time>
      </trkpt>
      <trkpt lat="45.9952" lon="5.24038">
        <ele>323.6209717</ele>
        <time>2013-05-18T08:19:48Z</time>
      </trkpt>
      <trkpt lat="45.99457" lon="5.24131">
        <ele>324.5822754</ele>
        <time>2013-05-18T08:19:59Z</time>
      </trkpt>
      <trkpt lat="45.99433" lon="5.24167">
        <ele>321.2177734</ele>
        <time>2013-05-18T08:20:03Z</time>
      </trkpt>
      <trkpt lat="45.99427" lon="5.24176">
        <ele>321.2177734</ele>
        <time>2013-05-18T08:20:04Z</time>
      </trkpt>
      <trkpt lat="45.99402" lon="5.24206">
        <ele>318.3336182</ele>
        <time>2013-05-18T08:20:08Z</time>
      </trkpt>
      <trkpt lat="45.99377" lon="5.24237">
        <ele>314.9691162</ele>
        <time>2013-05-18T08:20:12Z</time>
      </trkpt>
      <trkpt lat="45.99359" lon="5.2426">
        <ele>313.0465088</ele>
        <time>2013-05-18T08:20:15Z</time>
      </trkpt>
      <trkpt lat="45.99283" lon="5.24354">
        <ele>310.1624756</ele>
        <time>2013-05-18T08:20:26Z</time>
      </trkpt>
      <trkpt lat="45.9927" lon="5.24372">
        <ele>309.6818848</ele>
        <time>2013-05-18T08:20:28Z</time>
      </trkpt>
      <trkpt lat="45.99233" lon="5.24467">
        <ele>311.6044922</ele>
        <time>2013-05-18T08:20:37Z</time>
      </trkpt>
      <trkpt lat="45.99215" lon="5.24524">
        <ele>313.0465088</ele>
        <time>2013-05-18T08:20:43Z</time>
      </trkpt>
      <trkpt lat="45.99198" lon="5.24534">
        <ele>313.0465088</ele>
        <time>2013-05-18T08:20:46Z</time>
      </trkpt>
      <trkpt lat="45.99185" lon="5.24526">
        <ele>313.5272217</ele>
        <time>2013-05-18T08:20:48Z</time>
      </trkpt>
      <trkpt lat="45.99125" lon="5.2447">
        <ele>314.4884033</ele>
        <time>2013-05-18T08:20:58Z</time>
      </trkpt>
      <trkpt lat="45.99066" lon="5.24411">
        <ele>314.9691162</ele>
        <time>2013-05-18T08:21:08Z</time>
      </trkpt>
      <trkpt lat="45.98997" lon="5.24344">
        <ele>315.4498291</ele>
        <time>2013-05-18T08:21:20Z</time>
      </trkpt>
      <trkpt lat="45.98952" lon="5.24319">
        <ele>315.9304199</ele>
        <time>2013-05-18T08:21:27Z</time>
      </trkpt>
      <trkpt lat="45.98894" lon="5.24292">
        <ele>316.4110107</ele>
        <time>2013-05-18T08:21:36Z</time>
      </trkpt>
      <trkpt lat="45.98834" lon="5.24265">
        <ele>317.8530273</ele>
        <time>2013-05-18T08:21:46Z</time>
      </trkpt>
      <trkpt lat="45.98771" lon="5.24239">
        <ele>316.8917236</ele>
        <time>2013-05-18T08:21:55Z</time>
      </trkpt>
      <trkpt lat="45.98744" lon="5.24204">
        <ele>316.8917236</ele>
        <time>2013-05-18T08:22:00Z</time>
      </trkpt>
      <trkpt lat="45.98727" lon="5.24185">
        <ele>316.8917236</ele>
        <time>2013-05-18T08:22:03Z</time>
      </trkpt>
      <trkpt lat="45.98668" lon="5.24157">
        <ele>317.8530273</ele>
        <time>2013-05-18T08:22:12Z</time>
      </trkpt>
      <trkpt lat="45.98532" lon="5.24102">
        <ele>317.8530273</ele>
        <time>2013-05-18T08:22:32Z</time>
      </trkpt>
      <trkpt lat="45.98498" lon="5.24051">
        <ele>318.8143311</ele>
        <time>2013-05-18T08:22:39Z</time>
      </trkpt>
      <trkpt lat="45.9845" lon="5.23965">
        <ele>320.2563477</ele>
        <time>2013-05-18T08:22:50Z</time>
      </trkpt>
      <trkpt lat="45.98391" lon="5.23883">
        <ele>320.2563477</ele>
        <time>2013-05-18T08:23:01Z</time>
      </trkpt>
      <trkpt lat="45.98334" lon="5.23788">
        <ele>318.8143311</ele>
        <time>2013-05-18T08:23:12Z</time>
      </trkpt>
      <trkpt lat="45.98315" lon="5.23769">
        <ele>318.8143311</ele>
        <time>2013-05-18T08:23:15Z</time>
      </trkpt>
      <trkpt lat="45.98254" lon="5.23728">
        <ele>318.8143311</ele>
        <time>2013-05-18T08:23:24Z</time>
      </trkpt>
      <trkpt lat="45.98188" lon="5.23658">
        <ele>319.2950439</ele>
        <time>2013-05-18T08:23:35Z</time>
      </trkpt>
      <trkpt lat="45.98122" lon="5.23542">
        <ele>320.2563477</ele>
        <time>2013-05-18T08:23:49Z</time>
      </trkpt>
      <trkpt lat="45.97809" lon="5.23412">
        <ele>320.7370605</ele>
        <time>2013-05-18T08:24:32Z</time>
      </trkpt>
      <trkpt lat="45.97639" lon="5.23292">
        <ele>318.8143311</ele>
        <time>2013-05-18T08:24:56Z</time>
      </trkpt>
      <trkpt lat="45.97619" lon="5.23271">
        <ele>317.8530273</ele>
        <time>2013-05-18T08:24:59Z</time>
      </trkpt>
      <trkpt lat="45.97581" lon="5.23188">
        <ele>317.3724365</ele>
        <time>2013-05-18T08:25:07Z</time>
      </trkpt>
      <trkpt lat="45.97564" lon="5.23164">
        <ele>316.8917236</ele>
        <time>2013-05-18T08:25:10Z</time>
      </trkpt>
      <trkpt lat="45.97556" lon="5.23165">
        <ele>316.8917236</ele>
        <time>2013-05-18T08:25:11Z</time>
      </trkpt>
      <trkpt lat="45.97512" lon="5.23194">
        <ele>316.8917236</ele>
        <time>2013-05-18T08:25:17Z</time>
      </trkpt>
      <trkpt lat="45.97481" lon="5.23204">
        <ele>316.4110107</ele>
        <time>2013-05-18T08:25:21Z</time>
      </trkpt>
      <trkpt lat="45.97449" lon="5.23197">
        <ele>316.8917236</ele>
        <time>2013-05-18T08:25:25Z</time>
      </trkpt>
      <trkpt lat="45.97422" lon="5.23173">
        <ele>316.8917236</ele>
        <time>2013-05-18T08:25:29Z</time>
      </trkpt>
      <trkpt lat="45.97373" lon="5.23106">
        <ele>318.3336182</ele>
        <time>2013-05-18T08:25:38Z</time>
      </trkpt>
      <trkpt lat="45.97363" lon="5.23095">
        <ele>319.2950439</ele>
        <time>2013-05-18T08:25:40Z</time>
      </trkpt>
      <trkpt lat="45.9735" lon="5.23083">
        <ele>319.7756348</ele>
        <time>2013-05-18T08:25:45Z</time>
      </trkpt>
      <trkpt lat="45.97346" lon="5.23081">
        <ele>319.7756348</ele>
        <time>2013-05-18T08:25:47Z</time>
      </trkpt>
      <trkpt lat="45.97329" lon="5.23095">
        <ele>319.7756348</ele>
        <time>2013-05-18T08:25:52Z</time>
      </trkpt>
      <trkpt lat="45.97278" lon="5.23162">
        <ele>320.2563477</ele>
        <time>2013-05-18T08:26:02Z</time>
      </trkpt>
      <trkpt lat="45.97221" lon="5.23239">
        <ele>321.6983643</ele>
        <time>2013-05-18T08:26:13Z</time>
      </trkpt>
      <trkpt lat="45.97183" lon="5.2329">
        <ele>322.1789551</ele>
        <time>2013-05-18T08:26:20Z</time>
      </trkpt>
      <trkpt lat="45.97142" lon="5.2334">
        <ele>320.7370605</ele>
        <time>2013-05-18T08:26:26Z</time>
      </trkpt>
      <trkpt lat="45.97118" lon="5.23371">
        <ele>319.2950439</ele>
        <time>2013-05-18T08:26:29Z</time>
      </trkpt>
      <trkpt lat="45.97084" lon="5.23412">
        <ele>317.3724365</ele>
        <time>2013-05-18T08:26:33Z</time>
      </trkpt>
      <trkpt lat="45.96985" lon="5.23528">
        <ele>315.9304199</ele>
        <time>2013-05-18T08:26:45Z</time>
      </trkpt>
      <trkpt lat="45.96904" lon="5.23633">
        <ele>316.4110107</ele>
        <time>2013-05-18T08:26:56Z</time>
      </trkpt>
      <trkpt lat="45.96858" lon="5.23714">
        <ele>317.3724365</ele>
        <time>2013-05-18T08:27:04Z</time>
      </trkpt>
      <trkpt lat="45.96811" lon="5.23807">
        <ele>318.8143311</ele>
        <time>2013-05-18T08:27:14Z</time>
      </trkpt>
      <trkpt lat="45.96775" lon="5.23896">
        <ele>320.2563477</ele>
        <time>2013-05-18T08:27:24Z</time>
      </trkpt>
      <trkpt lat="45.96748" lon="5.23993">
        <ele>319.7756348</ele>
        <time>2013-05-18T08:27:34Z</time>
      </trkpt>
      <trkpt lat="45.96739" lon="5.2403">
        <ele>318.3336182</ele>
        <time>2013-05-18T08:27:38Z</time>
      </trkpt>
      <trkpt lat="45.96733" lon="5.24042">
        <ele>317.8530273</ele>
        <time>2013-05-18T08:27:40Z</time>
      </trkpt>
      <trkpt lat="45.96719" lon="5.24032">
        <ele>317.8530273</ele>
        <time>2013-05-18T08:27:43Z</time>
      </trkpt>
      <trkpt lat="45.96707" lon="5.24011">
        <ele>318.3336182</ele>
        <time>2013-05-18T08:27:47Z</time>
      </trkpt>
      <trkpt lat="45.96674" lon="5.23971">
        <ele>319.2950439</ele>
        <time>2013-05-18T08:27:58Z</time>
      </trkpt>
      <trkpt lat="45.96666" lon="5.2396">
        <ele>319.7756348</ele>
        <time>2013-05-18T08:28:04Z</time>
      </trkpt>
      <trkpt lat="45.96667" lon="5.23959">
        <ele>319.7756348</ele>
        <time>2013-05-18T08:28:18Z</time>
      </trkpt>
      <trkpt lat="45.96662" lon="5.23957">
        <ele>319.7756348</ele>
        <time>2013-05-18T08:32:44Z</time>
      </trkpt>
      <trkpt lat="45.96655" lon="5.23951">
        <ele>320.2563477</ele>
        <time>2013-05-18T08:32:58Z</time>
      </trkpt>
      <trkpt lat="45.96645" lon="5.23937">
        <ele>320.7370605</ele>
        <time>2013-05-18T08:33:05Z</time>
      </trkpt>
      <trkpt lat="45.96626" lon="5.23911">
        <ele>321.6983643</ele>
        <time>2013-05-18T08:33:13Z</time>
      </trkpt>
      <trkpt lat="45.96601" lon="5.23878">
        <ele>322.659668</ele>
        <time>2013-05-18T08:33:21Z</time>
      </trkpt>
      <trkpt lat="45.96556" lon="5.23826">
        <ele>322.659668</ele>
        <time>2013-05-18T08:33:33Z</time>
      </trkpt>
      <trkpt lat="45.9652" lon="5.23787">
        <ele>323.1403809</ele>
        <time>2013-05-18T08:33:42Z</time>
      </trkpt>
      <trkpt lat="45.96492" lon="5.2376">
        <ele>323.1403809</ele>
        <time>2013-05-18T08:33:48Z</time>
      </trkpt>
      <trkpt lat="45.9645" lon="5.23704">
        <ele>323.1403809</ele>
        <time>2013-05-18T08:33:58Z</time>
      </trkpt>
      <trkpt lat="45.96396" lon="5.23624">
        <ele>322.659668</ele>
        <time>2013-05-18T08:34:11Z</time>
      </trkpt>
      <trkpt lat="45.96349" lon="5.23554">
        <ele>321.6983643</ele>
        <time>2013-05-18T08:34:21Z</time>
      </trkpt>
      <trkpt lat="45.96298" lon="5.23492">
        <ele>320.7370605</ele>
        <time>2013-05-18T08:34:30Z</time>
      </trkpt>
      <trkpt lat="45.96195" lon="5.23385">
        <ele>320.2563477</ele>
        <time>2013-05-18T08:34:48Z</time>
      </trkpt>
      <trkpt lat="45.96136" lon="5.23341">
        <ele>319.7756348</ele>
        <time>2013-05-18T08:34:57Z</time>
      </trkpt>
      <trkpt lat="45.96124" lon="5.23328">
        <ele>319.7756348</ele>
        <time>2013-05-18T08:34:59Z</time>
      </trkpt>
      <trkpt lat="45.9609" lon="5.23262">
        <ele>319.7756348</ele>
        <time>2013-05-18T08:35:06Z</time>
      </trkpt>
      <trkpt lat="45.9605" lon="5.23166">
        <ele>319.2950439</ele>
        <time>2013-05-18T08:35:15Z</time>
      </trkpt>
      <trkpt lat="45.96002" lon="5.23052">
        <ele>320.2563477</ele>
        <time>2013-05-18T08:35:26Z</time>
      </trkpt>
      <trkpt lat="45.95987" lon="5.23023">
        <ele>320.2563477</ele>
        <time>2013-05-18T08:35:29Z</time>
      </trkpt>
      <trkpt lat="45.95934" lon="5.22978">
        <ele>319.2950439</ele>
        <time>2013-05-18T08:35:36Z</time>
      </trkpt>
      <trkpt lat="45.95853" lon="5.22907">
        <ele>317.3724365</ele>
        <time>2013-05-18T08:35:46Z</time>
      </trkpt>
      <trkpt lat="45.95765" lon="5.22805">
        <ele>316.8917236</ele>
        <time>2013-05-18T08:35:58Z</time>
      </trkpt>
      <trkpt lat="45.957" lon="5.22745">
        <ele>314.9691162</ele>
        <time>2013-05-18T08:36:06Z</time>
      </trkpt>
      <trkpt lat="45.95642" lon="5.22719">
        <ele>314.0078125</ele>
        <time>2013-05-18T08:36:12Z</time>
      </trkpt>
      <trkpt lat="45.95564" lon="5.227">
        <ele>312.5657959</ele>
        <time>2013-05-18T08:36:20Z</time>
      </trkpt>
      <trkpt lat="45.95533" lon="5.22699">
        <ele>311.1237793</ele>
        <time>2013-05-18T08:36:23Z</time>
      </trkpt>
      <trkpt lat="45.95523" lon="5.22698">
        <ele>310.1624756</ele>
        <time>2013-05-18T08:36:24Z</time>
      </trkpt>
      <trkpt lat="45.95505" lon="5.22687">
        <ele>309.2011719</ele>
        <time>2013-05-18T08:36:26Z</time>
      </trkpt>
      <trkpt lat="45.95486" lon="5.22676">
        <ele>308.720459</ele>
        <time>2013-05-18T08:36:28Z</time>
      </trkpt>
      <trkpt lat="45.95432" lon="5.22669">
        <ele>306.7978516</ele>
        <time>2013-05-18T08:36:33Z</time>
      </trkpt>
      <trkpt lat="45.95342" lon="5.2266">
        <ele>304.8752441</ele>
        <time>2013-05-18T08:36:41Z</time>
      </trkpt>
      <trkpt lat="45.95232" lon="5.22645">
        <ele>302.9525146</ele>
        <time>2013-05-18T08:36:51Z</time>
      </trkpt>
      <trkpt lat="45.95167" lon="5.22638">
        <ele>301.991333</ele>
        <time>2013-05-18T08:36:57Z</time>
      </trkpt>
      <trkpt lat="45.95109" lon="5.22602">
        <ele>300.5493164</ele>
        <time>2013-05-18T08:37:03Z</time>
      </trkpt>
      <trkpt lat="45.95041" lon="5.22573">
        <ele>299.1072998</ele>
        <time>2013-05-18T08:37:10Z</time>
      </trkpt>
      <trkpt lat="45.94962" lon="5.22563">
        <ele>298.626709</ele>
        <time>2013-05-18T08:37:18Z</time>
      </trkpt>
      <trkpt lat="45.94886" lon="5.22572">
        <ele>298.626709</ele>
        <time>2013-05-18T08:37:26Z</time>
      </trkpt>
      <trkpt lat="45.94838" lon="5.22571">
        <ele>299.5880127</ele>
        <time>2013-05-18T08:37:31Z</time>
      </trkpt>
      <trkpt lat="45.94788" lon="5.22553">
        <ele>301.5106201</ele>
        <time>2013-05-18T08:37:37Z</time>
      </trkpt>
      <trkpt lat="45.94709" lon="5.22531">
        <ele>302.4719238</ele>
        <time>2013-05-18T08:37:46Z</time>
      </trkpt>
      <trkpt lat="45.94632" lon="5.22531">
        <ele>300.5493164</ele>
        <time>2013-05-18T08:37:54Z</time>
      </trkpt>
      <trkpt lat="45.94565" lon="5.22508">
        <ele>299.1072998</ele>
        <time>2013-05-18T08:38:01Z</time>
      </trkpt>
      <trkpt lat="45.9448" lon="5.22487">
        <ele>298.1461182</ele>
        <time>2013-05-18T08:38:10Z</time>
      </trkpt>
      <trkpt lat="45.94388" lon="5.22485">
        <ele>298.626709</ele>
        <time>2013-05-18T08:38:20Z</time>
      </trkpt>
      <trkpt lat="45.94361" lon="5.22491">
        <ele>298.626709</ele>
        <time>2013-05-18T08:38:23Z</time>
      </trkpt>
      <trkpt lat="45.94343" lon="5.22498">
        <ele>298.1461182</ele>
        <time>2013-05-18T08:38:25Z</time>
      </trkpt>
      <trkpt lat="45.94264" lon="5.22552">
        <ele>296.2235107</ele>
        <time>2013-05-18T08:38:34Z</time>
      </trkpt>
      <trkpt lat="45.94181" lon="5.22596">
        <ele>293.8200684</ele>
        <time>2013-05-18T08:38:43Z</time>
      </trkpt>
      <trkpt lat="45.94127" lon="5.2263">
        <ele>293.3393555</ele>
        <time>2013-05-18T08:38:49Z</time>
      </trkpt>
      <trkpt lat="45.94084" lon="5.22686">
        <ele>293.8200684</ele>
        <time>2013-05-18T08:38:55Z</time>
      </trkpt>
      <trkpt lat="45.94058" lon="5.22702">
        <ele>292.3781738</ele>
        <time>2013-05-18T08:38:58Z</time>
      </trkpt>
      <trkpt lat="45.94002" lon="5.22717">
        <ele>291.8974609</ele>
        <time>2013-05-18T08:39:04Z</time>
      </trkpt>
      <trkpt lat="45.93925" lon="5.22742">
        <ele>291.8974609</ele>
        <time>2013-05-18T08:39:12Z</time>
      </trkpt>
      <trkpt lat="45.93907" lon="5.22749">
        <ele>291.416748</ele>
        <time>2013-05-18T08:39:14Z</time>
      </trkpt>
      <trkpt lat="45.93868" lon="5.22791">
        <ele>291.416748</ele>
        <time>2013-05-18T08:39:19Z</time>
      </trkpt>
      <trkpt lat="45.9384" lon="5.2284">
        <ele>291.8974609</ele>
        <time>2013-05-18T08:39:24Z</time>
      </trkpt>
      <trkpt lat="45.93801" lon="5.22864">
        <ele>292.3781738</ele>
        <time>2013-05-18T08:39:29Z</time>
      </trkpt>
      <trkpt lat="45.93792" lon="5.22865">
        <ele>293.3393555</ele>
        <time>2013-05-18T08:39:30Z</time>
      </trkpt>
      <trkpt lat="45.93707" lon="5.22872">
        <ele>292.8587646</ele>
        <time>2013-05-18T08:39:40Z</time>
      </trkpt>
      <trkpt lat="45.93438" lon="5.2291">
        <ele>282.7650146</ele>
        <time>2013-05-18T08:40:18Z</time>
      </trkpt>
      <trkpt lat="45.9342" lon="5.22878">
        <ele>281.322998</ele>
        <time>2013-05-18T08:40:22Z</time>
      </trkpt>
      <trkpt lat="45.93421" lon="5.22822">
        <ele>279.4002686</ele>
        <time>2013-05-18T08:40:27Z</time>
      </trkpt>
      <trkpt lat="45.93459" lon="5.2296">
        <ele>285.6488037</ele>
        <time>2013-05-18T08:41:00Z</time>
      </trkpt>
      <trkpt lat="45.93471" lon="5.22965">
        <ele>289.0135498</ele>
        <time>2013-05-18T08:41:05Z</time>
      </trkpt>
      <trkpt lat="45.9348" lon="5.22962">
        <ele>290.4555664</ele>
        <time>2013-05-18T08:41:07Z</time>
      </trkpt>
      <trkpt lat="45.93501" lon="5.22956">
        <ele>291.8974609</ele>
        <time>2013-05-18T08:41:12Z</time>
      </trkpt>
      <trkpt lat="45.93517" lon="5.22947">
        <ele>293.3393555</ele>
        <time>2013-05-18T08:41:15Z</time>
      </trkpt>
      <trkpt lat="45.93563" lon="5.22929">
        <ele>296.2235107</ele>
        <time>2013-05-18T08:41:23Z</time>
      </trkpt>
      <trkpt lat="45.93618" lon="5.22911">
        <ele>299.1072998</ele>
        <time>2013-05-18T08:41:32Z</time>
      </trkpt>
      <trkpt lat="45.93657" lon="5.22891">
        <ele>299.5880127</ele>
        <time>2013-05-18T08:41:39Z</time>
      </trkpt>
      <trkpt lat="45.937" lon="5.22836">
        <ele>299.1072998</ele>
        <time>2013-05-18T08:41:47Z</time>
      </trkpt>
      <trkpt lat="45.9375" lon="5.22749">
        <ele>297.6654053</ele>
        <time>2013-05-18T08:41:57Z</time>
      </trkpt>
      <trkpt lat="45.93797" lon="5.22663">
        <ele>297.6654053</ele>
        <time>2013-05-18T08:42:07Z</time>
      </trkpt>
      <trkpt lat="45.93825" lon="5.22577">
        <ele>298.1461182</ele>
        <time>2013-05-18T08:42:16Z</time>
      </trkpt>
      <trkpt lat="45.93838" lon="5.22503">
        <ele>299.1072998</ele>
        <time>2013-05-18T08:42:24Z</time>
      </trkpt>
      <trkpt lat="45.93852" lon="5.22417">
        <ele>301.991333</ele>
        <time>2013-05-18T08:42:34Z</time>
      </trkpt>
      <trkpt lat="45.93875" lon="5.2235">
        <ele>303.4332275</ele>
        <time>2013-05-18T08:42:43Z</time>
      </trkpt>
      <trkpt lat="45.93883" lon="5.22328">
        <ele>304.8752441</ele>
        <time>2013-05-18T08:42:46Z</time>
      </trkpt>
      <trkpt lat="45.93881" lon="5.22284">
        <ele>306.7978516</ele>
        <time>2013-05-18T08:42:52Z</time>
      </trkpt>
      <trkpt lat="45.93857" lon="5.22213">
        <ele>304.3946533</ele>
        <time>2013-05-18T08:43:01Z</time>
      </trkpt>
      <trkpt lat="45.93855" lon="5.22171">
        <ele>304.3946533</ele>
        <time>2013-05-18T08:43:05Z</time>
      </trkpt>
      <trkpt lat="45.93858" lon="5.22063">
        <ele>303.4332275</ele>
        <time>2013-05-18T08:43:15Z</time>
      </trkpt>
      <trkpt lat="45.93845" lon="5.21952">
        <ele>302.9525146</ele>
        <time>2013-05-18T08:43:25Z</time>
      </trkpt>
      <trkpt lat="45.93831" lon="5.21854">
        <ele>302.9525146</ele>
        <time>2013-05-18T08:43:34Z</time>
      </trkpt>
      <trkpt lat="45.93832" lon="5.2178">
        <ele>303.4332275</ele>
        <time>2013-05-18T08:43:41Z</time>
      </trkpt>
      <trkpt lat="45.93833" lon="5.2176">
        <ele>303.4332275</ele>
        <time>2013-05-18T08:43:43Z</time>
      </trkpt>
      <trkpt lat="45.93828" lon="5.21663">
        <ele>305.355957</ele>
        <time>2013-05-18T08:43:53Z</time>
      </trkpt>
      <trkpt lat="45.93829" lon="5.21652">
        <ele>305.355957</ele>
        <time>2013-05-18T08:43:54Z</time>
      </trkpt>
      <trkpt lat="45.93818" lon="5.21584">
        <ele>303.4332275</ele>
        <time>2013-05-18T08:44:00Z</time>
      </trkpt>
      <trkpt lat="45.93821" lon="5.21509">
        <ele>304.3946533</ele>
        <time>2013-05-18T08:44:07Z</time>
      </trkpt>
      <trkpt lat="45.93823" lon="5.21479">
        <ele>305.355957</ele>
        <time>2013-05-18T08:44:10Z</time>
      </trkpt>
      <trkpt lat="45.93809" lon="5.21423">
        <ele>305.8366699</ele>
        <time>2013-05-18T08:44:16Z</time>
      </trkpt>
      <trkpt lat="45.93789" lon="5.21373">
        <ele>304.3946533</ele>
        <time>2013-05-18T08:44:21Z</time>
      </trkpt>
      <trkpt lat="45.93767" lon="5.21293">
        <ele>301.5106201</ele>
        <time>2013-05-18T08:44:28Z</time>
      </trkpt>
      <trkpt lat="45.93745" lon="5.21217">
        <ele>298.1461182</ele>
        <time>2013-05-18T08:44:34Z</time>
      </trkpt>
      <trkpt lat="45.93737" lon="5.21196">
        <ele>297.1846924</ele>
        <time>2013-05-18T08:44:36Z</time>
      </trkpt>
      <trkpt lat="45.93729" lon="5.21182">
        <ele>296.7041016</ele>
        <time>2013-05-18T08:44:38Z</time>
      </trkpt>
      <trkpt lat="45.93715" lon="5.21184">
        <ele>295.2619629</ele>
        <time>2013-05-18T08:44:41Z</time>
      </trkpt>
      <trkpt lat="45.9371" lon="5.21187">
        <ele>294.7813721</ele>
        <time>2013-05-18T08:44:42Z</time>
      </trkpt>
      <trkpt lat="45.93684" lon="5.21195">
        <ele>294.3007813</ele>
        <time>2013-05-18T08:44:46Z</time>
      </trkpt>
      <trkpt lat="45.93659" lon="5.21196">
        <ele>291.8974609</ele>
        <time>2013-05-18T08:44:49Z</time>
      </trkpt>
      <trkpt lat="45.93652" lon="5.2119">
        <ele>287.5714111</ele>
        <time>2013-05-18T08:44:50Z</time>
      </trkpt>
      <trkpt lat="45.93646" lon="5.21181">
        <ele>288.0522461</ele>
        <time>2013-05-18T08:44:51Z</time>
      </trkpt>
      <trkpt lat="45.9364" lon="5.2116">
        <ele>289.0135498</ele>
        <time>2013-05-18T08:44:53Z</time>
      </trkpt>
      <trkpt lat="45.93629" lon="5.21114">
        <ele>287.0908203</ele>
        <time>2013-05-18T08:44:57Z</time>
      </trkpt>
      <trkpt lat="45.93626" lon="5.21103">
        <ele>286.6102295</ele>
        <time>2013-05-18T08:44:58Z</time>
      </trkpt>
      <trkpt lat="45.93627" lon="5.21053">
        <ele>281.322998</ele>
        <time>2013-05-18T08:45:02Z</time>
      </trkpt>
      <trkpt lat="45.93672" lon="5.20963">
        <ele>276.0356445</ele>
        <time>2013-05-18T08:45:10Z</time>
      </trkpt>
      <trkpt lat="45.9366" lon="5.20443">
        <ele>255.8480225</ele>
        <time>2013-05-18T08:45:48Z</time>
      </trkpt>
      <trkpt lat="45.93639" lon="5.20373">
        <ele>255.3673096</ele>
        <time>2013-05-18T08:45:56Z</time>
      </trkpt>
      <trkpt lat="45.93635" lon="5.20351">
        <ele>255.3673096</ele>
        <time>2013-05-18T08:45:58Z</time>
      </trkpt>
      <trkpt lat="45.93642" lon="5.20268">
        <ele>252.9639893</ele>
        <time>2013-05-18T08:46:05Z</time>
      </trkpt>
      <trkpt lat="45.9364" lon="5.20217">
        <ele>251.0413818</ele>
        <time>2013-05-18T08:46:09Z</time>
      </trkpt>
      <trkpt lat="45.93743" lon="5.19987">
        <ele>250.0802002</ele>
        <time>2013-05-18T08:46:31Z</time>
      </trkpt>
      <trkpt lat="45.93841" lon="5.19882">
        <ele>251.0413818</ele>
        <time>2013-05-18T08:46:46Z</time>
      </trkpt>
      <trkpt lat="45.93868" lon="5.1985">
        <ele>252.4833984</ele>
        <time>2013-05-18T08:46:51Z</time>
      </trkpt>
      <trkpt lat="45.93902" lon="5.19824">
        <ele>251.5220947</ele>
        <time>2013-05-18T08:46:56Z</time>
      </trkpt>
      <trkpt lat="45.93927" lon="5.19782">
        <ele>250.0802002</ele>
        <time>2013-05-18T08:47:01Z</time>
      </trkpt>
      <trkpt lat="45.93935" lon="5.19764">
        <ele>249.5994873</ele>
        <time>2013-05-18T08:47:03Z</time>
      </trkpt>
      <trkpt lat="45.93957" lon="5.19706">
        <ele>250.0802002</ele>
        <time>2013-05-18T08:47:09Z</time>
      </trkpt>
      <trkpt lat="45.93959" lon="5.19674">
        <ele>249.5994873</ele>
        <time>2013-05-18T08:47:12Z</time>
      </trkpt>
      <trkpt lat="45.93949" lon="5.19636">
        <ele>249.5994873</ele>
        <time>2013-05-18T08:47:16Z</time>
      </trkpt>
      <trkpt lat="45.93942" lon="5.19618">
        <ele>249.5994873</ele>
        <time>2013-05-18T08:47:18Z</time>
      </trkpt>
      <trkpt lat="45.93937" lon="5.1956">
        <ele>249.5994873</ele>
        <time>2013-05-18T08:47:24Z</time>
      </trkpt>
      <trkpt lat="45.93947" lon="5.19534">
        <ele>249.5994873</ele>
        <time>2013-05-18T08:47:27Z</time>
      </trkpt>
      <trkpt lat="45.93978" lon="5.19478">
        <ele>250.0802002</ele>
        <time>2013-05-18T08:47:34Z</time>
      </trkpt>
      <trkpt lat="45.93995" lon="5.19397">
        <ele>253.4447021</ele>
        <time>2013-05-18T08:47:43Z</time>
      </trkpt>
      <trkpt lat="45.94009" lon="5.19328">
        <ele>255.8480225</ele>
        <time>2013-05-18T08:47:52Z</time>
      </trkpt>
      <trkpt lat="45.94017" lon="5.19275">
        <ele>258.7319336</ele>
        <time>2013-05-18T08:48:00Z</time>
      </trkpt>
      <trkpt lat="45.94018" lon="5.19212">
        <ele>262.0965576</ele>
        <time>2013-05-18T08:48:10Z</time>
      </trkpt>
      <trkpt lat="45.94016" lon="5.19195">
        <ele>262.0965576</ele>
        <time>2013-05-18T08:48:13Z</time>
      </trkpt>
      <trkpt lat="45.94012" lon="5.19155">
        <ele>263.0578613</ele>
        <time>2013-05-18T08:48:21Z</time>
      </trkpt>
      <trkpt lat="45.94007" lon="5.19127">
        <ele>264.9805908</ele>
        <time>2013-05-18T08:48:27Z</time>
      </trkpt>
      <trkpt lat="45.93999" lon="5.19102">
        <ele>267.3839111</ele>
        <time>2013-05-18T08:48:33Z</time>
      </trkpt>
      <trkpt lat="45.93994" lon="5.1909">
        <ele>268.8258057</ele>
        <time>2013-05-18T08:48:36Z</time>
      </trkpt>
      <trkpt lat="45.93984" lon="5.19058">
        <ele>270.2677002</ele>
        <time>2013-05-18T08:48:44Z</time>
      </trkpt>
      <trkpt lat="45.93978" lon="5.19025">
        <ele>272.1904297</ele>
        <time>2013-05-18T08:48:52Z</time>
      </trkpt>
      <trkpt lat="45.93973" lon="5.18991">
        <ele>276.0356445</ele>
        <time>2013-05-18T08:49:02Z</time>
      </trkpt>
      <trkpt lat="45.93973" lon="5.18987">
        <ele>276.5163574</ele>
        <time>2013-05-18T08:49:03Z</time>
      </trkpt>
      <trkpt lat="45.93974" lon="5.18946">
        <ele>277.958252</ele>
        <time>2013-05-18T08:49:12Z</time>
      </trkpt>
      <trkpt lat="45.9398" lon="5.18887">
        <ele>279.8808594</ele>
        <time>2013-05-18T08:49:25Z</time>
      </trkpt>
      <trkpt lat="45.93982" lon="5.18851">
        <ele>280.3616943</ele>
        <time>2013-05-18T08:49:31Z</time>
      </trkpt>
      <trkpt lat="45.93976" lon="5.18816">
        <ele>282.2843018</ele>
        <time>2013-05-18T08:49:37Z</time>
      </trkpt>
      <trkpt lat="45.93965" lon="5.18741">
        <ele>282.2843018</ele>
        <time>2013-05-18T08:49:49Z</time>
      </trkpt>
      <trkpt lat="45.93958" lon="5.18668">
        <ele>284.6876221</ele>
        <time>2013-05-18T08:50:00Z</time>
      </trkpt>
      <trkpt lat="45.93951" lon="5.18595">
        <ele>287.0908203</ele>
        <time>2013-05-18T08:50:11Z</time>
      </trkpt>
      <trkpt lat="45.93943" lon="5.18507">
        <ele>289.0135498</ele>
        <time>2013-05-18T08:50:24Z</time>
      </trkpt>
      <trkpt lat="45.93935" lon="5.18425">
        <ele>291.8974609</ele>
        <time>2013-05-18T08:50:36Z</time>
      </trkpt>
      <trkpt lat="45.93928" lon="5.18356">
        <ele>294.7813721</ele>
        <time>2013-05-18T08:50:46Z</time>
      </trkpt>
      <trkpt lat="45.93922" lon="5.18274">
        <ele>296.7041016</ele>
        <time>2013-05-18T08:50:58Z</time>
      </trkpt>
      <trkpt lat="45.93915" lon="5.18208">
        <ele>297.1846924</ele>
        <time>2013-05-18T08:51:07Z</time>
      </trkpt>
      <trkpt lat="45.9391" lon="5.18164">
        <ele>299.1072998</ele>
        <time>2013-05-18T08:51:13Z</time>
      </trkpt>
      <trkpt lat="45.93905" lon="5.18097">
        <ele>300.0687256</ele>
        <time>2013-05-18T08:51:22Z</time>
      </trkpt>
      <trkpt lat="45.93902" lon="5.1806">
        <ele>301.0299072</ele>
        <time>2013-05-18T08:51:27Z</time>
      </trkpt>
      <trkpt lat="45.93898" lon="5.18033">
        <ele>302.4719238</ele>
        <time>2013-05-18T08:51:34Z</time>
      </trkpt>
      <trkpt lat="45.93897" lon="5.18021">
        <ele>302.4719238</ele>
        <time>2013-05-18T08:51:40Z</time>
      </trkpt>
      <trkpt lat="45.93895" lon="5.18003">
        <ele>302.4719238</ele>
        <time>2013-05-18T08:51:43Z</time>
      </trkpt>
      <trkpt lat="45.93888" lon="5.17951">
        <ele>303.4332275</ele>
        <time>2013-05-18T08:51:50Z</time>
      </trkpt>
      <trkpt lat="45.93877" lon="5.17924">
        <ele>304.3946533</ele>
        <time>2013-05-18T08:51:54Z</time>
      </trkpt>
      <trkpt lat="45.9384" lon="5.1786">
        <ele>306.3172607</ele>
        <time>2013-05-18T08:52:05Z</time>
      </trkpt>
      <trkpt lat="45.93805" lon="5.1779">
        <ele>306.3172607</ele>
        <time>2013-05-18T08:52:15Z</time>
      </trkpt>
      <trkpt lat="45.93779" lon="5.17722">
        <ele>305.8366699</ele>
        <time>2013-05-18T08:52:23Z</time>
      </trkpt>
      <trkpt lat="45.93762" lon="5.17643">
        <ele>303.4332275</ele>
        <time>2013-05-18T08:52:30Z</time>
      </trkpt>
      <trkpt lat="45.93756" lon="5.17605">
        <ele>301.5106201</ele>
        <time>2013-05-18T08:52:33Z</time>
      </trkpt>
      <trkpt lat="45.93746" lon="5.1751">
        <ele>298.626709</ele>
        <time>2013-05-18T08:52:40Z</time>
      </trkpt>
      <trkpt lat="45.93744" lon="5.17481">
        <ele>297.6654053</ele>
        <time>2013-05-18T08:52:42Z</time>
      </trkpt>
      <trkpt lat="45.93729" lon="5.17344">
        <ele>295.7426758</ele>
        <time>2013-05-18T08:52:52Z</time>
      </trkpt>
      <trkpt lat="45.9372" lon="5.17292">
        <ele>295.2619629</ele>
        <time>2013-05-18T08:52:56Z</time>
      </trkpt>
      <trkpt lat="45.93699" lon="5.17246">
        <ele>293.8200684</ele>
        <time>2013-05-18T08:53:00Z</time>
      </trkpt>
      <trkpt lat="45.93679" lon="5.17215">
        <ele>292.8587646</ele>
        <time>2013-05-18T08:53:03Z</time>
      </trkpt>
      <trkpt lat="45.93663" lon="5.17165">
        <ele>292.3781738</ele>
        <time>2013-05-18T08:53:07Z</time>
      </trkpt>
      <trkpt lat="45.93663" lon="5.17151">
        <ele>291.8974609</ele>
        <time>2013-05-18T08:53:08Z</time>
      </trkpt>
      <trkpt lat="45.93665" lon="5.17108">
        <ele>292.3781738</ele>
        <time>2013-05-18T08:53:11Z</time>
      </trkpt>
      <trkpt lat="45.93662" lon="5.17056">
        <ele>293.3393555</ele>
        <time>2013-05-18T08:53:15Z</time>
      </trkpt>
      <trkpt lat="45.93636" lon="5.1695">
        <ele>291.416748</ele>
        <time>2013-05-18T08:53:24Z</time>
      </trkpt>
      <trkpt lat="45.93614" lon="5.16916">
        <ele>292.3781738</ele>
        <time>2013-05-18T08:53:28Z</time>
      </trkpt>
      <trkpt lat="45.93607" lon="5.16912">
        <ele>293.3393555</ele>
        <time>2013-05-18T08:53:29Z</time>
      </trkpt>
      <trkpt lat="45.93558" lon="5.16922">
        <ele>294.7813721</ele>
        <time>2013-05-18T08:53:36Z</time>
      </trkpt>
      <trkpt lat="45.93472" lon="5.16968">
        <ele>295.2619629</ele>
        <time>2013-05-18T08:53:48Z</time>
      </trkpt>
      <trkpt lat="45.93365" lon="5.17022">
        <ele>295.2619629</ele>
        <time>2013-05-18T08:54:02Z</time>
      </trkpt>
      <trkpt lat="45.93311" lon="5.17046">
        <ele>294.7813721</ele>
        <time>2013-05-18T08:54:09Z</time>
      </trkpt>
      <trkpt lat="45.93273" lon="5.17046">
        <ele>291.8974609</ele>
        <time>2013-05-18T08:54:13Z</time>
      </trkpt>
      <trkpt lat="45.93253" lon="5.17045">
        <ele>289.9748535</ele>
        <time>2013-05-18T08:54:15Z</time>
      </trkpt>
      <trkpt lat="45.93169" lon="5.17033">
        <ele>286.1295166</ele>
        <time>2013-05-18T08:54:23Z</time>
      </trkpt>
      <trkpt lat="45.9316" lon="5.1703">
        <ele>286.6102295</ele>
        <time>2013-05-18T08:54:24Z</time>
      </trkpt>
      <trkpt lat="45.93129" lon="5.16994">
        <ele>286.6102295</ele>
        <time>2013-05-18T08:54:28Z</time>
      </trkpt>
      <trkpt lat="45.9307" lon="5.1688">
        <ele>287.0908203</ele>
        <time>2013-05-18T08:54:39Z</time>
      </trkpt>
      <trkpt lat="45.93054" lon="5.16847">
        <ele>286.1295166</ele>
        <time>2013-05-18T08:54:42Z</time>
      </trkpt>
      <trkpt lat="45.93047" lon="5.1682">
        <ele>285.1682129</ele>
        <time>2013-05-18T08:54:44Z</time>
      </trkpt>
      <trkpt lat="45.93042" lon="5.16792">
        <ele>284.6876221</ele>
        <time>2013-05-18T08:54:46Z</time>
      </trkpt>
      <trkpt lat="45.93038" lon="5.16717">
        <ele>281.322998</ele>
        <time>2013-05-18T08:54:51Z</time>
      </trkpt>
      <trkpt lat="45.93041" lon="5.16609">
        <ele>278.4389648</ele>
        <time>2013-05-18T08:54:58Z</time>
      </trkpt>
      <trkpt lat="45.93044" lon="5.16577">
        <ele>276.9970703</ele>
        <time>2013-05-18T08:55:00Z</time>
      </trkpt>
      <trkpt lat="45.93038" lon="5.16511">
        <ele>275.0744629</ele>
        <time>2013-05-18T08:55:03Z</time>
      </trkpt>
      <trkpt lat="45.93044" lon="5.16411">
        <ele>270.7484131</ele>
        <time>2013-05-18T08:55:08Z</time>
      </trkpt>
      <trkpt lat="45.93085" lon="5.1637">
        <ele>266.9031982</ele>
        <time>2013-05-18T08:55:12Z</time>
      </trkpt>
      <trkpt lat="45.93094" lon="5.16319">
        <ele>264.0192871</ele>
        <time>2013-05-18T08:55:15Z</time>
      </trkpt>
      <trkpt lat="45.93069" lon="5.16055">
        <ele>258.7319336</ele>
        <time>2013-05-18T08:55:29Z</time>
      </trkpt>
      <trkpt lat="45.93067" lon="5.15991">
        <ele>261.6159668</ele>
        <time>2013-05-18T08:55:34Z</time>
      </trkpt>
      <trkpt lat="45.93064" lon="5.15935">
        <ele>264.4998779</ele>
        <time>2013-05-18T08:55:40Z</time>
      </trkpt>
      <trkpt lat="45.9306" lon="5.15875">
        <ele>267.864502</ele>
        <time>2013-05-18T08:55:48Z</time>
      </trkpt>
      <trkpt lat="45.9306" lon="5.1584">
        <ele>269.7871094</ele>
        <time>2013-05-18T08:55:55Z</time>
      </trkpt>
      <trkpt lat="45.93058" lon="5.15779">
        <ele>274.59375</ele>
        <time>2013-05-18T08:56:08Z</time>
      </trkpt>
      <trkpt lat="45.93057" lon="5.15774">
        <ele>275.0744629</ele>
        <time>2013-05-18T08:56:09Z</time>
      </trkpt>
      <trkpt lat="45.93048" lon="5.15715">
        <ele>278.4389648</ele>
        <time>2013-05-18T08:56:22Z</time>
      </trkpt>
      <trkpt lat="45.93037" lon="5.15655">
        <ele>280.3616943</ele>
        <time>2013-05-18T08:56:35Z</time>
      </trkpt>
      <trkpt lat="45.93027" lon="5.15594">
        <ele>283.2456055</ele>
        <time>2013-05-18T08:56:47Z</time>
      </trkpt>
      <trkpt lat="45.9302" lon="5.15556">
        <ele>285.6488037</ele>
        <time>2013-05-18T08:56:54Z</time>
      </trkpt>
      <trkpt lat="45.93015" lon="5.15505">
        <ele>288.0522461</ele>
        <time>2013-05-18T08:57:04Z</time>
      </trkpt>
      <trkpt lat="45.9302" lon="5.15461">
        <ele>291.416748</ele>
        <time>2013-05-18T08:57:13Z</time>
      </trkpt>
      <trkpt lat="45.9302" lon="5.15457">
        <ele>291.416748</ele>
        <time>2013-05-18T08:57:14Z</time>
      </trkpt>
      <trkpt lat="45.93023" lon="5.15444">
        <ele>292.8587646</ele>
        <time>2013-05-18T08:57:17Z</time>
      </trkpt>
      <trkpt lat="45.93025" lon="5.15428">
        <ele>294.7813721</ele>
        <time>2013-05-18T08:57:21Z</time>
      </trkpt>
      <trkpt lat="45.93026" lon="5.15408">
        <ele>296.7041016</ele>
        <time>2013-05-18T08:57:28Z</time>
      </trkpt>
      <trkpt lat="45.93031" lon="5.15396">
        <ele>297.6654053</ele>
        <time>2013-05-18T08:57:34Z</time>
      </trkpt>
      <trkpt lat="45.93042" lon="5.15393">
        <ele>297.6654053</ele>
        <time>2013-05-18T08:57:42Z</time>
      </trkpt>
      <trkpt lat="45.93041" lon="5.15392">
        <ele>297.1846924</ele>
        <time>2013-05-18T08:57:51Z</time>
      </trkpt>
      <trkpt lat="45.93045" lon="5.15386">
        <ele>297.1846924</ele>
        <time>2013-05-18T08:57:54Z</time>
      </trkpt>
      <trkpt lat="45.93062" lon="5.15377">
        <ele>297.6654053</ele>
        <time>2013-05-18T08:58:01Z</time>
      </trkpt>
      <trkpt lat="45.93093" lon="5.15372">
        <ele>297.1846924</ele>
        <time>2013-05-18T08:58:10Z</time>
      </trkpt>
      <trkpt lat="45.93143" lon="5.15361">
        <ele>298.626709</ele>
        <time>2013-05-18T08:58:22Z</time>
      </trkpt>
      <trkpt lat="45.9319" lon="5.15349">
        <ele>301.0299072</ele>
        <time>2013-05-18T08:58:32Z</time>
      </trkpt>
      <trkpt lat="45.93219" lon="5.15341">
        <ele>303.4332275</ele>
        <time>2013-05-18T08:58:38Z</time>
      </trkpt>
      <trkpt lat="45.93256" lon="5.15332">
        <ele>306.3172607</ele>
        <time>2013-05-18T08:58:46Z</time>
      </trkpt>
      <trkpt lat="45.93292" lon="5.15325">
        <ele>309.2011719</ele>
        <time>2013-05-18T08:58:54Z</time>
      </trkpt>
      <trkpt lat="45.93323" lon="5.15295">
        <ele>311.1237793</ele>
        <time>2013-05-18T08:59:02Z</time>
      </trkpt>
      <trkpt lat="45.93339" lon="5.15254">
        <ele>311.6044922</ele>
        <time>2013-05-18T08:59:08Z</time>
      </trkpt>
      <trkpt lat="45.93355" lon="5.15226">
        <ele>312.0852051</ele>
        <time>2013-05-18T08:59:13Z</time>
      </trkpt>
      <trkpt lat="45.93359" lon="5.15201">
        <ele>312.0852051</ele>
        <time>2013-05-18T08:59:17Z</time>
      </trkpt>
      <trkpt lat="45.93333" lon="5.15148">
        <ele>310.6430664</ele>
        <time>2013-05-18T08:59:24Z</time>
      </trkpt>
      <trkpt lat="45.93298" lon="5.15094">
        <ele>310.6430664</ele>
        <time>2013-05-18T08:59:31Z</time>
      </trkpt>
      <trkpt lat="45.93268" lon="5.15043">
        <ele>310.6430664</ele>
        <time>2013-05-18T08:59:37Z</time>
      </trkpt>
      <trkpt lat="45.93239" lon="5.14948">
        <ele>310.6430664</ele>
        <time>2013-05-18T08:59:46Z</time>
      </trkpt>
      <trkpt lat="45.93211" lon="5.14821">
        <ele>308.2398682</ele>
        <time>2013-05-18T08:59:57Z</time>
      </trkpt>
      <trkpt lat="45.93198" lon="5.1472">
        <ele>307.2785645</ele>
        <time>2013-05-18T09:00:05Z</time>
      </trkpt>
      <trkpt lat="45.93205" lon="5.14627">
        <ele>307.2785645</ele>
        <time>2013-05-18T09:00:12Z</time>
      </trkpt>
      <trkpt lat="45.93228" lon="5.14507">
        <ele>307.2785645</ele>
        <time>2013-05-18T09:00:22Z</time>
      </trkpt>
      <trkpt lat="45.93235" lon="5.14473">
        <ele>306.7978516</ele>
        <time>2013-05-18T09:00:25Z</time>
      </trkpt>
      <trkpt lat="45.93225" lon="5.14391">
        <ele>307.2785645</ele>
        <time>2013-05-18T09:00:32Z</time>
      </trkpt>
      <trkpt lat="45.9321" lon="5.1428">
        <ele>308.2398682</ele>
        <time>2013-05-18T09:00:42Z</time>
      </trkpt>
      <trkpt lat="45.93187" lon="5.14112">
        <ele>307.2785645</ele>
        <time>2013-05-18T09:00:57Z</time>
      </trkpt>
      <trkpt lat="45.93179" lon="5.14013">
        <ele>308.2398682</ele>
        <time>2013-05-18T09:01:06Z</time>
      </trkpt>
      <trkpt lat="45.932" lon="5.13884">
        <ele>308.720459</ele>
        <time>2013-05-18T09:01:18Z</time>
      </trkpt>
      <trkpt lat="45.93213" lon="5.13801">
        <ele>309.2011719</ele>
        <time>2013-05-18T09:01:26Z</time>
      </trkpt>
      <trkpt lat="45.9321" lon="5.13742">
        <ele>309.2011719</ele>
        <time>2013-05-18T09:01:32Z</time>
      </trkpt>
      <trkpt lat="45.93203" lon="5.13675">
        <ele>308.720459</ele>
        <time>2013-05-18T09:01:39Z</time>
      </trkpt>
      <trkpt lat="45.93192" lon="5.13584">
        <ele>308.720459</ele>
        <time>2013-05-18T09:01:49Z</time>
      </trkpt>
      <trkpt lat="45.9318" lon="5.13461">
        <ele>308.2398682</ele>
        <time>2013-05-18T09:02:03Z</time>
      </trkpt>
      <trkpt lat="45.93176" lon="5.13413">
        <ele>307.2785645</ele>
        <time>2013-05-18T09:02:11Z</time>
      </trkpt>
      <trkpt lat="45.93175" lon="5.13403">
        <ele>307.2785645</ele>
        <time>2013-05-18T09:02:15Z</time>
      </trkpt>
      <trkpt lat="45.93158" lon="5.13395">
        <ele>307.7592773</ele>
        <time>2013-05-18T09:02:20Z</time>
      </trkpt>
      <trkpt lat="45.93108" lon="5.1338">
        <ele>308.2398682</ele>
        <time>2013-05-18T09:02:30Z</time>
      </trkpt>
      <trkpt lat="45.93015" lon="5.13354">
        <ele>308.720459</ele>
        <time>2013-05-18T09:02:46Z</time>
      </trkpt>
      <trkpt lat="45.92931" lon="5.13328">
        <ele>310.1624756</ele>
        <time>2013-05-18T09:03:00Z</time>
      </trkpt>
      <trkpt lat="45.92853" lon="5.13303">
        <ele>309.2011719</ele>
        <time>2013-05-18T09:03:12Z</time>
      </trkpt>
      <trkpt lat="45.9279" lon="5.13284">
        <ele>305.8366699</ele>
        <time>2013-05-18T09:03:20Z</time>
      </trkpt>
      <trkpt lat="45.92683" lon="5.13251">
        <ele>303.9139404</ele>
        <time>2013-05-18T09:03:33Z</time>
      </trkpt>
      <trkpt lat="45.92647" lon="5.13239">
        <ele>302.9525146</ele>
        <time>2013-05-18T09:03:38Z</time>
      </trkpt>
      <trkpt lat="45.9264" lon="5.13213">
        <ele>302.4719238</ele>
        <time>2013-05-18T09:03:42Z</time>
      </trkpt>
      <trkpt lat="45.92651" lon="5.13197">
        <ele>301.991333</ele>
        <time>2013-05-18T09:03:45Z</time>
      </trkpt>
      <trkpt lat="45.92728" lon="5.13153">
        <ele>302.4719238</ele>
        <time>2013-05-18T09:03:58Z</time>
      </trkpt>
      <trkpt lat="45.9282" lon="5.13091">
        <ele>301.991333</ele>
        <time>2013-05-18T09:04:12Z</time>
      </trkpt>
      <trkpt lat="45.92918" lon="5.13007">
        <ele>301.991333</ele>
        <time>2013-05-18T09:04:27Z</time>
      </trkpt>
      <trkpt lat="45.93105" lon="5.12856">
        <ele>301.5106201</ele>
        <time>2013-05-18T09:04:55Z</time>
      </trkpt>
      <trkpt lat="45.93127" lon="5.1284">
        <ele>301.0299072</ele>
        <time>2013-05-18T09:04:58Z</time>
      </trkpt>
      <trkpt lat="45.93189" lon="5.12802">
        <ele>300.5493164</ele>
        <time>2013-05-18T09:05:07Z</time>
      </trkpt>
      <trkpt lat="45.93232" lon="5.12778">
        <ele>300.5493164</ele>
        <time>2013-05-18T09:05:14Z</time>
      </trkpt>
      <trkpt lat="45.93267" lon="5.12759">
        <ele>300.5493164</ele>
        <time>2013-05-18T09:05:20Z</time>
      </trkpt>
      <trkpt lat="45.93306" lon="5.12738">
        <ele>301.5106201</ele>
        <time>2013-05-18T09:05:27Z</time>
      </trkpt>
      <trkpt lat="45.93361" lon="5.12711">
        <ele>302.4719238</ele>
        <time>2013-05-18T09:05:37Z</time>
      </trkpt>
      <trkpt lat="45.93422" lon="5.12694">
        <ele>303.9139404</ele>
        <time>2013-05-18T09:05:48Z</time>
      </trkpt>
      <trkpt lat="45.93465" lon="5.12683">
        <ele>305.355957</ele>
        <time>2013-05-18T09:05:56Z</time>
      </trkpt>
      <trkpt lat="45.93494" lon="5.12671">
        <ele>304.8752441</ele>
        <time>2013-05-18T09:06:01Z</time>
      </trkpt>
      <trkpt lat="45.9355" lon="5.12653">
        <ele>303.9139404</ele>
        <time>2013-05-18T09:06:09Z</time>
      </trkpt>
      <trkpt lat="45.93652" lon="5.12604">
        <ele>302.4719238</ele>
        <time>2013-05-18T09:06:23Z</time>
      </trkpt>
      <trkpt lat="45.94003" lon="5.12436">
        <ele>301.991333</ele>
        <time>2013-05-18T09:07:12Z</time>
      </trkpt>
      <trkpt lat="45.9427" lon="5.12313">
        <ele>301.991333</ele>
        <time>2013-05-18T09:07:51Z</time>
      </trkpt>
      <trkpt lat="45.94304" lon="5.12292">
        <ele>301.0299072</ele>
        <time>2013-05-18T09:07:56Z</time>
      </trkpt>
      <trkpt lat="45.94355" lon="5.12216">
        <ele>300.5493164</ele>
        <time>2013-05-18T09:08:06Z</time>
      </trkpt>
      <trkpt lat="45.94375" lon="5.12183">
        <ele>301.0299072</ele>
        <time>2013-05-18T09:08:10Z</time>
      </trkpt>
      <trkpt lat="45.94412" lon="5.1215">
        <ele>301.5106201</ele>
        <time>2013-05-18T09:08:16Z</time>
      </trkpt>
      <trkpt lat="45.94479" lon="5.12111">
        <ele>301.0299072</ele>
        <time>2013-05-18T09:08:26Z</time>
      </trkpt>
      <trkpt lat="45.94559" lon="5.12073">
        <ele>301.0299072</ele>
        <time>2013-05-18T09:08:39Z</time>
      </trkpt>
      <trkpt lat="45.94865" lon="5.11856">
        <ele>299.1072998</ele>
        <time>2013-05-18T09:09:26Z</time>
      </trkpt>
      <trkpt lat="45.94876" lon="5.1184">
        <ele>298.626709</ele>
        <time>2013-05-18T09:09:28Z</time>
      </trkpt>
      <trkpt lat="45.94931" lon="5.11785">
        <ele>299.1072998</ele>
        <time>2013-05-18T09:09:37Z</time>
      </trkpt>
      <trkpt lat="45.95089" lon="5.11669">
        <ele>298.626709</ele>
        <time>2013-05-18T09:10:02Z</time>
      </trkpt>
      <trkpt lat="45.95167" lon="5.11634">
        <ele>299.1072998</ele>
        <time>2013-05-18T09:10:13Z</time>
      </trkpt>
      <trkpt lat="45.95203" lon="5.1162">
        <ele>299.5880127</ele>
        <time>2013-05-18T09:10:18Z</time>
      </trkpt>
      <trkpt lat="45.95248" lon="5.11562">
        <ele>299.5880127</ele>
        <time>2013-05-18T09:10:26Z</time>
      </trkpt>
      <trkpt lat="45.95314" lon="5.1147">
        <ele>299.5880127</ele>
        <time>2013-05-18T09:10:39Z</time>
      </trkpt>
      <trkpt lat="45.95339" lon="5.11456">
        <ele>301.0299072</ele>
        <time>2013-05-18T09:10:43Z</time>
      </trkpt>
      <trkpt lat="45.95372" lon="5.11449">
        <ele>301.991333</ele>
        <time>2013-05-18T09:10:48Z</time>
      </trkpt>
      <trkpt lat="45.95435" lon="5.11436">
        <ele>303.4332275</ele>
        <time>2013-05-18T09:10:58Z</time>
      </trkpt>
      <trkpt lat="45.95525" lon="5.11418">
        <ele>302.9525146</ele>
        <time>2013-05-18T09:11:12Z</time>
      </trkpt>
      <trkpt lat="45.95556" lon="5.11407">
        <ele>302.9525146</ele>
        <time>2013-05-18T09:11:18Z</time>
      </trkpt>
      <trkpt lat="45.95614" lon="5.11348">
        <ele>301.0299072</ele>
        <time>2013-05-18T09:11:27Z</time>
      </trkpt>
      <trkpt lat="45.95692" lon="5.11269">
        <ele>299.1072998</ele>
        <time>2013-05-18T09:11:38Z</time>
      </trkpt>
      <trkpt lat="45.95785" lon="5.11174">
        <ele>296.7041016</ele>
        <time>2013-05-18T09:11:51Z</time>
      </trkpt>
      <trkpt lat="45.95872" lon="5.11084">
        <ele>296.2235107</ele>
        <time>2013-05-18T09:12:04Z</time>
      </trkpt>
      <trkpt lat="45.9597" lon="5.10983">
        <ele>296.2235107</ele>
        <time>2013-05-18T09:12:19Z</time>
      </trkpt>
      <trkpt lat="45.96006" lon="5.10938">
        <ele>296.2235107</ele>
        <time>2013-05-18T09:12:25Z</time>
      </trkpt>
      <trkpt lat="45.96023" lon="5.10915">
        <ele>296.2235107</ele>
        <time>2013-05-18T09:12:29Z</time>
      </trkpt>
      <trkpt lat="45.96057" lon="5.10736">
        <ele>295.7426758</ele>
        <time>2013-05-18T09:12:44Z</time>
      </trkpt>
      <trkpt lat="45.96087" lon="5.10655">
        <ele>296.2235107</ele>
        <time>2013-05-18T09:12:53Z</time>
      </trkpt>
      <trkpt lat="45.96119" lon="5.10595">
        <ele>294.7813721</ele>
        <time>2013-05-18T09:13:00Z</time>
      </trkpt>
      <trkpt lat="45.96192" lon="5.10474">
        <ele>292.8587646</ele>
        <time>2013-05-18T09:13:14Z</time>
      </trkpt>
      <trkpt lat="45.96211" lon="5.10422">
        <ele>291.8974609</ele>
        <time>2013-05-18T09:13:23Z</time>
      </trkpt>
      <trkpt lat="45.96242" lon="5.10348">
        <ele>291.8974609</ele>
        <time>2013-05-18T09:13:29Z</time>
      </trkpt>
      <trkpt lat="45.96108" lon="5.09672">
        <ele>288.532959</ele>
        <time>2013-05-18T09:14:59Z</time>
      </trkpt>
      <trkpt lat="45.96128" lon="5.09646">
        <ele>288.532959</ele>
        <time>2013-05-18T09:15:06Z</time>
      </trkpt>
      <trkpt lat="45.96129" lon="5.09645">
        <ele>288.0522461</ele>
        <time>2013-05-18T09:15:07Z</time>
      </trkpt>
      <trkpt lat="45.96059" lon="5.09586">
        <ele>288.532959</ele>
        <time>2013-05-18T09:15:25Z</time>
      </trkpt>
      <trkpt lat="45.95991" lon="5.09563">
        <ele>289.4941406</ele>
        <time>2013-05-18T09:15:37Z</time>
      </trkpt>
      <trkpt lat="45.95936" lon="5.09532">
        <ele>291.416748</ele>
        <time>2013-05-18T09:15:47Z</time>
      </trkpt>
      <trkpt lat="45.9587" lon="5.09483">
        <ele>292.3781738</ele>
        <time>2013-05-18T09:15:59Z</time>
      </trkpt>
      <trkpt lat="45.95821" lon="5.09442">
        <ele>293.8200684</ele>
        <time>2013-05-18T09:16:08Z</time>
      </trkpt>
      <trkpt lat="45.95755" lon="5.0938">
        <ele>294.7813721</ele>
        <time>2013-05-18T09:16:21Z</time>
      </trkpt>
      <trkpt lat="45.95701" lon="5.0932">
        <ele>295.7426758</ele>
        <time>2013-05-18T09:16:32Z</time>
      </trkpt>
      <trkpt lat="45.95655" lon="5.09264">
        <ele>295.2619629</ele>
        <time>2013-05-18T09:16:41Z</time>
      </trkpt>
      <trkpt lat="45.95606" lon="5.09198">
        <ele>293.8200684</ele>
        <time>2013-05-18T09:16:50Z</time>
      </trkpt>
      <trkpt lat="45.95558" lon="5.09124">
        <ele>293.3393555</ele>
        <time>2013-05-18T09:16:59Z</time>
      </trkpt>
      <trkpt lat="45.95515" lon="5.09051">
        <ele>289.9748535</ele>
        <time>2013-05-18T09:17:07Z</time>
      </trkpt>
      <trkpt lat="45.95509" lon="5.09041">
        <ele>289.9748535</ele>
        <time>2013-05-18T09:17:08Z</time>
      </trkpt>
      <trkpt lat="45.95464" lon="5.08948">
        <ele>291.416748</ele>
        <time>2013-05-18T09:17:17Z</time>
      </trkpt>
      <trkpt lat="45.95402" lon="5.08805">
        <ele>291.416748</ele>
        <time>2013-05-18T09:17:31Z</time>
      </trkpt>
      <trkpt lat="45.95342" lon="5.08664">
        <ele>291.416748</ele>
        <time>2013-05-18T09:17:45Z</time>
      </trkpt>
      <trkpt lat="45.95283" lon="5.08526">
        <ele>290.9361572</ele>
        <time>2013-05-18T09:17:59Z</time>
      </trkpt>
      <trkpt lat="45.95217" lon="5.08371">
        <ele>291.416748</ele>
        <time>2013-05-18T09:18:15Z</time>
      </trkpt>
      <trkpt lat="45.95171" lon="5.08267">
        <ele>291.416748</ele>
        <time>2013-05-18T09:18:26Z</time>
      </trkpt>
      <trkpt lat="45.95166" lon="5.08258">
        <ele>291.416748</ele>
        <time>2013-05-18T09:18:27Z</time>
      </trkpt>
      <trkpt lat="45.9512" lon="5.08211">
        <ele>291.8974609</ele>
        <time>2013-05-18T09:18:34Z</time>
      </trkpt>
      <trkpt lat="45.95075" lon="5.0819">
        <ele>291.8974609</ele>
        <time>2013-05-18T09:18:40Z</time>
      </trkpt>
      <trkpt lat="45.9499" lon="5.08166">
        <ele>291.416748</ele>
        <time>2013-05-18T09:18:51Z</time>
      </trkpt>
      <trkpt lat="45.9489" lon="5.0814">
        <ele>292.3781738</ele>
        <time>2013-05-18T09:19:04Z</time>
      </trkpt>
      <trkpt lat="45.94826" lon="5.08113">
        <ele>294.3007813</ele>
        <time>2013-05-18T09:19:13Z</time>
      </trkpt>
      <trkpt lat="45.94771" lon="5.08074">
        <ele>297.6654053</ele>
        <time>2013-05-18T09:19:22Z</time>
      </trkpt>
      <trkpt lat="45.94697" lon="5.0802">
        <ele>299.1072998</ele>
        <time>2013-05-18T09:19:34Z</time>
      </trkpt>
      <trkpt lat="45.9463" lon="5.07978">
        <ele>295.7426758</ele>
        <time>2013-05-18T09:19:43Z</time>
      </trkpt>
      <trkpt lat="45.94622" lon="5.07972">
        <ele>296.2235107</ele>
        <time>2013-05-18T09:19:44Z</time>
      </trkpt>
      <trkpt lat="45.94541" lon="5.07919">
        <ele>293.3393555</ele>
        <time>2013-05-18T09:19:53Z</time>
      </trkpt>
      <trkpt lat="45.9445" lon="5.07866">
        <ele>293.3393555</ele>
        <time>2013-05-18T09:20:03Z</time>
      </trkpt>
      <trkpt lat="45.94415" lon="5.07854">
        <ele>292.8587646</ele>
        <time>2013-05-18T09:20:07Z</time>
      </trkpt>
      <trkpt lat="45.94382" lon="5.0785">
        <ele>293.8200684</ele>
        <time>2013-05-18T09:20:11Z</time>
      </trkpt>
      <trkpt lat="45.94307" lon="5.07842">
        <ele>295.7426758</ele>
        <time>2013-05-18T09:20:21Z</time>
      </trkpt>
      <trkpt lat="45.94226" lon="5.07831">
        <ele>297.1846924</ele>
        <time>2013-05-18T09:20:32Z</time>
      </trkpt>
      <trkpt lat="45.94198" lon="5.07823">
        <ele>297.6654053</ele>
        <time>2013-05-18T09:20:36Z</time>
      </trkpt>
      <trkpt lat="45.94169" lon="5.07802">
        <ele>296.2235107</ele>
        <time>2013-05-18T09:20:40Z</time>
      </trkpt>
      <trkpt lat="45.94129" lon="5.07752">
        <ele>294.3007813</ele>
        <time>2013-05-18T09:20:46Z</time>
      </trkpt>
      <trkpt lat="45.94072" lon="5.07647">
        <ele>290.9361572</ele>
        <time>2013-05-18T09:20:56Z</time>
      </trkpt>
      <trkpt lat="45.93997" lon="5.0751">
        <ele>292.3781738</ele>
        <time>2013-05-18T09:21:10Z</time>
      </trkpt>
      <trkpt lat="45.93949" lon="5.07421">
        <ele>292.3781738</ele>
        <time>2013-05-18T09:21:20Z</time>
      </trkpt>
      <trkpt lat="45.9387" lon="5.07275">
        <ele>292.8587646</ele>
        <time>2013-05-18T09:21:36Z</time>
      </trkpt>
      <trkpt lat="45.93806" lon="5.07163">
        <ele>292.3781738</ele>
        <time>2013-05-18T09:21:49Z</time>
      </trkpt>
      <trkpt lat="45.93768" lon="5.07126">
        <ele>292.3781738</ele>
        <time>2013-05-18T09:21:55Z</time>
      </trkpt>
      <trkpt lat="45.93694" lon="5.07085">
        <ele>295.2619629</ele>
        <time>2013-05-18T09:22:06Z</time>
      </trkpt>
      <trkpt lat="45.9364" lon="5.07068">
        <ele>297.6654053</ele>
        <time>2013-05-18T09:22:14Z</time>
      </trkpt>
      <trkpt lat="45.93559" lon="5.07061">
        <ele>298.626709</ele>
        <time>2013-05-18T09:22:26Z</time>
      </trkpt>
      <trkpt lat="45.935" lon="5.07061">
        <ele>296.2235107</ele>
        <time>2013-05-18T09:22:33Z</time>
      </trkpt>
      <trkpt lat="45.93462" lon="5.07065">
        <ele>294.3007813</ele>
        <time>2013-05-18T09:22:37Z</time>
      </trkpt>
      <trkpt lat="45.93403" lon="5.07073">
        <ele>290.9361572</ele>
        <time>2013-05-18T09:22:43Z</time>
      </trkpt>
      <trkpt lat="45.93296" lon="5.07092">
        <ele>290.4555664</ele>
        <time>2013-05-18T09:22:54Z</time>
      </trkpt>
      <trkpt lat="45.93178" lon="5.07121">
        <ele>289.4941406</ele>
        <time>2013-05-18T09:23:07Z</time>
      </trkpt>
      <trkpt lat="45.93105" lon="5.07138">
        <ele>291.8974609</ele>
        <time>2013-05-18T09:23:16Z</time>
      </trkpt>
      <trkpt lat="45.93031" lon="5.07155">
        <ele>293.8200684</ele>
        <time>2013-05-18T09:23:27Z</time>
      </trkpt>
      <trkpt lat="45.93008" lon="5.0716">
        <ele>293.8200684</ele>
        <time>2013-05-18T09:23:31Z</time>
      </trkpt>
      <trkpt lat="45.92996" lon="5.07166">
        <ele>293.8200684</ele>
        <time>2013-05-18T09:23:36Z</time>
      </trkpt>
      <trkpt lat="45.9299" lon="5.07262">
        <ele>296.7041016</ele>
        <time>2013-05-18T09:23:59Z</time>
      </trkpt>
      <trkpt lat="45.92962" lon="5.07289">
        <ele>297.1846924</ele>
        <time>2013-05-18T09:24:05Z</time>
      </trkpt>
      <trkpt lat="45.92955" lon="5.07293">
        <ele>296.7041016</ele>
        <time>2013-05-18T09:24:06Z</time>
      </trkpt>
      <trkpt lat="45.92942" lon="5.07307">
        <ele>295.7426758</ele>
        <time>2013-05-18T09:24:08Z</time>
      </trkpt>
      <trkpt lat="45.92909" lon="5.07354">
        <ele>292.8587646</ele>
        <time>2013-05-18T09:24:13Z</time>
      </trkpt>
      <trkpt lat="45.92901" lon="5.07362">
        <ele>292.3781738</ele>
        <time>2013-05-18T09:24:14Z</time>
      </trkpt>
      <trkpt lat="45.92884" lon="5.07376">
        <ele>291.416748</ele>
        <time>2013-05-18T09:24:16Z</time>
      </trkpt>
      <trkpt lat="45.92806" lon="5.07384">
        <ele>287.0908203</ele>
        <time>2013-05-18T09:24:24Z</time>
      </trkpt>
      <trkpt lat="45.92716" lon="5.07391">
        <ele>289.0135498</ele>
        <time>2013-05-18T09:24:34Z</time>
      </trkpt>
      <trkpt lat="45.92603" lon="5.07403">
        <ele>289.0135498</ele>
        <time>2013-05-18T09:24:47Z</time>
      </trkpt>
      <trkpt lat="45.92587" lon="5.07404">
        <ele>289.4941406</ele>
        <time>2013-05-18T09:24:49Z</time>
      </trkpt>
      <trkpt lat="45.92561" lon="5.07381">
        <ele>289.0135498</ele>
        <time>2013-05-18T09:24:53Z</time>
      </trkpt>
      <trkpt lat="45.92558" lon="5.07371">
        <ele>289.4941406</ele>
        <time>2013-05-18T09:24:54Z</time>
      </trkpt>
      <trkpt lat="45.92521" lon="5.07237">
        <ele>288.532959</ele>
        <time>2013-05-18T09:25:07Z</time>
      </trkpt>
      <trkpt lat="45.92492" lon="5.07134">
        <ele>288.532959</ele>
        <time>2013-05-18T09:25:17Z</time>
      </trkpt>
      <trkpt lat="45.92469" lon="5.07052">
        <ele>289.0135498</ele>
        <time>2013-05-18T09:25:25Z</time>
      </trkpt>
      <trkpt lat="45.92454" lon="5.07003">
        <ele>289.9748535</ele>
        <time>2013-05-18T09:25:30Z</time>
      </trkpt>
      <trkpt lat="45.92424" lon="5.0697">
        <ele>289.4941406</ele>
        <time>2013-05-18T09:25:35Z</time>
      </trkpt>
      <trkpt lat="45.92416" lon="5.06968">
        <ele>289.0135498</ele>
        <time>2013-05-18T09:25:36Z</time>
      </trkpt>
      <trkpt lat="45.92362" lon="5.0695">
        <ele>289.4941406</ele>
        <time>2013-05-18T09:25:43Z</time>
      </trkpt>
      <trkpt lat="45.92316" lon="5.06939">
        <ele>288.0522461</ele>
        <time>2013-05-18T09:25:49Z</time>
      </trkpt>
      <trkpt lat="45.92309" lon="5.06895">
        <ele>286.6102295</ele>
        <time>2013-05-18T09:25:54Z</time>
      </trkpt>
      <trkpt lat="45.92312" lon="5.06788">
        <ele>285.6488037</ele>
        <time>2013-05-18T09:26:03Z</time>
      </trkpt>
      <trkpt lat="45.92314" lon="5.06739">
        <ele>285.1682129</ele>
        <time>2013-05-18T09:26:07Z</time>
      </trkpt>
      <trkpt lat="45.92327" lon="5.06708">
        <ele>284.6876221</ele>
        <time>2013-05-18T09:26:10Z</time>
      </trkpt>
      <trkpt lat="45.92336" lon="5.06662">
        <ele>284.6876221</ele>
        <time>2013-05-18T09:26:14Z</time>
      </trkpt>
      <trkpt lat="45.92333" lon="5.06545">
        <ele>285.1682129</ele>
        <time>2013-05-18T09:26:24Z</time>
      </trkpt>
      <trkpt lat="45.92325" lon="5.06387">
        <ele>285.6488037</ele>
        <time>2013-05-18T09:26:38Z</time>
      </trkpt>
      <trkpt lat="45.92318" lon="5.06288">
        <ele>287.0908203</ele>
        <time>2013-05-18T09:26:47Z</time>
      </trkpt>
      <trkpt lat="45.9231" lon="5.0618">
        <ele>290.4555664</ele>
        <time>2013-05-18T09:26:58Z</time>
      </trkpt>
      <trkpt lat="45.92307" lon="5.06095">
        <ele>291.416748</ele>
        <time>2013-05-18T09:27:07Z</time>
      </trkpt>
      <trkpt lat="45.92316" lon="5.06025">
        <ele>293.3393555</ele>
        <time>2013-05-18T09:27:15Z</time>
      </trkpt>
      <trkpt lat="45.92317" lon="5.06008">
        <ele>292.8587646</ele>
        <time>2013-05-18T09:27:17Z</time>
      </trkpt>
      <trkpt lat="45.92303" lon="5.05958">
        <ele>294.3007813</ele>
        <time>2013-05-18T09:27:23Z</time>
      </trkpt>
      <trkpt lat="45.92275" lon="5.05923">
        <ele>294.3007813</ele>
        <time>2013-05-18T09:27:29Z</time>
      </trkpt>
      <trkpt lat="45.92244" lon="5.0591">
        <ele>292.3781738</ele>
        <time>2013-05-18T09:27:34Z</time>
      </trkpt>
      <trkpt lat="45.92233" lon="5.05873">
        <ele>291.416748</ele>
        <time>2013-05-18T09:27:38Z</time>
      </trkpt>
      <trkpt lat="45.92269" lon="5.05668">
        <ele>292.8587646</ele>
        <time>2013-05-18T09:27:59Z</time>
      </trkpt>
      <trkpt lat="45.92251" lon="5.05627">
        <ele>291.416748</ele>
        <time>2013-05-18T09:28:06Z</time>
      </trkpt>
      <trkpt lat="45.9221" lon="5.05588">
        <ele>290.9361572</ele>
        <time>2013-05-18T09:28:14Z</time>
      </trkpt>
      <trkpt lat="45.92129" lon="5.05513">
        <ele>289.9748535</ele>
        <time>2013-05-18T09:28:29Z</time>
      </trkpt>
      <trkpt lat="45.921" lon="5.05493">
        <ele>290.4555664</ele>
        <time>2013-05-18T09:28:34Z</time>
      </trkpt>
      <trkpt lat="45.9199" lon="5.05454">
        <ele>291.416748</ele>
        <time>2013-05-18T09:28:51Z</time>
      </trkpt>
      <trkpt lat="45.91894" lon="5.05408">
        <ele>289.4941406</ele>
        <time>2013-05-18T09:29:07Z</time>
      </trkpt>
      <trkpt lat="45.91819" lon="5.05413">
        <ele>289.4941406</ele>
        <time>2013-05-18T09:29:16Z</time>
      </trkpt>
      <trkpt lat="45.9178" lon="5.05394">
        <ele>289.9748535</ele>
        <time>2013-05-18T09:29:21Z</time>
      </trkpt>
      <trkpt lat="45.91774" lon="5.05387">
        <ele>290.4555664</ele>
        <time>2013-05-18T09:29:22Z</time>
      </trkpt>
      <trkpt lat="45.91731" lon="5.05331">
        <ele>291.8974609</ele>
        <time>2013-05-18T09:29:30Z</time>
      </trkpt>
      <trkpt lat="45.91684" lon="5.0525">
        <ele>292.8587646</ele>
        <time>2013-05-18T09:29:41Z</time>
      </trkpt>
      <trkpt lat="45.91648" lon="5.052">
        <ele>292.3781738</ele>
        <time>2013-05-18T09:29:48Z</time>
      </trkpt>
      <trkpt lat="45.91601" lon="5.05129">
        <ele>291.416748</ele>
        <time>2013-05-18T09:29:57Z</time>
      </trkpt>
      <trkpt lat="45.91547" lon="5.05043">
        <ele>292.3781738</ele>
        <time>2013-05-18T09:30:08Z</time>
      </trkpt>
      <trkpt lat="45.91506" lon="5.04975">
        <ele>292.8587646</ele>
        <time>2013-05-18T09:30:17Z</time>
      </trkpt>
      <trkpt lat="45.91406" lon="5.04813">
        <ele>295.7426758</ele>
        <time>2013-05-18T09:30:40Z</time>
      </trkpt>
      <trkpt lat="45.91365" lon="5.04736">
        <ele>295.2619629</ele>
        <time>2013-05-18T09:30:50Z</time>
      </trkpt>
      <trkpt lat="45.9135" lon="5.04679">
        <ele>295.2619629</ele>
        <time>2013-05-18T09:30:56Z</time>
      </trkpt>
      <trkpt lat="45.9133" lon="5.04572">
        <ele>295.2619629</ele>
        <time>2013-05-18T09:31:07Z</time>
      </trkpt>
      <trkpt lat="45.91311" lon="5.04447">
        <ele>296.2235107</ele>
        <time>2013-05-18T09:31:20Z</time>
      </trkpt>
      <trkpt lat="45.91295" lon="5.04356">
        <ele>297.1846924</ele>
        <time>2013-05-18T09:31:30Z</time>
      </trkpt>
      <trkpt lat="45.91291" lon="5.04331">
        <ele>295.7426758</ele>
        <time>2013-05-18T09:31:33Z</time>
      </trkpt>
      <trkpt lat="45.91284" lon="5.0427">
        <ele>296.2235107</ele>
        <time>2013-05-18T09:31:41Z</time>
      </trkpt>
      <trkpt lat="45.91275" lon="5.04202">
        <ele>295.7426758</ele>
        <time>2013-05-18T09:31:52Z</time>
      </trkpt>
      <trkpt lat="45.91268" lon="5.04143">
        <ele>294.7813721</ele>
        <time>2013-05-18T09:32:01Z</time>
      </trkpt>
      <trkpt lat="45.91259" lon="5.04057">
        <ele>292.3781738</ele>
        <time>2013-05-18T09:32:12Z</time>
      </trkpt>
      <trkpt lat="45.91259" lon="5.04033">
        <ele>292.3781738</ele>
        <time>2013-05-18T09:32:15Z</time>
      </trkpt>
      <trkpt lat="45.91271" lon="5.03955">
        <ele>292.8587646</ele>
        <time>2013-05-18T09:32:27Z</time>
      </trkpt>
      <trkpt lat="45.91279" lon="5.03905">
        <ele>291.8974609</ele>
        <time>2013-05-18T09:32:37Z</time>
      </trkpt>
      <trkpt lat="45.9128" lon="5.03899">
        <ele>291.8974609</ele>
        <time>2013-05-18T09:32:38Z</time>
      </trkpt>
      <trkpt lat="45.91287" lon="5.0386">
        <ele>290.9361572</ele>
        <time>2013-05-18T09:32:45Z</time>
      </trkpt>
      <trkpt lat="45.91296" lon="5.03801">
        <ele>289.9748535</ele>
        <time>2013-05-18T09:32:53Z</time>
      </trkpt>
      <trkpt lat="45.91304" lon="5.03734">
        <ele>288.532959</ele>
        <time>2013-05-18T09:33:00Z</time>
      </trkpt>
      <trkpt lat="45.91317" lon="5.03638">
        <ele>284.2069092</ele>
        <time>2013-05-18T09:33:09Z</time>
      </trkpt>
      <trkpt lat="45.91319" lon="5.03628">
        <ele>283.2456055</ele>
        <time>2013-05-18T09:33:10Z</time>
      </trkpt>
      <trkpt lat="45.91339" lon="5.03588">
        <ele>281.322998</ele>
        <time>2013-05-18T09:33:14Z</time>
      </trkpt>
      <trkpt lat="45.91355" lon="5.03557">
        <ele>279.8808594</ele>
        <time>2013-05-18T09:33:17Z</time>
      </trkpt>
      <trkpt lat="45.91368" lon="5.0354">
        <ele>279.4002686</ele>
        <time>2013-05-18T09:33:19Z</time>
      </trkpt>
      <trkpt lat="45.91373" lon="5.03508">
        <ele>277.4776611</ele>
        <time>2013-05-18T09:33:23Z</time>
      </trkpt>
      <trkpt lat="45.9134" lon="5.03391">
        <ele>272.1904297</ele>
        <time>2013-05-18T09:33:35Z</time>
      </trkpt>
      <trkpt lat="45.91297" lon="5.03323">
        <ele>271.229126</ele>
        <time>2013-05-18T09:33:48Z</time>
      </trkpt>
      <trkpt lat="45.91284" lon="5.03316">
        <ele>271.229126</ele>
        <time>2013-05-18T09:33:51Z</time>
      </trkpt>
      <trkpt lat="45.91274" lon="5.03314">
        <ele>271.229126</ele>
        <time>2013-05-18T09:33:53Z</time>
      </trkpt>
      <trkpt lat="45.91244" lon="5.03316">
        <ele>270.2677002</ele>
        <time>2013-05-18T09:33:59Z</time>
      </trkpt>
      <trkpt lat="45.91117" lon="5.03472">
        <ele>267.3839111</ele>
        <time>2013-05-18T09:34:07Z</time>
      </trkpt>
      <trkpt lat="45.91102" lon="5.03475">
        <ele>268.8258057</ele>
        <time>2013-05-18T09:34:10Z</time>
      </trkpt>
      <trkpt lat="45.91106" lon="5.0348">
        <ele>268.8258057</ele>
        <time>2013-05-18T09:34:11Z</time>
      </trkpt>
      <trkpt lat="45.911" lon="5.0347">
        <ele>268.8258057</ele>
        <time>2013-05-18T09:34:14Z</time>
      </trkpt>
      <trkpt lat="45.91097" lon="5.03213">
        <ele>270.7484131</ele>
        <time>2013-05-18T09:34:52Z</time>
      </trkpt>
      <trkpt lat="45.91089" lon="5.03141">
        <ele>269.7871094</ele>
        <time>2013-05-18T09:35:01Z</time>
      </trkpt>
      <trkpt lat="45.90921" lon="5.02806">
        <ele>270.2677002</ele>
        <time>2013-05-18T09:35:57Z</time>
      </trkpt>
      <trkpt lat="45.90916" lon="5.02669">
        <ele>269.3065186</ele>
        <time>2013-05-18T09:36:12Z</time>
      </trkpt>
      <trkpt lat="45.90927" lon="5.02517">
        <ele>274.1130371</ele>
        <time>2013-05-18T09:36:30Z</time>
      </trkpt>
      <trkpt lat="45.90958" lon="5.02452">
        <ele>273.6324463</ele>
        <time>2013-05-18T09:36:38Z</time>
      </trkpt>
      <trkpt lat="45.90976" lon="5.02356">
        <ele>269.3065186</ele>
        <time>2013-05-18T09:36:49Z</time>
      </trkpt>
      <trkpt lat="45.90983" lon="5.02232">
        <ele>271.229126</ele>
        <time>2013-05-18T09:37:03Z</time>
      </trkpt>
      <trkpt lat="45.90972" lon="5.02162">
        <ele>272.1904297</ele>
        <time>2013-05-18T09:37:11Z</time>
      </trkpt>
      <trkpt lat="45.90966" lon="5.02129">
        <ele>273.1518555</ele>
        <time>2013-05-18T09:37:15Z</time>
      </trkpt>
      <trkpt lat="45.90949" lon="5.02026">
        <ele>276.0356445</ele>
        <time>2013-05-18T09:37:28Z</time>
      </trkpt>
      <trkpt lat="45.90931" lon="5.01916">
        <ele>277.4776611</ele>
        <time>2013-05-18T09:37:42Z</time>
      </trkpt>
      <trkpt lat="45.90919" lon="5.01849">
        <ele>279.8808594</ele>
        <time>2013-05-18T09:37:51Z</time>
      </trkpt>
      <trkpt lat="45.90908" lon="5.01783">
        <ele>280.8424072</ele>
        <time>2013-05-18T09:38:01Z</time>
      </trkpt>
      <trkpt lat="45.90899" lon="5.0173">
        <ele>283.2456055</ele>
        <time>2013-05-18T09:38:09Z</time>
      </trkpt>
      <trkpt lat="45.90886" lon="5.017">
        <ele>284.6876221</ele>
        <time>2013-05-18T09:38:16Z</time>
      </trkpt>
      <trkpt lat="45.9085" lon="5.01684">
        <ele>285.1682129</ele>
        <time>2013-05-18T09:38:23Z</time>
      </trkpt>
      <trkpt lat="45.90781" lon="5.01658">
        <ele>284.2069092</ele>
        <time>2013-05-18T09:38:35Z</time>
      </trkpt>
      <trkpt lat="45.90725" lon="5.01639">
        <ele>284.2069092</ele>
        <time>2013-05-18T09:38:44Z</time>
      </trkpt>
      <trkpt lat="45.90631" lon="5.01606">
        <ele>286.1295166</ele>
        <time>2013-05-18T09:38:59Z</time>
      </trkpt>
      <trkpt lat="45.90549" lon="5.01576">
        <ele>288.0522461</ele>
        <time>2013-05-18T09:39:12Z</time>
      </trkpt>
      <trkpt lat="45.90498" lon="5.01572">
        <ele>288.532959</ele>
        <time>2013-05-18T09:39:20Z</time>
      </trkpt>
      <trkpt lat="45.90479" lon="5.01577">
        <ele>288.532959</ele>
        <time>2013-05-18T09:39:23Z</time>
      </trkpt>
      <trkpt lat="45.90466" lon="5.01518">
        <ele>287.0908203</ele>
        <time>2013-05-18T09:39:32Z</time>
      </trkpt>
      <trkpt lat="45.90458" lon="5.01399">
        <ele>286.6102295</ele>
        <time>2013-05-18T09:39:43Z</time>
      </trkpt>
      <trkpt lat="45.90445" lon="5.01228">
        <ele>286.1295166</ele>
        <time>2013-05-18T09:39:58Z</time>
      </trkpt>
      <trkpt lat="45.90432" lon="5.01059">
        <ele>285.6488037</ele>
        <time>2013-05-18T09:40:13Z</time>
      </trkpt>
      <trkpt lat="45.9042" lon="5.00913">
        <ele>286.6102295</ele>
        <time>2013-05-18T09:40:26Z</time>
      </trkpt>
      <trkpt lat="45.90404" lon="5.00735">
        <ele>286.1295166</ele>
        <time>2013-05-18T09:40:42Z</time>
      </trkpt>
      <trkpt lat="45.90394" lon="5.00635">
        <ele>284.6876221</ele>
        <time>2013-05-18T09:40:51Z</time>
      </trkpt>
      <trkpt lat="45.90388" lon="5.00566">
        <ele>285.1682129</ele>
        <time>2013-05-18T09:40:57Z</time>
      </trkpt>
      <trkpt lat="45.90372" lon="5.00525">
        <ele>284.2069092</ele>
        <time>2013-05-18T09:41:01Z</time>
      </trkpt>
      <trkpt lat="45.9033" lon="5.00467">
        <ele>283.7261963</ele>
        <time>2013-05-18T09:41:08Z</time>
      </trkpt>
      <trkpt lat="45.90259" lon="5.00375">
        <ele>281.8035889</ele>
        <time>2013-05-18T09:41:19Z</time>
      </trkpt>
      <trkpt lat="45.90239" lon="5.0035">
        <ele>281.8035889</ele>
        <time>2013-05-18T09:41:22Z</time>
      </trkpt>
      <trkpt lat="45.90227" lon="5.00314">
        <ele>280.3616943</ele>
        <time>2013-05-18T09:41:25Z</time>
      </trkpt>
      <trkpt lat="45.90228" lon="5.0024">
        <ele>281.8035889</ele>
        <time>2013-05-18T09:41:31Z</time>
      </trkpt>
      <trkpt lat="45.90238" lon="5.00147">
        <ele>282.2843018</ele>
        <time>2013-05-18T09:41:40Z</time>
      </trkpt>
      <trkpt lat="45.90248" lon="5.00053">
        <ele>284.6876221</ele>
        <time>2013-05-18T09:41:50Z</time>
      </trkpt>
      <trkpt lat="45.90258" lon="4.99949">
        <ele>287.5714111</ele>
        <time>2013-05-18T09:42:02Z</time>
      </trkpt>
      <trkpt lat="45.90262" lon="4.99905">
        <ele>288.0522461</ele>
        <time>2013-05-18T09:42:07Z</time>
      </trkpt>
      <trkpt lat="45.90253" lon="4.99871">
        <ele>289.0135498</ele>
        <time>2013-05-18T09:42:11Z</time>
      </trkpt>
      <trkpt lat="45.90241" lon="4.99832">
        <ele>289.9748535</ele>
        <time>2013-05-18T09:42:16Z</time>
      </trkpt>
      <trkpt lat="45.90228" lon="4.99699">
        <ele>291.8974609</ele>
        <time>2013-05-18T09:42:31Z</time>
      </trkpt>
      <trkpt lat="45.90216" lon="4.99621">
        <ele>292.8587646</ele>
        <time>2013-05-18T09:42:40Z</time>
      </trkpt>
      <trkpt lat="45.90214" lon="4.9959">
        <ele>291.8974609</ele>
        <time>2013-05-18T09:42:43Z</time>
      </trkpt>
      <trkpt lat="45.90225" lon="4.99494">
        <ele>290.4555664</ele>
        <time>2013-05-18T09:42:52Z</time>
      </trkpt>
      <trkpt lat="45.90235" lon="4.99438">
        <ele>288.532959</ele>
        <time>2013-05-18T09:42:57Z</time>
      </trkpt>
      <trkpt lat="45.90236" lon="4.99427">
        <ele>289.4941406</ele>
        <time>2013-05-18T09:42:58Z</time>
      </trkpt>
      <trkpt lat="45.90239" lon="4.99379">
        <ele>287.0908203</ele>
        <time>2013-05-18T09:43:02Z</time>
      </trkpt>
      <trkpt lat="45.90242" lon="4.99231">
        <ele>284.6876221</ele>
        <time>2013-05-18T09:43:14Z</time>
      </trkpt>
      <trkpt lat="45.90235" lon="4.99111">
        <ele>283.7261963</ele>
        <time>2013-05-18T09:43:24Z</time>
      </trkpt>
      <trkpt lat="45.90229" lon="4.98962">
        <ele>283.2456055</ele>
        <time>2013-05-18T09:43:37Z</time>
      </trkpt>
      <trkpt lat="45.90219" lon="4.9883">
        <ele>284.6876221</ele>
        <time>2013-05-18T09:43:49Z</time>
      </trkpt>
      <trkpt lat="45.9019" lon="4.9873">
        <ele>285.6488037</ele>
        <time>2013-05-18T09:43:59Z</time>
      </trkpt>
      <trkpt lat="45.90153" lon="4.98627">
        <ele>287.0908203</ele>
        <time>2013-05-18T09:44:10Z</time>
      </trkpt>
      <trkpt lat="45.90122" lon="4.98541">
        <ele>287.0908203</ele>
        <time>2013-05-18T09:44:19Z</time>
      </trkpt>
      <trkpt lat="45.90078" lon="4.98416">
        <ele>288.0522461</ele>
        <time>2013-05-18T09:44:32Z</time>
      </trkpt>
      <trkpt lat="45.90066" lon="4.9835">
        <ele>287.5714111</ele>
        <time>2013-05-18T09:44:38Z</time>
      </trkpt>
      <trkpt lat="45.9006" lon="4.98246">
        <ele>284.6876221</ele>
        <time>2013-05-18T09:44:47Z</time>
      </trkpt>
      <trkpt lat="45.90048" lon="4.98069">
        <ele>283.2456055</ele>
        <time>2013-05-18T09:45:02Z</time>
      </trkpt>
      <trkpt lat="45.9004" lon="4.97929">
        <ele>282.2843018</ele>
        <time>2013-05-18T09:45:14Z</time>
      </trkpt>
      <trkpt lat="45.90026" lon="4.97886">
        <ele>281.322998</ele>
        <time>2013-05-18T09:45:18Z</time>
      </trkpt>
      <trkpt lat="45.89977" lon="4.97904">
        <ele>281.8035889</ele>
        <time>2013-05-18T09:45:26Z</time>
      </trkpt>
      <trkpt lat="45.89954" lon="4.97911">
        <ele>281.8035889</ele>
        <time>2013-05-18T09:45:29Z</time>
      </trkpt>
      <trkpt lat="45.89887" lon="4.97894">
        <ele>281.8035889</ele>
        <time>2013-05-18T09:45:37Z</time>
      </trkpt>
      <trkpt lat="45.89817" lon="4.97854">
        <ele>281.8035889</ele>
        <time>2013-05-18T09:45:46Z</time>
      </trkpt>
      <trkpt lat="45.89728" lon="4.97792">
        <ele>282.2843018</ele>
        <time>2013-05-18T09:45:58Z</time>
      </trkpt>
      <trkpt lat="45.89685" lon="4.97761">
        <ele>282.7650146</ele>
        <time>2013-05-18T09:46:04Z</time>
      </trkpt>
      <trkpt lat="45.89672" lon="4.97747">
        <ele>282.7650146</ele>
        <time>2013-05-18T09:46:06Z</time>
      </trkpt>
      <trkpt lat="45.89668" lon="4.97708">
        <ele>282.7650146</ele>
        <time>2013-05-18T09:46:10Z</time>
      </trkpt>
      <trkpt lat="45.89697" lon="4.97545">
        <ele>286.6102295</ele>
        <time>2013-05-18T09:46:26Z</time>
      </trkpt>
      <trkpt lat="45.89701" lon="4.97527">
        <ele>288.0522461</ele>
        <time>2013-05-18T09:46:28Z</time>
      </trkpt>
      <trkpt lat="45.89712" lon="4.97451">
        <ele>290.9361572</ele>
        <time>2013-05-18T09:46:37Z</time>
      </trkpt>
      <trkpt lat="45.89727" lon="4.97386">
        <ele>291.8974609</ele>
        <time>2013-05-18T09:46:45Z</time>
      </trkpt>
      <trkpt lat="45.89776" lon="4.97267">
        <ele>291.416748</ele>
        <time>2013-05-18T09:47:00Z</time>
      </trkpt>
      <trkpt lat="45.89793" lon="4.97235">
        <ele>290.4555664</ele>
        <time>2013-05-18T09:47:04Z</time>
      </trkpt>
      <trkpt lat="45.89792" lon="4.97196">
        <ele>289.0135498</ele>
        <time>2013-05-18T09:47:08Z</time>
      </trkpt>
      <trkpt lat="45.89753" lon="4.97125">
        <ele>286.6102295</ele>
        <time>2013-05-18T09:47:17Z</time>
      </trkpt>
      <trkpt lat="45.8971" lon="4.97044">
        <ele>287.0908203</ele>
        <time>2013-05-18T09:47:30Z</time>
      </trkpt>
      <trkpt lat="45.89688" lon="4.97003">
        <ele>287.0908203</ele>
        <time>2013-05-18T09:47:39Z</time>
      </trkpt>
      <trkpt lat="45.89574" lon="4.96805">
        <ele>288.0522461</ele>
        <time>2013-05-18T09:48:21Z</time>
      </trkpt>
      <trkpt lat="45.8956" lon="4.9678">
        <ele>288.532959</ele>
        <time>2013-05-18T09:48:27Z</time>
      </trkpt>
      <trkpt lat="45.89573" lon="4.9675">
        <ele>289.9748535</ele>
        <time>2013-05-18T09:48:33Z</time>
      </trkpt>
      <trkpt lat="45.896" lon="4.96684">
        <ele>289.9748535</ele>
        <time>2013-05-18T09:48:44Z</time>
      </trkpt>
      <trkpt lat="45.89614" lon="4.96643">
        <ele>289.4941406</ele>
        <time>2013-05-18T09:48:50Z</time>
      </trkpt>
      <trkpt lat="45.89611" lon="4.96588">
        <ele>288.532959</ele>
        <time>2013-05-18T09:48:58Z</time>
      </trkpt>
      <trkpt lat="45.89604" lon="4.96542">
        <ele>288.0522461</ele>
        <time>2013-05-18T09:49:04Z</time>
      </trkpt>
      <trkpt lat="45.89574" lon="4.96425">
        <ele>285.6488037</ele>
        <time>2013-05-18T09:49:18Z</time>
      </trkpt>
      <trkpt lat="45.89539" lon="4.96319">
        <ele>285.6488037</ele>
        <time>2013-05-18T09:49:30Z</time>
      </trkpt>
      <trkpt lat="45.89512" lon="4.96247">
        <ele>286.1295166</ele>
        <time>2013-05-18T09:49:39Z</time>
      </trkpt>
      <trkpt lat="45.89493" lon="4.96187">
        <ele>284.6876221</ele>
        <time>2013-05-18T09:49:46Z</time>
      </trkpt>
      <trkpt lat="45.89481" lon="4.96123">
        <ele>282.7650146</ele>
        <time>2013-05-18T09:49:52Z</time>
      </trkpt>
      <trkpt lat="45.89481" lon="4.96042">
        <ele>282.2843018</ele>
        <time>2013-05-18T09:49:59Z</time>
      </trkpt>
      <trkpt lat="45.89477" lon="4.95949">
        <ele>281.322998</ele>
        <time>2013-05-18T09:50:07Z</time>
      </trkpt>
      <trkpt lat="45.89465" lon="4.95858">
        <ele>280.3616943</ele>
        <time>2013-05-18T09:50:15Z</time>
      </trkpt>
      <trkpt lat="45.89434" lon="4.95719">
        <ele>281.8035889</ele>
        <time>2013-05-18T09:50:28Z</time>
      </trkpt>
      <trkpt lat="45.89406" lon="4.95591">
        <ele>281.8035889</ele>
        <time>2013-05-18T09:50:40Z</time>
      </trkpt>
      <trkpt lat="45.89383" lon="4.95484">
        <ele>278.4389648</ele>
        <time>2013-05-18T09:50:50Z</time>
      </trkpt>
      <trkpt lat="45.89334" lon="4.95245">
        <ele>277.4776611</ele>
        <time>2013-05-18T09:51:11Z</time>
      </trkpt>
      <trkpt lat="45.89314" lon="4.95156">
        <ele>277.958252</ele>
        <time>2013-05-18T09:51:19Z</time>
      </trkpt>
      <trkpt lat="45.89319" lon="4.95101">
        <ele>277.958252</ele>
        <time>2013-05-18T09:51:24Z</time>
      </trkpt>
      <trkpt lat="45.89354" lon="4.94975">
        <ele>277.958252</ele>
        <time>2013-05-18T09:51:36Z</time>
      </trkpt>
      <trkpt lat="45.89389" lon="4.94857">
        <ele>278.4389648</ele>
        <time>2013-05-18T09:51:48Z</time>
      </trkpt>
      <trkpt lat="45.89429" lon="4.94716">
        <ele>278.4389648</ele>
        <time>2013-05-18T09:52:02Z</time>
      </trkpt>
      <trkpt lat="45.89461" lon="4.94592">
        <ele>279.8808594</ele>
        <time>2013-05-18T09:52:14Z</time>
      </trkpt>
      <trkpt lat="45.89475" lon="4.94475">
        <ele>278.4389648</ele>
        <time>2013-05-18T09:52:25Z</time>
      </trkpt>
      <trkpt lat="45.89487" lon="4.94364">
        <ele>278.9196777</ele>
        <time>2013-05-18T09:52:35Z</time>
      </trkpt>
      <trkpt lat="45.89495" lon="4.94252">
        <ele>278.4389648</ele>
        <time>2013-05-18T09:52:45Z</time>
      </trkpt>
      <trkpt lat="45.89509" lon="4.94084">
        <ele>278.9196777</ele>
        <time>2013-05-18T09:53:00Z</time>
      </trkpt>
      <trkpt lat="45.89516" lon="4.93951">
        <ele>278.9196777</ele>
        <time>2013-05-18T09:53:12Z</time>
      </trkpt>
      <trkpt lat="45.89523" lon="4.93855">
        <ele>278.4389648</ele>
        <time>2013-05-18T09:53:21Z</time>
      </trkpt>
      <trkpt lat="45.89535" lon="4.93754">
        <ele>278.4389648</ele>
        <time>2013-05-18T09:53:31Z</time>
      </trkpt>
      <trkpt lat="45.89539" lon="4.93661">
        <ele>278.9196777</ele>
        <time>2013-05-18T09:53:40Z</time>
      </trkpt>
      <trkpt lat="45.89552" lon="4.93452">
        <ele>281.8035889</ele>
        <time>2013-05-18T09:54:01Z</time>
      </trkpt>
      <trkpt lat="45.89553" lon="4.93434">
        <ele>282.7650146</ele>
        <time>2013-05-18T09:54:03Z</time>
      </trkpt>
      <trkpt lat="45.89554" lon="4.93426">
        <ele>282.2843018</ele>
        <time>2013-05-18T09:54:04Z</time>
      </trkpt>
      <trkpt lat="45.89532" lon="4.93341">
        <ele>284.6876221</ele>
        <time>2013-05-18T09:54:16Z</time>
      </trkpt>
      <trkpt lat="45.89528" lon="4.93328">
        <ele>284.6876221</ele>
        <time>2013-05-18T09:54:18Z</time>
      </trkpt>
      <trkpt lat="45.89525" lon="4.93304">
        <ele>285.1682129</ele>
        <time>2013-05-18T09:54:22Z</time>
      </trkpt>
      <trkpt lat="45.89528" lon="4.93281">
        <ele>285.6488037</ele>
        <time>2013-05-18T09:54:26Z</time>
      </trkpt>
      <trkpt lat="45.89441" lon="4.93083">
        <ele>294.7813721</ele>
        <time>2013-05-18T09:55:35Z</time>
      </trkpt>
      <trkpt lat="45.8929" lon="4.92997">
        <ele>292.8587646</ele>
        <time>2013-05-18T09:55:59Z</time>
      </trkpt>
      <trkpt lat="45.89137" lon="4.92791">
        <ele>289.0135498</ele>
        <time>2013-05-18T09:56:22Z</time>
      </trkpt>
      <trkpt lat="45.88856" lon="4.92408">
        <ele>290.9361572</ele>
        <time>2013-05-18T09:57:05Z</time>
      </trkpt>
      <trkpt lat="45.88794" lon="4.9232">
        <ele>291.416748</ele>
        <time>2013-05-18T09:57:16Z</time>
      </trkpt>
      <trkpt lat="45.88719" lon="4.92208">
        <ele>291.8974609</ele>
        <time>2013-05-18T09:57:30Z</time>
      </trkpt>
      <trkpt lat="45.88643" lon="4.92096">
        <ele>291.416748</ele>
        <time>2013-05-18T09:57:44Z</time>
      </trkpt>
      <trkpt lat="45.88618" lon="4.92048">
        <ele>291.8974609</ele>
        <time>2013-05-18T09:57:49Z</time>
      </trkpt>
      <trkpt lat="45.88578" lon="4.91908">
        <ele>290.9361572</ele>
        <time>2013-05-18T09:58:02Z</time>
      </trkpt>
      <trkpt lat="45.88529" lon="4.91733">
        <ele>289.9748535</ele>
        <time>2013-05-18T09:58:17Z</time>
      </trkpt>
      <trkpt lat="45.88479" lon="4.91562">
        <ele>289.0135498</ele>
        <time>2013-05-18T09:58:32Z</time>
      </trkpt>
      <trkpt lat="45.88433" lon="4.91407">
        <ele>287.5714111</ele>
        <time>2013-05-18T09:58:46Z</time>
      </trkpt>
      <trkpt lat="45.88389" lon="4.91261">
        <ele>288.0522461</ele>
        <time>2013-05-18T09:59:00Z</time>
      </trkpt>
      <trkpt lat="45.88353" lon="4.91164">
        <ele>288.0522461</ele>
        <time>2013-05-18T09:59:10Z</time>
      </trkpt>
      <trkpt lat="45.88311" lon="4.91097">
        <ele>287.5714111</ele>
        <time>2013-05-18T09:59:18Z</time>
      </trkpt>
      <trkpt lat="45.88293" lon="4.91074">
        <ele>287.5714111</ele>
        <time>2013-05-18T09:59:21Z</time>
      </trkpt>
      <trkpt lat="45.88232" lon="4.91022">
        <ele>287.0908203</ele>
        <time>2013-05-18T09:59:30Z</time>
      </trkpt>
      <trkpt lat="45.88151" lon="4.91002">
        <ele>287.0908203</ele>
        <time>2013-05-18T09:59:40Z</time>
      </trkpt>
      <trkpt lat="45.88072" lon="4.90991">
        <ele>287.0908203</ele>
        <time>2013-05-18T09:59:50Z</time>
      </trkpt>
      <trkpt lat="45.88048" lon="4.90979">
        <ele>287.0908203</ele>
        <time>2013-05-18T09:59:55Z</time>
      </trkpt>
      <trkpt lat="45.88045" lon="4.90975">
        <ele>286.6102295</ele>
        <time>2013-05-18T09:59:56Z</time>
      </trkpt>
      <trkpt lat="45.88023" lon="4.9097">
        <ele>287.0908203</ele>
        <time>2013-05-18T10:00:01Z</time>
      </trkpt>
      <trkpt lat="45.88019" lon="4.90974">
        <ele>286.6102295</ele>
        <time>2013-05-18T10:00:02Z</time>
      </trkpt>
      <trkpt lat="45.88005" lon="4.90988">
        <ele>286.6102295</ele>
        <time>2013-05-18T10:00:05Z</time>
      </trkpt>
      <trkpt lat="45.87951" lon="4.91021">
        <ele>285.6488037</ele>
        <time>2013-05-18T10:00:13Z</time>
      </trkpt>
      <trkpt lat="45.87889" lon="4.91036">
        <ele>285.6488037</ele>
        <time>2013-05-18T10:00:21Z</time>
      </trkpt>
      <trkpt lat="45.87806" lon="4.91055">
        <ele>285.6488037</ele>
        <time>2013-05-18T10:00:32Z</time>
      </trkpt>
      <trkpt lat="45.87541" lon="4.91108">
        <ele>288.0522461</ele>
        <time>2013-05-18T10:01:08Z</time>
      </trkpt>
      <trkpt lat="45.87529" lon="4.9111">
        <ele>289.0135498</ele>
        <time>2013-05-18T10:01:10Z</time>
      </trkpt>
      <trkpt lat="45.87478" lon="4.91118">
        <ele>291.8974609</ele>
        <time>2013-05-18T10:01:18Z</time>
      </trkpt>
      <trkpt lat="45.8741" lon="4.91134">
        <ele>293.3393555</ele>
        <time>2013-05-18T10:01:29Z</time>
      </trkpt>
      <trkpt lat="45.87373" lon="4.91145">
        <ele>292.3781738</ele>
        <time>2013-05-18T10:01:35Z</time>
      </trkpt>
      <trkpt lat="45.87324" lon="4.91165">
        <ele>290.9361572</ele>
        <time>2013-05-18T10:01:45Z</time>
      </trkpt>
      <trkpt lat="45.87318" lon="4.91168">
        <ele>289.9748535</ele>
        <time>2013-05-18T10:01:49Z</time>
      </trkpt>
      <trkpt lat="45.87292" lon="4.91179">
        <ele>289.0135498</ele>
        <time>2013-05-18T10:04:05Z</time>
      </trkpt>
      <trkpt lat="45.87277" lon="4.91186">
        <ele>288.532959</ele>
        <time>2013-05-18T10:04:12Z</time>
      </trkpt>
      <trkpt lat="45.87276" lon="4.91196">
        <ele>288.532959</ele>
        <time>2013-05-18T10:04:14Z</time>
      </trkpt>
      <trkpt lat="45.87259" lon="4.91231">
        <ele>287.0908203</ele>
        <time>2013-05-18T10:04:19Z</time>
      </trkpt>
      <trkpt lat="45.87059" lon="4.91788">
        <ele>286.6102295</ele>
        <time>2013-05-18T10:05:17Z</time>
      </trkpt>
      <trkpt lat="45.87069" lon="4.9189">
        <ele>286.6102295</ele>
        <time>2013-05-18T10:05:26Z</time>
      </trkpt>
      <trkpt lat="45.87081" lon="4.92025">
        <ele>286.1295166</ele>
        <time>2013-05-18T10:05:38Z</time>
      </trkpt>
      <trkpt lat="45.87094" lon="4.92151">
        <ele>286.1295166</ele>
        <time>2013-05-18T10:05:49Z</time>
      </trkpt>
      <trkpt lat="45.87109" lon="4.92315">
        <ele>286.1295166</ele>
        <time>2013-05-18T10:06:03Z</time>
      </trkpt>
      <trkpt lat="45.87124" lon="4.9244">
        <ele>286.1295166</ele>
        <time>2013-05-18T10:06:14Z</time>
      </trkpt>
      <trkpt lat="45.87142" lon="4.92583">
        <ele>286.6102295</ele>
        <time>2013-05-18T10:06:27Z</time>
      </trkpt>
      <trkpt lat="45.87171" lon="4.92868">
        <ele>286.6102295</ele>
        <time>2013-05-18T10:06:52Z</time>
      </trkpt>
      <trkpt lat="45.87193" lon="4.93083">
        <ele>286.6102295</ele>
        <time>2013-05-18T10:07:11Z</time>
      </trkpt>
      <trkpt lat="45.87215" lon="4.93283">
        <ele>286.1295166</ele>
        <time>2013-05-18T10:07:29Z</time>
      </trkpt>
      <trkpt lat="45.87236" lon="4.93488">
        <ele>287.0908203</ele>
        <time>2013-05-18T10:07:48Z</time>
      </trkpt>
      <trkpt lat="45.87249" lon="4.93607">
        <ele>287.0908203</ele>
        <time>2013-05-18T10:07:59Z</time>
      </trkpt>
      <trkpt lat="45.87266" lon="4.93761">
        <ele>287.5714111</ele>
        <time>2013-05-18T10:08:13Z</time>
      </trkpt>
      <trkpt lat="45.87283" lon="4.93918">
        <ele>288.532959</ele>
        <time>2013-05-18T10:08:28Z</time>
      </trkpt>
      <trkpt lat="45.87295" lon="4.94021">
        <ele>289.9748535</ele>
        <time>2013-05-18T10:08:39Z</time>
      </trkpt>
      <trkpt lat="45.87303" lon="4.94101">
        <ele>292.8587646</ele>
        <time>2013-05-18T10:08:49Z</time>
      </trkpt>
      <trkpt lat="45.87312" lon="4.94189">
        <ele>296.2235107</ele>
        <time>2013-05-18T10:09:01Z</time>
      </trkpt>
      <trkpt lat="45.87313" lon="4.94196">
        <ele>296.2235107</ele>
        <time>2013-05-18T10:09:02Z</time>
      </trkpt>
      <trkpt lat="45.87319" lon="4.94261">
        <ele>299.1072998</ele>
        <time>2013-05-18T10:09:11Z</time>
      </trkpt>
      <trkpt lat="45.87326" lon="4.94323">
        <ele>301.991333</ele>
        <time>2013-05-18T10:09:20Z</time>
      </trkpt>
      <trkpt lat="45.87333" lon="4.94384">
        <ele>303.4332275</ele>
        <time>2013-05-18T10:09:29Z</time>
      </trkpt>
      <trkpt lat="45.87339" lon="4.94444">
        <ele>305.8366699</ele>
        <time>2013-05-18T10:09:38Z</time>
      </trkpt>
      <trkpt lat="45.87347" lon="4.94517">
        <ele>308.2398682</ele>
        <time>2013-05-18T10:09:49Z</time>
      </trkpt>
      <trkpt lat="45.87355" lon="4.9459">
        <ele>311.6044922</ele>
        <time>2013-05-18T10:10:00Z</time>
      </trkpt>
      <trkpt lat="45.87362" lon="4.94654">
        <ele>313.5272217</ele>
        <time>2013-05-18T10:10:09Z</time>
      </trkpt>
      <trkpt lat="45.8737" lon="4.94728">
        <ele>315.4498291</ele>
        <time>2013-05-18T10:10:18Z</time>
      </trkpt>
      <trkpt lat="45.87378" lon="4.94819">
        <ele>316.8917236</ele>
        <time>2013-05-18T10:10:28Z</time>
      </trkpt>
      <trkpt lat="45.87381" lon="4.94912">
        <ele>313.5272217</ele>
        <time>2013-05-18T10:10:37Z</time>
      </trkpt>
      <trkpt lat="45.87387" lon="4.95056">
        <ele>312.5657959</ele>
        <time>2013-05-18T10:10:50Z</time>
      </trkpt>
      <trkpt lat="45.87392" lon="4.95177">
        <ele>312.5657959</ele>
        <time>2013-05-18T10:11:01Z</time>
      </trkpt>
      <trkpt lat="45.87397" lon="4.95317">
        <ele>314.0078125</ele>
        <time>2013-05-18T10:11:14Z</time>
      </trkpt>
      <trkpt lat="45.87403" lon="4.95474">
        <ele>315.4498291</ele>
        <time>2013-05-18T10:11:29Z</time>
      </trkpt>
      <trkpt lat="45.87408" lon="4.95606">
        <ele>314.0078125</ele>
        <time>2013-05-18T10:11:41Z</time>
      </trkpt>
      <trkpt lat="45.87414" lon="4.95755">
        <ele>312.0852051</ele>
        <time>2013-05-18T10:11:54Z</time>
      </trkpt>
      <trkpt lat="45.87417" lon="4.95902">
        <ele>311.1237793</ele>
        <time>2013-05-18T10:12:07Z</time>
      </trkpt>
      <trkpt lat="45.8742" lon="4.95936">
        <ele>312.0852051</ele>
        <time>2013-05-18T10:12:10Z</time>
      </trkpt>
      <trkpt lat="45.87424" lon="4.96027">
        <ele>311.6044922</ele>
        <time>2013-05-18T10:12:18Z</time>
      </trkpt>
      <trkpt lat="45.87429" lon="4.96159">
        <ele>313.0465088</ele>
        <time>2013-05-18T10:12:30Z</time>
      </trkpt>
      <trkpt lat="45.87435" lon="4.96312">
        <ele>312.5657959</ele>
        <time>2013-05-18T10:12:44Z</time>
      </trkpt>
      <trkpt lat="45.87439" lon="4.96424">
        <ele>312.0852051</ele>
        <time>2013-05-18T10:12:54Z</time>
      </trkpt>
      <trkpt lat="45.8744" lon="4.96446">
        <ele>311.6044922</ele>
        <time>2013-05-18T10:12:56Z</time>
      </trkpt>
      <trkpt lat="45.8744" lon="4.96488">
        <ele>311.6044922</ele>
        <time>2013-05-18T10:13:00Z</time>
      </trkpt>
      <trkpt lat="45.87443" lon="4.9651">
        <ele>311.1237793</ele>
        <time>2013-05-18T10:13:02Z</time>
      </trkpt>
      <trkpt lat="45.87448" lon="4.96656">
        <ele>311.1237793</ele>
        <time>2013-05-18T10:13:15Z</time>
      </trkpt>
      <trkpt lat="45.87451" lon="4.96755">
        <ele>312.0852051</ele>
        <time>2013-05-18T10:13:25Z</time>
      </trkpt>
      <trkpt lat="45.87455" lon="4.96827">
        <ele>314.0078125</ele>
        <time>2013-05-18T10:13:33Z</time>
      </trkpt>
      <trkpt lat="45.87458" lon="4.96907">
        <ele>316.4110107</ele>
        <time>2013-05-18T10:13:42Z</time>
      </trkpt>
      <trkpt lat="45.8746" lon="4.96952">
        <ele>318.3336182</ele>
        <time>2013-05-18T10:13:47Z</time>
      </trkpt>
      <trkpt lat="45.87464" lon="4.97064">
        <ele>317.8530273</ele>
        <time>2013-05-18T10:13:59Z</time>
      </trkpt>
      <trkpt lat="45.87468" lon="4.97166">
        <ele>314.4884033</ele>
        <time>2013-05-18T10:14:08Z</time>
      </trkpt>
      <trkpt lat="45.87469" lon="4.97203">
        <ele>313.0465088</ele>
        <time>2013-05-18T10:14:11Z</time>
      </trkpt>
      <trkpt lat="45.87481" lon="4.97579">
        <ele>313.0465088</ele>
        <time>2013-05-18T10:14:41Z</time>
      </trkpt>
      <trkpt lat="45.87484" lon="4.9766">
        <ele>314.0078125</ele>
        <time>2013-05-18T10:14:49Z</time>
      </trkpt>
      <trkpt lat="45.8749" lon="4.9777">
        <ele>312.5657959</ele>
        <time>2013-05-18T10:14:59Z</time>
      </trkpt>
      <trkpt lat="45.87498" lon="4.97937">
        <ele>309.6818848</ele>
        <time>2013-05-18T10:15:13Z</time>
      </trkpt>
      <trkpt lat="45.87505" lon="4.98107">
        <ele>307.7592773</ele>
        <time>2013-05-18T10:15:27Z</time>
      </trkpt>
      <trkpt lat="45.87501" lon="4.98197">
        <ele>307.7592773</ele>
        <time>2013-05-18T10:15:35Z</time>
      </trkpt>
      <trkpt lat="45.8748" lon="4.98256">
        <ele>308.720459</ele>
        <time>2013-05-18T10:15:41Z</time>
      </trkpt>
      <trkpt lat="45.8742" lon="4.98375">
        <ele>309.6818848</ele>
        <time>2013-05-18T10:15:54Z</time>
      </trkpt>
      <trkpt lat="45.87362" lon="4.98489">
        <ele>311.1237793</ele>
        <time>2013-05-18T10:16:07Z</time>
      </trkpt>
      <trkpt lat="45.87298" lon="4.98613">
        <ele>309.6818848</ele>
        <time>2013-05-18T10:16:21Z</time>
      </trkpt>
      <trkpt lat="45.87241" lon="4.98727">
        <ele>308.720459</ele>
        <time>2013-05-18T10:16:33Z</time>
      </trkpt>
      <trkpt lat="45.87192" lon="4.98822">
        <ele>311.1237793</ele>
        <time>2013-05-18T10:16:44Z</time>
      </trkpt>
      <trkpt lat="45.87129" lon="4.98945">
        <ele>313.5272217</ele>
        <time>2013-05-18T10:16:59Z</time>
      </trkpt>
      <trkpt lat="45.8707" lon="4.99061">
        <ele>315.4498291</ele>
        <time>2013-05-18T10:17:13Z</time>
      </trkpt>
      <trkpt lat="45.87013" lon="4.99172">
        <ele>313.5272217</ele>
        <time>2013-05-18T10:17:26Z</time>
      </trkpt>
      <trkpt lat="45.86942" lon="4.99312">
        <ele>314.0078125</ele>
        <time>2013-05-18T10:17:42Z</time>
      </trkpt>
      <trkpt lat="45.86886" lon="4.99423">
        <ele>316.4110107</ele>
        <time>2013-05-18T10:17:55Z</time>
      </trkpt>
      <trkpt lat="45.86824" lon="4.99545">
        <ele>318.3336182</ele>
        <time>2013-05-18T10:18:09Z</time>
      </trkpt>
      <trkpt lat="45.8676" lon="4.99668">
        <ele>317.3724365</ele>
        <time>2013-05-18T10:18:23Z</time>
      </trkpt>
      <trkpt lat="45.86705" lon="4.99776">
        <ele>318.3336182</ele>
        <time>2013-05-18T10:18:35Z</time>
      </trkpt>
      <trkpt lat="45.86639" lon="4.99905">
        <ele>317.3724365</ele>
        <time>2013-05-18T10:18:49Z</time>
      </trkpt>
      <trkpt lat="45.86564" lon="5.00051">
        <ele>318.8143311</ele>
        <time>2013-05-18T10:19:05Z</time>
      </trkpt>
      <trkpt lat="45.86507" lon="5.00163">
        <ele>320.7370605</ele>
        <time>2013-05-18T10:19:18Z</time>
      </trkpt>
      <trkpt lat="45.86463" lon="5.00252">
        <ele>322.1789551</ele>
        <time>2013-05-18T10:19:29Z</time>
      </trkpt>
      <trkpt lat="45.86423" lon="5.00327">
        <ele>322.659668</ele>
        <time>2013-05-18T10:19:39Z</time>
      </trkpt>
      <trkpt lat="45.86383" lon="5.00387">
        <ele>324.1015625</ele>
        <time>2013-05-18T10:19:47Z</time>
      </trkpt>
      <trkpt lat="45.86331" lon="5.00454">
        <ele>324.1015625</ele>
        <time>2013-05-18T10:19:56Z</time>
      </trkpt>
      <trkpt lat="45.86271" lon="5.00528">
        <ele>321.6983643</ele>
        <time>2013-05-18T10:20:05Z</time>
      </trkpt>
      <trkpt lat="45.86243" lon="5.00562">
        <ele>319.7756348</ele>
        <time>2013-05-18T10:20:09Z</time>
      </trkpt>
      <trkpt lat="45.8618" lon="5.00641">
        <ele>316.4110107</ele>
        <time>2013-05-18T10:20:18Z</time>
      </trkpt>
      <trkpt lat="45.86173" lon="5.0065">
        <ele>316.4110107</ele>
        <time>2013-05-18T10:20:19Z</time>
      </trkpt>
      <trkpt lat="45.86073" lon="5.00778">
        <ele>315.9304199</ele>
        <time>2013-05-18T10:20:34Z</time>
      </trkpt>
      <trkpt lat="45.85996" lon="5.00879">
        <ele>316.4110107</ele>
        <time>2013-05-18T10:20:47Z</time>
      </trkpt>
      <trkpt lat="45.85926" lon="5.00971">
        <ele>319.2950439</ele>
        <time>2013-05-18T10:21:00Z</time>
      </trkpt>
      <trkpt lat="45.85884" lon="5.01042">
        <ele>321.2177734</ele>
        <time>2013-05-18T10:21:09Z</time>
      </trkpt>
      <trkpt lat="45.85834" lon="5.01145">
        <ele>323.1403809</ele>
        <time>2013-05-18T10:21:21Z</time>
      </trkpt>
      <trkpt lat="45.85793" lon="5.01243">
        <ele>323.1403809</ele>
        <time>2013-05-18T10:21:32Z</time>
      </trkpt>
      <trkpt lat="45.85763" lon="5.01326">
        <ele>321.2177734</ele>
        <time>2013-05-18T10:21:40Z</time>
      </trkpt>
      <trkpt lat="45.85727" lon="5.01431">
        <ele>316.8917236</ele>
        <time>2013-05-18T10:21:49Z</time>
      </trkpt>
      <trkpt lat="45.85689" lon="5.01541">
        <ele>315.4498291</ele>
        <time>2013-05-18T10:21:58Z</time>
      </trkpt>
      <trkpt lat="45.85641" lon="5.01675">
        <ele>313.0465088</ele>
        <time>2013-05-18T10:22:09Z</time>
      </trkpt>
      <trkpt lat="45.85587" lon="5.0183">
        <ele>310.6430664</ele>
        <time>2013-05-18T10:22:22Z</time>
      </trkpt>
      <trkpt lat="45.85537" lon="5.01969">
        <ele>311.1237793</ele>
        <time>2013-05-18T10:22:34Z</time>
      </trkpt>
      <trkpt lat="45.85483" lon="5.02124">
        <ele>311.1237793</ele>
        <time>2013-05-18T10:22:48Z</time>
      </trkpt>
      <trkpt lat="45.85425" lon="5.02309">
        <ele>307.7592773</ele>
        <time>2013-05-18T10:23:04Z</time>
      </trkpt>
      <trkpt lat="45.85407" lon="5.02373">
        <ele>305.355957</ele>
        <time>2013-05-18T10:23:09Z</time>
      </trkpt>
      <trkpt lat="45.85362" lon="5.02489">
        <ele>298.626709</ele>
        <time>2013-05-18T10:23:18Z</time>
      </trkpt>
      <trkpt lat="45.85344" lon="5.02507">
        <ele>297.1846924</ele>
        <time>2013-05-18T10:23:20Z</time>
      </trkpt>
      <trkpt lat="45.85296" lon="5.02523">
        <ele>292.8587646</ele>
        <time>2013-05-18T10:23:24Z</time>
      </trkpt>
      <trkpt lat="45.8527" lon="5.02527">
        <ele>290.4555664</ele>
        <time>2013-05-18T10:23:26Z</time>
      </trkpt>
      <trkpt lat="45.85233" lon="5.02515">
        <ele>287.0908203</ele>
        <time>2013-05-18T10:23:29Z</time>
      </trkpt>
      <trkpt lat="45.85215" lon="5.02498">
        <ele>285.6488037</ele>
        <time>2013-05-18T10:23:31Z</time>
      </trkpt>
      <trkpt lat="45.84997" lon="5.02748">
        <ele>258.2513428</ele>
        <time>2013-05-18T10:24:18Z</time>
      </trkpt>
      <trkpt lat="45.84998" lon="5.02801">
        <ele>255.8480225</ele>
        <time>2013-05-18T10:24:22Z</time>
      </trkpt>
      <trkpt lat="45.84987" lon="5.02799">
        <ele>255.3673096</ele>
        <time>2013-05-18T10:24:23Z</time>
      </trkpt>
      <trkpt lat="45.84918" lon="5.02877">
        <ele>252.9639893</ele>
        <time>2013-05-18T10:24:31Z</time>
      </trkpt>
      <trkpt lat="45.84873" lon="5.02933">
        <ele>250.0802002</ele>
        <time>2013-05-18T10:24:36Z</time>
      </trkpt>
      <trkpt lat="45.84864" lon="5.02943">
        <ele>249.5994873</ele>
        <time>2013-05-18T10:24:37Z</time>
      </trkpt>
      <trkpt lat="45.84829" lon="5.02961">
        <ele>248.1575928</ele>
        <time>2013-05-18T10:24:40Z</time>
      </trkpt>
      <trkpt lat="45.84795" lon="5.02978">
        <ele>246.2348633</ele>
        <time>2013-05-18T10:24:43Z</time>
      </trkpt>
      <trkpt lat="45.84741" lon="5.03022">
        <ele>240.9476318</ele>
        <time>2013-05-18T10:24:48Z</time>
      </trkpt>
      <trkpt lat="45.84675" lon="5.03112">
        <ele>236.1409912</ele>
        <time>2013-05-18T10:24:55Z</time>
      </trkpt>
      <trkpt lat="45.8463" lon="5.03148">
        <ele>233.7376709</ele>
        <time>2013-05-18T10:24:59Z</time>
      </trkpt>
      <trkpt lat="45.84597" lon="5.03174">
        <ele>230.3730469</ele>
        <time>2013-05-18T10:25:02Z</time>
      </trkpt>
      <trkpt lat="45.84562" lon="5.03228">
        <ele>226.527832</ele>
        <time>2013-05-18T10:25:06Z</time>
      </trkpt>
      <trkpt lat="45.84544" lon="5.03274">
        <ele>225.0859375</ele>
        <time>2013-05-18T10:25:09Z</time>
      </trkpt>
      <trkpt lat="45.84532" lon="5.03304">
        <ele>223.6437988</ele>
        <time>2013-05-18T10:25:11Z</time>
      </trkpt>
      <trkpt lat="45.84516" lon="5.03346">
        <ele>220.2791748</ele>
        <time>2013-05-18T10:25:14Z</time>
      </trkpt>
      <trkpt lat="45.8449" lon="5.03408">
        <ele>217.3953857</ele>
        <time>2013-05-18T10:25:19Z</time>
      </trkpt>
      <trkpt lat="45.84481" lon="5.03427">
        <ele>214.5112305</ele>
        <time>2013-05-18T10:25:22Z</time>
      </trkpt>
      <trkpt lat="45.84474" lon="5.03444">
        <ele>214.5112305</ele>
        <time>2013-05-18T10:25:27Z</time>
      </trkpt>
      <trkpt lat="45.84471" lon="5.03446">
        <ele>214.5112305</ele>
        <time>2013-05-18T10:25:31Z</time>
      </trkpt>
      <trkpt lat="45.84462" lon="5.03454">
        <ele>214.5112305</ele>
        <time>2013-05-18T10:25:35Z</time>
      </trkpt>
      <trkpt lat="45.84439" lon="5.03471">
        <ele>213.5500488</ele>
        <time>2013-05-18T10:25:39Z</time>
      </trkpt>
      <trkpt lat="45.84368" lon="5.03509">
        <ele>212.588623</ele>
        <time>2013-05-18T10:25:49Z</time>
      </trkpt>
      <trkpt lat="45.84335" lon="5.03524">
        <ele>211.1467285</ele>
        <time>2013-05-18T10:25:53Z</time>
      </trkpt>
      <trkpt lat="45.84257" lon="5.03546">
        <ele>210.1854248</ele>
        <time>2013-05-18T10:26:02Z</time>
      </trkpt>
      <trkpt lat="45.84192" lon="5.03554">
        <ele>210.1854248</ele>
        <time>2013-05-18T10:26:10Z</time>
      </trkpt>
      <trkpt lat="45.84133" lon="5.03557">
        <ele>209.2241211</ele>
        <time>2013-05-18T10:26:18Z</time>
      </trkpt>
      <trkpt lat="45.84101" lon="5.03625">
        <ele>210.6660156</ele>
        <time>2013-05-18T10:26:26Z</time>
      </trkpt>
      <trkpt lat="45.84068" lon="5.03722">
        <ele>208.7434082</ele>
        <time>2013-05-18T10:26:35Z</time>
      </trkpt>
      <trkpt lat="45.84064" lon="5.03733">
        <ele>207.7821045</ele>
        <time>2013-05-18T10:26:36Z</time>
      </trkpt>
      <trkpt lat="45.84036" lon="5.03769">
        <ele>205.8594971</ele>
        <time>2013-05-18T10:26:41Z</time>
      </trkpt>
      <trkpt lat="45.84018" lon="5.03793">
        <ele>205.8594971</ele>
        <time>2013-05-18T10:26:46Z</time>
      </trkpt>
      <trkpt lat="45.84022" lon="5.03801">
        <ele>205.8594971</ele>
        <time>2013-05-18T10:26:47Z</time>
      </trkpt>
      <trkpt lat="45.84037" lon="5.03846">
        <ele>206.3400879</ele>
        <time>2013-05-18T10:26:52Z</time>
      </trkpt>
      <trkpt lat="45.8404" lon="5.03876">
        <ele>207.7821045</ele>
        <time>2013-05-18T10:26:55Z</time>
      </trkpt>
      <trkpt lat="45.84037" lon="5.03918">
        <ele>207.3013916</ele>
        <time>2013-05-18T10:26:59Z</time>
      </trkpt>
      <trkpt lat="45.84024" lon="5.03961">
        <ele>206.3400879</ele>
        <time>2013-05-18T10:27:03Z</time>
      </trkpt>
      <trkpt lat="45.84008" lon="5.0401">
        <ele>206.3400879</ele>
        <time>2013-05-18T10:27:08Z</time>
      </trkpt>
      <trkpt lat="45.83993" lon="5.04123">
        <ele>205.8594971</ele>
        <time>2013-05-18T10:27:18Z</time>
      </trkpt>
      <trkpt lat="45.8398" lon="5.0418">
        <ele>205.8594971</ele>
        <time>2013-05-18T10:27:23Z</time>
      </trkpt>
      <trkpt lat="45.83965" lon="5.04236">
        <ele>204.8980713</ele>
        <time>2013-05-18T10:27:28Z</time>
      </trkpt>
      <trkpt lat="45.83955" lon="5.04343">
        <ele>204.8980713</ele>
        <time>2013-05-18T10:27:37Z</time>
      </trkpt>
      <trkpt lat="45.8397" lon="5.04406">
        <ele>205.8594971</ele>
        <time>2013-05-18T10:27:43Z</time>
      </trkpt>
      <trkpt lat="45.8402" lon="5.04499">
        <ele>208.2628174</ele>
        <time>2013-05-18T10:27:54Z</time>
      </trkpt>
      <trkpt lat="45.84051" lon="5.04562">
        <ele>210.1854248</ele>
        <time>2013-05-18T10:28:01Z</time>
      </trkpt>
      <trkpt lat="45.84086" lon="5.04642">
        <ele>212.588623</ele>
        <time>2013-05-18T10:28:11Z</time>
      </trkpt>
      <trkpt lat="45.84134" lon="5.04733">
        <ele>212.588623</ele>
        <time>2013-05-18T10:28:24Z</time>
      </trkpt>
      <trkpt lat="45.84164" lon="5.04789">
        <ele>213.0693359</ele>
        <time>2013-05-18T10:28:32Z</time>
      </trkpt>
      <trkpt lat="45.84165" lon="5.04828">
        <ele>214.5112305</ele>
        <time>2013-05-18T10:28:37Z</time>
      </trkpt>
      <trkpt lat="45.84151" lon="5.04841">
        <ele>214.9919434</ele>
        <time>2013-05-18T10:28:40Z</time>
      </trkpt>
      <trkpt lat="45.8412" lon="5.04882">
        <ele>212.588623</ele>
        <time>2013-05-18T10:28:46Z</time>
      </trkpt>
      <trkpt lat="45.84114" lon="5.04928">
        <ele>212.1080322</ele>
        <time>2013-05-18T10:28:50Z</time>
      </trkpt>
      <trkpt lat="45.8409" lon="5.04949">
        <ele>210.6660156</ele>
        <time>2013-05-18T10:28:53Z</time>
      </trkpt>
      <trkpt lat="45.84041" lon="5.04975">
        <ele>206.8206787</ele>
        <time>2013-05-18T10:28:58Z</time>
      </trkpt>
      <trkpt lat="45.83978" lon="5.05004">
        <ele>204.8980713</ele>
        <time>2013-05-18T10:29:04Z</time>
      </trkpt>
      <trkpt lat="45.83889" lon="5.05012">
        <ele>203.9368896</ele>
        <time>2013-05-18T10:29:13Z</time>
      </trkpt>
      <trkpt lat="45.83862" lon="5.05016">
        <ele>203.4561768</ele>
        <time>2013-05-18T10:29:16Z</time>
      </trkpt>
      <trkpt lat="45.8384" lon="5.05045">
        <ele>203.4561768</ele>
        <time>2013-05-18T10:29:20Z</time>
      </trkpt>
      <trkpt lat="45.83836" lon="5.05078">
        <ele>203.9368896</ele>
        <time>2013-05-18T10:29:23Z</time>
      </trkpt>
      <trkpt lat="45.83817" lon="5.05187">
        <ele>206.8206787</ele>
        <time>2013-05-18T10:29:34Z</time>
      </trkpt>
      <trkpt lat="45.83808" lon="5.0524">
        <ele>208.2628174</ele>
        <time>2013-05-18T10:29:40Z</time>
      </trkpt>
      <trkpt lat="45.83797" lon="5.0532">
        <ele>210.1854248</ele>
        <time>2013-05-18T10:29:50Z</time>
      </trkpt>
      <trkpt lat="45.83784" lon="5.05408">
        <ele>213.5500488</ele>
        <time>2013-05-18T10:30:01Z</time>
      </trkpt>
      <trkpt lat="45.83766" lon="5.05501">
        <ele>214.5112305</ele>
        <time>2013-05-18T10:30:11Z</time>
      </trkpt>
      <trkpt lat="45.83746" lon="5.05604">
        <ele>214.5112305</ele>
        <time>2013-05-18T10:30:21Z</time>
      </trkpt>
      <trkpt lat="45.83727" lon="5.05689">
        <ele>214.5112305</ele>
        <time>2013-05-18T10:30:29Z</time>
      </trkpt>
      <trkpt lat="45.83714" lon="5.05779">
        <ele>213.5500488</ele>
        <time>2013-05-18T10:30:37Z</time>
      </trkpt>
      <trkpt lat="45.83691" lon="5.05901">
        <ele>213.5500488</ele>
        <time>2013-05-18T10:30:47Z</time>
      </trkpt>
      <trkpt lat="45.83678" lon="5.0601">
        <ele>212.1080322</ele>
        <time>2013-05-18T10:30:55Z</time>
      </trkpt>
      <trkpt lat="45.83672" lon="5.06072">
        <ele>208.7434082</ele>
        <time>2013-05-18T10:30:59Z</time>
      </trkpt>
      <trkpt lat="45.83671" lon="5.06088">
        <ele>208.7434082</ele>
        <time>2013-05-18T10:31:00Z</time>
      </trkpt>
      <trkpt lat="45.83669" lon="5.06179">
        <ele>207.7821045</ele>
        <time>2013-05-18T10:31:06Z</time>
      </trkpt>
      <trkpt lat="45.83668" lon="5.06193">
        <ele>207.7821045</ele>
        <time>2013-05-18T10:31:07Z</time>
      </trkpt>
      <trkpt lat="45.83653" lon="5.06256">
        <ele>207.7821045</ele>
        <time>2013-05-18T10:31:12Z</time>
      </trkpt>
      <trkpt lat="45.83645" lon="5.06291">
        <ele>207.7821045</ele>
        <time>2013-05-18T10:31:15Z</time>
      </trkpt>
      <trkpt lat="45.83621" lon="5.06333">
        <ele>207.7821045</ele>
        <time>2013-05-18T10:31:20Z</time>
      </trkpt>
      <trkpt lat="45.83601" lon="5.06345">
        <ele>207.7821045</ele>
        <time>2013-05-18T10:31:23Z</time>
      </trkpt>
      <trkpt lat="45.83583" lon="5.0632">
        <ele>207.3013916</ele>
        <time>2013-05-18T10:31:26Z</time>
      </trkpt>
      <trkpt lat="45.83555" lon="5.0629">
        <ele>205.8594971</ele>
        <time>2013-05-18T10:31:30Z</time>
      </trkpt>
      <trkpt lat="45.83517" lon="5.06281">
        <ele>204.8980713</ele>
        <time>2013-05-18T10:31:34Z</time>
      </trkpt>
      <trkpt lat="45.83465" lon="5.06301">
        <ele>204.4174805</ele>
        <time>2013-05-18T10:31:40Z</time>
      </trkpt>
      <trkpt lat="45.83361" lon="5.0635">
        <ele>203.9368896</ele>
        <time>2013-05-18T10:31:52Z</time>
      </trkpt>
      <trkpt lat="45.83287" lon="5.06392">
        <ele>202.9754639</ele>
        <time>2013-05-18T10:32:01Z</time>
      </trkpt>
      <trkpt lat="45.83227" lon="5.06399">
        <ele>202.494873</ele>
        <time>2013-05-18T10:32:08Z</time>
      </trkpt>
      <trkpt lat="45.83129" lon="5.06402">
        <ele>202.494873</ele>
        <time>2013-05-18T10:32:19Z</time>
      </trkpt>
      <trkpt lat="45.8303" lon="5.06401">
        <ele>201.5335693</ele>
        <time>2013-05-18T10:32:30Z</time>
      </trkpt>
      <trkpt lat="45.82917" lon="5.06398">
        <ele>202.494873</ele>
        <time>2013-05-18T10:32:43Z</time>
      </trkpt>
      <trkpt lat="45.82822" lon="5.06394">
        <ele>201.0528564</ele>
        <time>2013-05-18T10:32:55Z</time>
      </trkpt>
      <trkpt lat="45.82738" lon="5.06396">
        <ele>200.5722656</ele>
        <time>2013-05-18T10:33:06Z</time>
      </trkpt>
      <trkpt lat="45.82661" lon="5.06401">
        <ele>201.0528564</ele>
        <time>2013-05-18T10:33:17Z</time>
      </trkpt>
      <trkpt lat="45.82649" lon="5.06401">
        <ele>200.0916748</ele>
        <time>2013-05-18T10:33:19Z</time>
      </trkpt>
      <trkpt lat="45.82639" lon="5.06421">
        <ele>201.0528564</ele>
        <time>2013-05-18T10:33:23Z</time>
      </trkpt>
      <trkpt lat="45.82649" lon="5.06519">
        <ele>200.5722656</ele>
        <time>2013-05-18T10:33:33Z</time>
      </trkpt>
      <trkpt lat="45.82656" lon="5.06602">
        <ele>200.5722656</ele>
        <time>2013-05-18T10:33:41Z</time>
      </trkpt>
      <trkpt lat="45.82651" lon="5.06653">
        <ele>201.5335693</ele>
        <time>2013-05-18T10:33:46Z</time>
      </trkpt>
      <trkpt lat="45.82637" lon="5.06712">
        <ele>200.5722656</ele>
        <time>2013-05-18T10:33:52Z</time>
      </trkpt>
      <trkpt lat="45.82614" lon="5.06736">
        <ele>201.5335693</ele>
        <time>2013-05-18T10:33:56Z</time>
      </trkpt>
      <trkpt lat="45.82573" lon="5.06758">
        <ele>201.5335693</ele>
        <time>2013-05-18T10:34:02Z</time>
      </trkpt>
      <trkpt lat="45.82558" lon="5.06779">
        <ele>201.5335693</ele>
        <time>2013-05-18T10:34:06Z</time>
      </trkpt>
    </trkseg>
  </trk>
</gpx>